
Distance (Route):
Temperature : -34.4°C
Humidity : 58.3%
Pressure : 327.3hPa| Receiver | Frames | First received | Last received |
|---|---|---|---|
| OM5KV | 482 | 2026-09-01 23:24:27 | 2026-09-02 01:00:45 |
| PETON7-10 | 320 | 2026-09-01 23:41:40 | 2026-09-02 01:05:08 |
| OE5DRO-10 | 70 | 2026-09-02 00:21:35 | 2026-09-02 00:55:52 |
| ATIDSZ-14 | 67 | 2026-09-01 23:33:11 | 2026-09-01 23:59:58 |
| LZ4TU-5 | 40 | 2026-09-02 00:08:21 | 2026-09-02 00:58:56 |
| SP9KGR-15 | 24 | 2026-09-02 00:33:31 | 2026-09-02 00:40:43 |
| OE3JTB-15 | 19 | 2026-09-01 23:40:16 | 2026-09-02 01:07:41 |
| OE5DXL-15 | 15 | 2026-09-02 00:36:58 | 2026-09-02 00:55:48 |
| SQ9EZE-14 | 1 | 2026-09-02 00:16:59 | 2026-09-02 00:16:59 |
| Receiver | Date | Latitude | Longitude | Direction | Speed | Altitude | Climb | Temperature | Humidity | Pressure | Voltage | Killtimer | Uptime | BKT | XDATA |
|---|---|---|---|---|---|---|---|---|---|---|---|---|---|---|---|
| OE3JTB-15 | 2026-09-02 01:07:41 | 47.40346 | 20.15725 | 91° | 89km/h | 8934m | -16.4m/s | -34.4°C | 58.3% | 327.3hPa | 2.5V | 00:00:00 | 00:00:00 | 00:00:00 | |
| OE3JTB-15 | 2026-09-02 01:07:00 | 47.40338 | 20.14335 | 91° | 97km/h | 9660m | -17.9m/s | -39.9°C | 45.9% | 294.6hPa | 2.5V | 00:00:00 | 02:12:30 | 00:00:00 | |
| OE3JTB-15 | 2026-09-02 01:05:56 | 47.40253 | 20.12146 | 85° | 97km/h | 10770m | -17.9m/s | -49.2°C | 49.0% | 249.6hPa | 2.5V | 00:00:00 | 00:00:00 | 00:00:00 | |
| PETON7-10 | 2026-09-02 01:05:08 | 47.40191 | 20.10421 | 93° | 102km/h | 11639m | -21.2m/s | -56.5°C | 43.4% | 218.4hPa | 2.5V | 00:00:00 | 02:10:39 | 00:00:00 | |
| PETON7-10 | 2026-09-02 01:04:53 | 47.40219 | 20.09854 | 95° | 102km/h | 11943m | -20.8m/s | -58.7°C | 34.0% | 208.0hPa | 2.5V | 00:00:00 | 00:00:00 | 00:00:00 | |
| PETON7-10 | 2026-09-02 01:04:38 | 47.40233 | 20.09285 | 88° | 104km/h | 12247m | -19.0m/s | -60.1°C | 22.3% | 198.3hPa | 2.6V | 00:00:00 | 00:00:00 | 00:00:00 | |
| OE3JTB-15 | 2026-09-02 01:04:28 | 47.40223 | 20.08898 | 91° | 100km/h | 12442m | -19.7m/s | -58.4°C | 13.7% | 192.1hPa | 2.6V | 00:00:00 | 00:00:00 | 00:00:00 | |
| PETON7-10 | 2026-09-02 01:04:23 | 47.40227 | 20.08703 | 94° | 100km/h | 12539m | -21.3m/s | -58.5°C | 12.9% | 189.2hPa | 2.6V | 00:00:00 | 02:09:54 | 00:00:00 | |
| PETON7-10 | 2026-09-02 01:04:07 | 47.40244 | 20.08106 | 89° | 97km/h | 12868m | -20.8m/s | -56.5°C | 8.6% | 179.6hPa | 2.6V | 08:19:00 | 00:00:00 | 00:00:00 | |
| OE3JTB-15 | 2026-09-02 01:03:57 | 47.40227 | 20.07744 | 84° | 99km/h | 13073m | -21.2m/s | -56.0°C | 7.2% | 174.0hPa | 2.6V | 00:00:00 | 02:09:28 | 00:00:00 | |
| PETON7-10 | 2026-09-02 01:03:52 | 47.40216 | 20.07561 | 87° | 91km/h | 13178m | -20.2m/s | -56.1°C | 6.8% | 171.0hPa | 2.6V | 00:00:00 | 00:00:00 | 00:00:00 | |
| PETON7-10 | 2026-09-02 01:03:37 | 47.40177 | 20.07053 | 77° | 99km/h | 13496m | -21.4m/s | -55.1°C | 5.5% | 162.7hPa | 2.6V | 00:00:00 | 02:09:08 | 00:00:00 | |
| OE3JTB-15 | 2026-09-02 01:03:27 | 47.40121 | 20.06691 | 81° | 99km/h | 13709m | -20.8m/s | -56.0°C | 5.7% | 157.3hPa | 2.6V | 00:00:00 | 00:00:00 | 08:30:00 | |
| PETON7-10 | 2026-09-02 01:03:22 | 47.40103 | 20.06506 | 81° | 91km/h | 13821m | -22.9m/s | -55.9°C | 5.6% | 154.7hPa | 2.6V | 00:00:00 | 00:00:00 | 00:00:00 | |
| PETON7-10 | 2026-09-02 01:03:06 | 47.40109 | 20.05963 | 96° | 80km/h | 14160m | -22.3m/s | -56.1°C | 5.4% | 146.5hPa | 2.5V | 00:00:00 | 00:00:00 | 00:00:00 | |
| PETON7-10 | 2026-09-02 01:02:51 | 47.40081 | 20.05514 | 77° | 89km/h | 14510m | -24.3m/s | -56.0°C | 5.3% | 138.7hPa | 2.5V | 00:00:00 | 02:08:22 | 00:00:00 | |
| PETON7-10 | 2026-09-02 01:02:36 | 47.40025 | 20.05027 | 84° | 84km/h | 14852m | -22.2m/s | -55.9°C | 5.1% | 131.6hPa | 2.5V | 00:00:00 | 00:00:00 | 00:00:00 | |
| PETON7-10 | 2026-09-02 01:02:20 | 47.39994 | 20.04529 | 88° | 77km/h | 15200m | -19.8m/s | -55.6°C | 4.8% | 124.4hPa | 2.5V | 00:00:00 | 00:00:00 | 00:00:00 | |
| PETON7-10 | 2026-09-02 01:02:05 | 47.39948 | 20.04109 | 76° | 77km/h | 15508m | -20.7m/s | -55.4°C | 4.7% | 118.5hPa | 2.5V | 00:00:00 | 02:07:36 | 00:00:00 | |
| PETON7-10 | 2026-09-02 01:01:50 | 47.39911 | 20.03677 | 83° | 68km/h | 15810m | -19.9m/s | -55.5°C | 4.8% | 113.0hPa | 2.5V | 08:22:00 | 00:00:00 | 00:00:00 | |
| PETON7-10 | 2026-09-02 01:01:35 | 47.39883 | 20.03306 | 89° | 62km/h | 16128m | -21.7m/s | -55.1°C | 4.7% | 107.6hPa | 2.5V | 00:00:00 | 00:00:00 | 00:00:00 | |
| PETON7-10 | 2026-09-02 01:01:20 | 47.39868 | 20.02963 | 97° | 55km/h | 16472m | -21.7m/s | -54.8°C | 4.7% | 101.9hPa | 2.5V | 00:00:00 | 02:06:51 | 00:00:00 | |
| PETON7-10 | 2026-09-02 01:01:04 | 47.39895 | 20.02648 | 99° | 38km/h | 16844m | -23.6m/s | -54.1°C | 4.5% | 96.3hPa | 2.5V | 00:00:00 | 00:00:00 | 00:00:00 | |
| PETON7-10 | 2026-09-02 01:00:49 | 47.39940 | 20.02453 | 112° | 18km/h | 17205m | -25.0m/s | -52.2°C | 3.7% | 91.0hPa | 2.5V | 00:00:00 | 00:00:00 | 00:00:00 | |
| OM5KV | 2026-09-02 01:00:45 | 47.39945 | 20.02436 | 107° | 15km/h | 17280m | -25.4m/s | -52.6°C | 1.1% | 90.1hPa | 2.5V | 08:23:00 | 00:00:00 | 00:00:00 | |
| OM5KV | 2026-09-02 01:00:40 | 47.39953 | 20.02413 | 131° | 16km/h | 17407m | -25.9m/s | -53.1°C | 1.1% | 88.3hPa | 2.5V | 08:23:00 | 00:00:00 | 00:00:00 | |
| PETON7-10 | 2026-09-02 01:00:34 | 47.39966 | 20.02362 | 105° | 38km/h | 17584m | -27.6m/s | -54.4°C | 4.2% | 85.8hPa | 2.5V | 00:00:00 | 02:06:05 | 00:00:00 | |
| OM5KV | 2026-09-02 01:00:30 | 47.39966 | 20.02315 | 90° | 35km/h | 17691m | -26.2m/s | -54.7°C | 1.3% | 84.4hPa | 2.5V | 08:23:00 | 00:00:00 | 00:00:00 | |
| OM5KV | 2026-09-02 01:00:23 | 47.39956 | 20.02225 | 82° | 46km/h | 17847m | -26.7m/s | -55.1°C | 1.3% | 82.5hPa | 2.5V | 08:23:00 | 00:00:00 | 00:00:00 | |
| PETON7-10 | 2026-09-02 01:00:19 | 47.39948 | 20.02140 | 88° | 35km/h | 17977m | -25.7m/s | -54.9°C | 4.4% | 80.6hPa | 2.5V | 00:00:00 | 00:00:00 | 00:00:00 | |
| OM5KV | 2026-09-02 01:00:17 | 47.39948 | 20.02123 | 95° | 44km/h | 18003m | -26.3m/s | -54.8°C | 1.2% | 80.3hPa | 2.5V | 08:23:00 | 00:00:00 | 00:00:00 | |
| OM5KV | 2026-09-02 01:00:12 | 47.39955 | 20.02046 | 105° | 38km/h | 18137m | -28.8m/s | -55.4°C | 1.3% | 78.8hPa | 2.5V | 08:24:00 | 00:00:00 | 00:00:00 | |
| OM5KV | 2026-09-02 01:00:06 | 47.39972 | 20.01981 | 114° | 26km/h | 18298m | -26.9m/s | -55.0°C | 1.3% | 76.8hPa | 2.5V | 08:24:00 | 00:00:00 | 00:00:00 | |
| PETON7-10 | 2026-09-02 01:00:04 | 47.39977 | 20.01957 | 99° | 22km/h | 18379m | -28.2m/s | -55.3°C | 4.5% | 75.7hPa | 2.5V | 00:00:00 | 00:00:00 | 00:00:00 | |
| OM5KV | 2026-09-02 00:59:51 | 47.39958 | 20.01869 | 75° | 27km/h | 18700m | -25.2m/s | -56.9°C | 1.6% | 72.1hPa | 2.5V | 08:24:00 | 00:00:00 | 00:00:00 | |
| PETON7-10 | 2026-09-02 00:59:49 | 47.39952 | 20.01838 | 77° | 29km/h | 18779m | -26.9m/s | -55.9°C | 5.1% | 71.1hPa | 2.5V | 00:00:00 | 02:05:20 | 00:00:00 | |
| OM5KV | 2026-09-02 00:59:45 | 47.39946 | 20.01806 | 73° | 31km/h | 18860m | -29.2m/s | -55.2°C | 1.4% | 70.3hPa | 2.5V | 08:24:00 | 00:00:00 | 00:00:00 | |
| OM5KV | 2026-09-02 00:59:40 | 47.39931 | 20.01752 | 72° | 33km/h | 19007m | -30.7m/s | -55.1°C | 1.3% | 68.8hPa | 2.5V | 08:24:00 | 00:00:00 | 00:00:00 | |
| OM5KV | 2026-09-02 00:59:39 | 47.39927 | 20.01730 | 77° | 31km/h | 19068m | -30.6m/s | -55.1°C | 1.3% | 68.1hPa | 2.5V | 08:24:00 | 00:00:00 | 00:00:00 | |
| PETON7-10 | 2026-09-02 00:59:34 | 47.39918 | 20.01677 | 96° | 18km/h | 19220m | -30.8m/s | -53.4°C | 4.1% | 66.5hPa | 2.5V | 08:24:00 | 00:00:00 | 00:00:00 | |
| OM5KV | 2026-09-02 00:59:28 | 47.39923 | 20.01633 | 110° | 22km/h | 19372m | -31.1m/s | -53.0°C | 1.1% | 65.0hPa | 2.6V | 08:24:00 | 00:00:00 | 00:00:00 | |
| OM5KV | 2026-09-02 00:59:27 | 47.39925 | 20.01625 | 106° | 20km/h | 19402m | -30.0m/s | -52.9°C | 1.0% | 64.7hPa | 2.6V | 08:24:00 | 00:00:00 | 00:00:00 | |
| OM5KV | 2026-09-02 00:59:23 | 47.39930 | 20.01599 | 118° | 16km/h | 19514m | -27.1m/s | -53.6°C | 1.1% | 63.5hPa | 2.6V | 08:25:00 | 00:00:00 | 00:00:00 | |
| OM5KV | 2026-09-02 00:59:22 | 47.39933 | 20.01590 | 115° | 9km/h | 19568m | -29.7m/s | -53.5°C | 1.1% | 63.0hPa | 2.6V | 08:25:00 | 00:00:00 | 00:00:00 | |
| PETON7-10 | 2026-09-02 00:59:19 | 47.39937 | 20.01588 | 217° | 9km/h | 19656m | -29.4m/s | -53.5°C | 4.0% | 62.0hPa | 2.6V | 00:00:00 | 00:00:00 | 00:00:00 | |
| OM5KV | 2026-09-02 00:59:17 | 47.39938 | 20.01590 | 237° | 7km/h | 19685m | -28.6m/s | -53.7°C | 1.1% | 61.9hPa | 2.6V | 08:25:00 | 00:00:00 | 00:00:00 | |
| OM5KV | 2026-09-02 00:59:15 | 47.39939 | 20.01595 | 260° | 7km/h | 19744m | -30.2m/s | -53.4°C | 1.1% | 61.3hPa | 2.6V | 08:25:00 | 00:00:00 | 00:00:00 | |
| OM5KV | 2026-09-02 00:59:12 | 47.39938 | 20.01604 | 289° | 7km/h | 19835m | -30.5m/s | -53.8°C | 1.1% | 60.5hPa | 2.6V | 08:25:00 | 00:00:00 | 00:00:00 | |
| OM5KV | 2026-09-02 00:59:10 | 47.39935 | 20.01608 | 328° | 9km/h | 19896m | -30.1m/s | -54.0°C | 1.1% | 59.9hPa | 2.6V | 08:25:00 | 00:00:00 | 00:00:00 | |
| OM5KV | 2026-09-02 00:59:06 | 47.39925 | 20.01611 | 7° | 11km/h | 20021m | -31.6m/s | -54.3°C | 1.2% | 58.8hPa | 2.6V | 08:25:00 | 00:00:00 | 00:00:00 | |
| PETON7-10 | 2026-09-02 00:59:04 | 47.39917 | 20.01606 | 46° | 20km/h | 20118m | -30.7m/s | -54.8°C | 4.5% | 57.8hPa | 2.6V | 00:00:00 | 02:04:35 | 00:00:00 | |
| OM5KV | 2026-09-02 00:58:59 | 47.39907 | 20.01592 | 50° | 15km/h | 20237m | -28.1m/s | -54.9°C | 1.3% | 56.7hPa | 2.6V | 08:25:00 | 00:00:00 | 00:00:00 | |
| LZ4TU-5 | 2026-09-02 00:58:56 | 47.39897 | 20.01578 | 45° | 20km/h | 20323m | -30.0m/s | -55.1°C | 0% | 56.0hPa | 2.6V | 00:00:00 | 00:00:00 | 00:00:00 | |
| LZ4TU-5 | 2026-09-02 00:58:51 | 47.39873 | 20.01547 | 52° | 27km/h | 20474m | -31.2m/s | -54.4°C | 0% | 54.7hPa | 2.6V | 00:00:00 | 00:00:00 | 00:00:00 | |
| OM5KV | 2026-09-02 00:58:50 | 47.39869 | 20.01540 | 55° | 26km/h | 20505m | -30.3m/s | -54.4°C | 1.2% | 54.5hPa | 2.6V | 08:25:00 | 00:00:00 | 00:00:00 | |
| PETON7-10 | 2026-09-02 00:58:49 | 47.39861 | 20.01522 | 63° | 22km/h | 20568m | -31.7m/s | -54.4°C | 4.5% | 53.8hPa | 2.6V | 00:00:00 | 00:00:00 | 00:00:00 | |
| OM5KV | 2026-09-02 00:58:44 | 47.39851 | 20.01484 | 79° | 26km/h | 20691m | -30.9m/s | -54.7°C | 1.3% | 52.9hPa | 2.5V | 08:25:00 | 00:00:00 | 00:00:00 | |
| OM5KV | 2026-09-02 00:58:42 | 47.39849 | 20.01466 | 80° | 26km/h | 20751m | -29.6m/s | -54.5°C | 1.3% | 52.4hPa | 2.5V | 08:25:00 | 00:00:00 | 00:00:00 | |
| OM5KV | 2026-09-02 00:58:37 | 47.39843 | 20.01430 | 86° | 15km/h | 20911m | -32.1m/s | -54.0°C | 1.2% | 51.1hPa | 2.5V | 08:25:00 | 00:00:00 | 00:00:00 | |
| PETON7-10 | 2026-09-02 00:58:34 | 47.39840 | 20.01408 | 68° | 22km/h | 21037m | -31.8m/s | -53.4°C | 4.2% | 50.0hPa | 2.5V | 00:00:00 | 00:00:00 | 00:00:00 | |
| OM5KV | 2026-09-02 00:58:33 | 47.39840 | 20.01408 | 68° | 18km/h | 21037m | -31.8m/s | -53.5°C | 1.1% | 50.1hPa | 2.5V | 08:26:00 | 00:00:00 | 00:00:00 | |
| OM5KV | 2026-09-02 00:58:31 | 47.39834 | 20.01395 | 58° | 24km/h | 21100m | -31.0m/s | -53.4°C | 1.1% | 49.6hPa | 2.5V | 08:26:00 | 00:00:00 | 00:00:00 | |
| OM5KV | 2026-09-02 00:58:27 | 47.39819 | 20.01361 | 57° | 27km/h | 21222m | -29.2m/s | -53.7°C | 1.2% | 48.6hPa | 2.5V | 08:26:00 | 00:00:00 | 00:00:00 | |
| OM5KV | 2026-09-02 00:58:26 | 47.39815 | 20.01353 | 63° | 26km/h | 21251m | -29.7m/s | -53.7°C | 1.2% | 48.4hPa | 2.5V | 08:26:00 | 00:00:00 | 00:00:00 | |
| PETON7-10 | 2026-09-02 00:58:20 | 47.39801 | 20.01301 | 60° | 9km/h | 21502m | -32.3m/s | -52.9°C | 4.0% | 46.6hPa | 2.5V | 00:00:00 | 02:03:50 | 00:00:00 | |
| OM5KV | 2026-09-02 00:58:16 | 47.39798 | 20.01294 | 56° | 11km/h | 21564m | -29.9m/s | -53.2°C | 1.1% | 46.1hPa | 2.5V | 08:26:00 | 00:00:00 | 00:00:00 | |
| OM5KV | 2026-09-02 00:58:14 | 47.39796 | 20.01288 | 52° | 7km/h | 21625m | -30.6m/s | -53.3°C | 1.1% | 45.6hPa | 2.5V | 08:26:00 | 00:00:00 | 00:00:00 | |
| OM5KV | 2026-09-02 00:58:10 | 47.39794 | 20.01275 | 113° | 9km/h | 21754m | -33.2m/s | -52.9°C | 1.1% | 44.8hPa | 2.5V | 08:26:00 | 00:00:00 | 00:00:00 | |
| OM5KV | 2026-09-02 00:58:05 | 47.39795 | 20.01256 | 72° | 9km/h | 21915m | -34.3m/s | -53.2°C | 1.1% | 43.7hPa | 2.5V | 08:26:00 | 00:00:00 | 00:00:00 | |
| PETON7-10 | 2026-09-02 00:58:03 | 47.39792 | 20.01245 | 64° | 20km/h | 22017m | -34.9m/s | -53.5°C | 4.4% | 43.0hPa | 2.5V | 00:00:00 | 00:00:00 | 00:00:00 | |
| OM5KV | 2026-09-02 00:58:02 | 47.39792 | 20.01245 | 64° | 13km/h | 22017m | -34.9m/s | -53.5°C | 1.2% | 43.0hPa | 2.5V | 08:26:00 | 00:00:00 | 00:00:00 | |
| OM5KV | 2026-09-02 00:58:00 | 47.39788 | 20.01235 | 63° | 16km/h | 22088m | -35.7m/s | -53.3°C | 1.1% | 42.6hPa | 2.5V | 08:26:00 | 00:00:00 | 00:00:00 | |
| OM5KV | 2026-09-02 00:57:55 | 47.39784 | 20.01195 | 105° | 20km/h | 22290m | -35.5m/s | -52.5°C | 1.1% | 41.2hPa | 2.5V | 08:26:00 | 00:00:00 | 00:00:00 | |
| OM5KV | 2026-09-02 00:57:52 | 47.39789 | 20.01182 | 130° | 22km/h | 22363m | -35.1m/s | -52.2°C | 1.1% | 40.7hPa | 2.5V | 08:26:00 | 00:00:00 | 00:00:00 | |
| PETON7-10 | 2026-09-02 00:57:48 | 47.39810 | 20.01157 | 156° | 15km/h | 22543m | -34.7m/s | -51.9°C | 3.7% | 39.6hPa | 2.5V | 00:00:00 | 00:00:00 | 00:00:00 | |
| OM5KV | 2026-09-02 00:57:41 | 47.39836 | 20.01159 | 219° | 15km/h | 22765m | -37.4m/s | -52.7°C | 1.1% | 38.3hPa | 2.5V | 00:00:00 | 00:00:00 | 00:00:00 | |
| OM5KV | 2026-09-02 00:57:35 | 47.39845 | 20.01185 | 265° | 9km/h | 22987m | -37.9m/s | -52.5°C | 1.0% | 37.1hPa | 2.5V | 00:00:00 | 00:00:00 | 00:00:00 | |
| PETON7-10 | 2026-09-02 00:57:33 | 47.39845 | 20.01192 | 242° | 9km/h | 23101m | -37.9m/s | -52.6°C | 3.9% | 36.4hPa | 2.5V | 00:00:00 | 02:03:04 | 00:00:00 | |
| OM5KV | 2026-09-02 00:57:32 | 47.39845 | 20.01192 | 242° | 7km/h | 23101m | -37.9m/s | -52.6°C | 1.0% | 36.4hPa | 2.5V | 08:26:00 | 00:00:00 | 00:00:00 | |
| OM5KV | 2026-09-02 00:57:26 | 47.39852 | 20.01195 | 180° | 9km/h | 23333m | -39.7m/s | -53.0°C | 1.1% | 35.1hPa | 2.5V | 08:26:00 | 00:00:00 | 00:00:00 | |
| OM5KV | 2026-09-02 00:57:23 | 47.39859 | 20.01196 | 202° | 9km/h | 23447m | -38.2m/s | -53.3°C | 1.1% | 34.5hPa | 2.5V | 00:00:00 | 00:00:00 | 00:00:00 | |
| OM5KV | 2026-09-02 00:57:21 | 47.39864 | 20.01200 | 223° | 11km/h | 23523m | -37.9m/s | -53.4°C | 1.1% | 34.1hPa | 2.5V | 08:26:00 | 00:00:00 | 00:00:00 | |
| OM5KV | 2026-09-02 00:57:19 | 47.39868 | 20.01211 | 249° | 7km/h | 23634m | -37.8m/s | -53.9°C | 1.2% | 33.5hPa | 2.5V | 00:00:00 | 00:00:00 | 00:00:00 | |
| PETON7-10 | 2026-09-02 00:57:18 | 47.39869 | 20.01214 | 263° | 7km/h | 23672m | -38.3m/s | -53.9°C | 4.5% | 33.3hPa | 2.5V | 08:26:00 | 00:00:00 | 00:00:00 | |
| OM5KV | 2026-09-02 00:57:13 | 47.39871 | 20.01223 | 234° | 7km/h | 23821m | -36.4m/s | -53.5°C | 1.2% | 32.5hPa | 2.6V | 00:00:00 | 00:00:00 | 00:00:00 | |
| OM5KV | 2026-09-02 00:57:07 | 47.39869 | 20.01233 | 348° | 9km/h | 24041m | -36.3m/s | -52.8°C | 1.1% | 31.3hPa | 2.6V | 00:00:00 | 00:00:00 | 00:00:00 | |
| OM5KV | 2026-09-02 00:57:05 | 47.39865 | 20.01234 | 11° | 9km/h | 24113m | -37.2m/s | -53.1°C | 1.2% | 31.0hPa | 2.6V | 08:26:00 | 00:00:00 | 00:00:00 | |
| PETON7-10 | 2026-09-02 00:57:03 | 47.39858 | 20.01226 | 57° | 9km/h | 24228m | -39.5m/s | -52.9°C | 4.4% | 30.5hPa | 2.6V | 00:00:00 | 00:00:00 | 00:00:00 | |
| OM5KV | 2026-09-02 00:57:01 | 47.39855 | 20.01219 | 64° | 11km/h | 24305m | -38.6m/s | -52.7°C | 1.1% | 30.2hPa | 2.6V | 08:26:00 | 00:00:00 | 00:00:00 | |
| PETON7-10 | 2026-09-02 00:56:48 | 47.39863 | 20.01180 | 143° | 7km/h | 24834m | -41.9m/s | -51.5°C | 4.1% | 27.7hPa | 2.6V | 00:00:00 | 02:02:19 | 00:00:00 | |
| OM5KV | 2026-09-02 00:56:36 | 47.39882 | 20.01177 | 231° | 5km/h | 25287m | -39.4m/s | -50.6°C | 1.0% | 25.9hPa | 2.6V | 00:00:00 | 00:00:00 | 00:00:00 | |
| PETON7-10 | 2026-09-02 00:56:33 | 47.39882 | 20.01182 | 286° | 9km/h | 25446m | -41.1m/s | -50.3°C | 4.0% | 25.2hPa | 2.6V | 00:00:00 | 00:00:00 | 00:00:00 | |
| PETON7-10 | 2026-09-02 00:56:18 | 47.39892 | 20.01228 | 289° | 4km/h | 26057m | -42.7m/s | -48.8°C | 3.6% | 22.9hPa | 2.5V | 00:00:00 | 00:00:00 | 00:00:00 | |
| OM5KV | 2026-09-02 00:56:13 | 47.39891 | 20.01236 | 350° | 4km/h | 26273m | -44.5m/s | -48.2°C | 0.9% | 22.3hPa | 2.5V | 00:00:00 | 00:00:00 | 00:00:00 | |
| PETON7-10 | 2026-09-02 00:56:02 | 47.39890 | 20.01232 | 250° | 7km/h | 26749m | -42.8m/s | -47.5°C | 3.3% | 20.6hPa | 2.5V | 00:00:00 | 02:01:33 | 00:00:00 | |
| OE5DRO-10 | 2026-09-02 00:55:52 | 47.39881 | 20.01239 | 58° | 11km/h | 27195m | -45.4m/s | -47.4°C | 3.4% | 19.3hPa | 2.5V | 00:00:00 | 00:00:00 | 00:00:00 | |
| OE5DXL-15 | 2026-09-02 00:55:48 | 47.39878 | 20.01229 | 78° | 13km/h | 27372m | -44.2m/s | -47.1°C | 3.3% | 18.7hPa | 2.5V | 00:00:00 | 00:00:00 | 00:00:00 | |
| PETON7-10 | 2026-09-02 00:55:47 | 47.39878 | 20.01227 | 80° | 13km/h | 27416m | -45.3m/s | -46.9°C | 3.3% | 18.6hPa | 2.5V | 00:00:00 | 00:00:00 | 00:00:00 | |
| PETON7-10 | 2026-09-02 00:55:32 | 47.39861 | 20.01162 | 82° | 11km/h | 28117m | -46.1m/s | -46.3°C | 3.5% | 16.7hPa | 2.5V | 00:00:00 | 00:00:00 | 00:00:00 | |
| PETON7-10 | 2026-09-02 00:55:17 | 47.39831 | 20.01116 | 34° | 15km/h | 28813m | -48.3m/s | -43.1°C | 2.9% | 15.0hPa | 2.5V | 00:00:00 | 02:00:48 | 00:00:00 | |
| PETON7-10 | 2026-09-02 00:55:02 | 47.39810 | 20.01043 | 43° | 24km/h | 29514m | -47.6m/s | -41.5°C | 2.5% | 13.5hPa | 2.5V | 08:28:00 | 00:00:00 | 00:00:00 | |
| PETON7-10 | 2026-09-02 00:54:47 | 47.39765 | 20.00943 | 92° | 11km/h | 30269m | -50.1m/s | -42.2°C | 2.7% | 12.1hPa | 2.5V | 00:00:00 | 00:00:00 | 00:00:00 | |
| PETON7-10 | 2026-09-02 00:54:32 | 47.39763 | 20.00888 | 40° | 20km/h | 31038m | -49.1m/s | -41.1°C | 2.6% | 10.7hPa | 2.5V | 00:00:00 | 02:00:03 | 00:00:00 | |
| OE5DRO-10 | 2026-09-02 00:54:28 | 47.39747 | 20.00851 | 73° | 13km/h | 31321m | -44.0m/s | -40.9°C | 2.6% | 10.2hPa | 2.5V | 00:00:00 | 00:00:00 | 08:30:00 | |
| PETON7-10 | 2026-09-02 00:54:17 | 47.39766 | 20.00808 | 194° | 11km/h | 31738m | -52.9m/s | -39.2°C | 2.3% | 9.6hPa | 2.5V | 00:00:00 | 00:00:00 | 00:00:00 | |
| OE5DXL-15 | 2026-09-02 00:54:16 | 47.39776 | 20.00813 | 211° | 16km/h | 31896m | -51.7m/s | -39.1°C | 2.3% | 9.4hPa | 2.6V | 00:00:00 | 00:00:00 | 00:00:00 | |
| LZ4TU-5 | 2026-09-02 00:54:11 | 47.39781 | 20.00817 | 201° | 15km/h | 31995m | -52.3m/s | -38.8°C | 0% | 9.3hPa | 2.6V | 00:00:00 | 00:00:00 | 00:00:00 | |
| LZ4TU-5 | 2026-09-02 00:54:07 | 47.39791 | 20.00823 | 231° | 5km/h | 32203m | -52.3m/s | -38.3°C | 0% | 0hPa | 2.6V | 00:00:00 | 00:00:00 | 00:00:00 | |
| PETON7-10 | 2026-09-02 00:54:02 | 47.39795 | 20.00845 | 261° | 15km/h | 32496m | -46.0m/s | -39.2°C | 2.2% | 8.6hPa | 2.6V | 00:00:00 | 00:00:00 | 00:00:00 | |
| OE5DRO-10 | 2026-09-02 00:53:57 | 47.39788 | 20.00865 | 16° | 20km/h | 32764m | -43.7m/s | -39.0°C | 2.2% | 8.2hPa | 2.6V | 00:00:00 | 00:00:00 | 00:00:00 | |
| PETON7-10 | 2026-09-02 00:53:47 | 47.39785 | 20.00845 | 216° | 24km/h | 33108m | -26.5m/s | -39.5°C | 2.3% | 7.7hPa | 2.6V | 00:00:00 | 01:59:18 | 00:00:00 | |
| PETON7-10 | 2026-09-02 00:53:32 | 47.39773 | 20.00854 | 229° | 27km/h | 33594m | -28.8m/s | -39.1°C | 2.3% | 7.2hPa | 2.6V | 00:00:00 | 00:00:00 | 00:00:00 | |
| PETON7-10 | 2026-09-02 00:53:17 | 47.39753 | 20.00884 | 303° | 16km/h | 33898m | 7.4m/s | -38.8°C | 2.2% | 6.8hPa | 2.7V | 00:00:00 | 00:00:00 | 00:00:00 | |
| OE5DRO-10 | 2026-09-02 00:53:15 | 47.39738 | 20.00916 | 323° | 13km/h | 33871m | 6.1m/s | -39.1°C | 2.2% | 6.9hPa | 2.7V | 00:00:00 | 00:00:00 | 00:00:00 | |
| PETON7-10 | 2026-09-02 00:53:02 | 47.39714 | 20.00944 | 292° | 9km/h | 33792m | 7.7m/s | -39.3°C | 2.3% | 6.9hPa | 2.7V | 00:00:00 | 01:58:33 | 00:00:00 | |
| OE5DXL-15 | 2026-09-02 00:52:58 | 47.39714 | 20.00941 | 46° | 11km/h | 33749m | 6.8m/s | -39.4°C | 2.2% | 7.0hPa | 2.7V | 00:00:00 | 00:00:00 | 00:00:00 | |
| PETON7-10 | 2026-09-02 00:52:47 | 47.39705 | 20.00950 | 1° | 13km/h | 33684m | 6.3m/s | -39.8°C | 2.3% | 7.0hPa | 2.7V | 00:00:00 | 00:00:00 | 08:30:00 | |
| PETON7-10 | 2026-09-02 00:52:32 | 47.39683 | 20.00916 | 354° | 11km/h | 33573m | 5.9m/s | -39.6°C | 2.2% | 7.2hPa | 2.5V | 00:00:00 | 00:00:00 | 00:00:00 | |
| OE5DXL-15 | 2026-09-02 00:52:28 | 47.39673 | 20.00908 | 16° | 11km/h | 33526m | 7.7m/s | -39.9°C | 2.3% | 7.2hPa | 2.5V | 00:00:00 | 00:00:00 | 00:00:00 | |
| OE5DRO-10 | 2026-09-02 00:52:27 | 47.39673 | 20.00908 | 16° | 15km/h | 33526m | 7.7m/s | -39.9°C | 2.3% | 7.2hPa | 2.5V | 00:00:00 | 00:00:00 | 00:00:00 | |
| OE5DRO-10 | 2026-09-02 00:52:07 | 47.39641 | 20.00957 | 223° | 11km/h | 33375m | 6.8m/s | -40.1°C | 2.4% | 7.4hPa | 2.5V | 00:00:00 | 00:00:00 | 00:00:00 | |
| PETON7-10 | 2026-09-02 00:52:01 | 47.39642 | 20.00967 | 266° | 13km/h | 33336m | 9.0m/s | -40.0°C | 2.3% | 7.4hPa | 2.5V | 00:00:00 | 00:00:00 | 00:00:00 | |
| LZ4TU-5 | 2026-09-02 00:51:53 | 47.39638 | 20.01010 | 245° | 20km/h | 33275m | 8.9m/s | -40.1°C | 0% | 0hPa | 2.5V | 00:00:00 | 00:00:00 | 00:00:00 | |
| OE5DRO-10 | 2026-09-02 00:51:47 | 47.39649 | 20.01030 | 336° | 11km/h | 33223m | 6.9m/s | -39.9°C | 2.4% | 7.6hPa | 2.5V | 00:00:00 | 00:00:00 | 00:00:00 | |
| PETON7-10 | 2026-09-02 00:51:46 | 47.39649 | 20.01030 | 336° | 11km/h | 33223m | 6.9m/s | -39.9°C | 2.4% | 7.6hPa | 2.5V | 00:00:00 | 00:00:00 | 00:00:00 | |
| PETON7-10 | 2026-09-02 00:51:31 | 47.39675 | 20.01031 | 97° | 11km/h | 33107m | 6.7m/s | -39.8°C | 2.3% | 7.7hPa | 2.5V | 00:00:00 | 01:57:02 | 00:00:00 | |
| OE5DRO-10 | 2026-09-02 00:51:27 | 47.39680 | 20.01027 | 255° | 15km/h | 33070m | 7.1m/s | -39.9°C | 2.3% | 7.7hPa | 2.5V | 00:00:00 | 00:00:00 | 00:00:00 | |
| OE5DXL-15 | 2026-09-02 00:51:20 | 47.39675 | 20.01002 | 90° | 13km/h | 33011m | 6.5m/s | -40.2°C | 2.4% | 7.8hPa | 2.5V | 00:00:00 | 00:00:00 | 00:00:00 | |
| PETON7-10 | 2026-09-02 00:51:16 | 47.39672 | 20.00987 | 53° | 15km/h | 32996m | 7.7m/s | -40.1°C | 2.4% | 7.8hPa | 2.5V | 00:00:00 | 00:00:00 | 00:00:00 | |
| OE5DRO-10 | 2026-09-02 00:51:08 | 47.39645 | 20.00974 | 24° | 11km/h | 32937m | 8.2m/s | -39.8°C | 2.4% | 7.9hPa | 2.5V | 00:00:00 | 00:00:00 | 00:00:00 | |
| PETON7-10 | 2026-09-02 00:51:01 | 47.39631 | 20.00961 | 12° | 13km/h | 32885m | 8.4m/s | -39.9°C | 2.3% | 8.0hPa | 2.5V | 00:00:00 | 00:00:00 | 00:00:00 | |
| OE5DRO-10 | 2026-09-02 00:50:49 | 47.39614 | 20.00988 | 291° | 15km/h | 32798m | 9.1m/s | -39.7°C | 2.3% | 8.1hPa | 2.5V | 00:00:00 | 00:00:00 | 00:00:00 | |
| OE5DXL-15 | 2026-09-02 00:50:48 | 47.39611 | 20.01001 | 314° | 18km/h | 32776m | 8.0m/s | -39.8°C | 2.3% | 8.1hPa | 2.5V | 00:00:00 | 00:00:00 | 00:00:00 | |
| PETON7-10 | 2026-09-02 00:50:46 | 47.39611 | 20.01001 | 314° | 15km/h | 32776m | 8.0m/s | -39.8°C | 2.3% | 8.1hPa | 2.5V | 00:00:00 | 01:56:17 | 00:00:00 | |
| PETON7-10 | 2026-09-02 00:50:31 | 47.39613 | 20.01076 | 255° | 22km/h | 32664m | 6.1m/s | -40.2°C | 2.4% | 8.2hPa | 2.5V | 00:00:00 | 00:00:00 | 08:30:00 | |
| OE5DRO-10 | 2026-09-02 00:50:29 | 47.39614 | 20.01084 | 283° | 15km/h | 32649m | 8.9m/s | -40.4°C | 2.4% | 8.3hPa | 2.6V | 00:00:00 | 00:00:00 | 08:30:00 | |
| PETON7-10 | 2026-09-02 00:50:16 | 47.39618 | 20.01186 | 244° | 15km/h | 32556m | 7.3m/s | -40.0°C | 2.4% | 8.4hPa | 2.5V | 00:00:00 | 00:00:00 | 00:00:00 | |
| OE5DRO-10 | 2026-09-02 00:50:10 | 47.39630 | 20.01202 | 211° | 11km/h | 32514m | 6.3m/s | -39.9°C | 2.4% | 8.5hPa | 2.5V | 00:00:00 | 00:00:00 | 00:00:00 | |
| PETON7-10 | 2026-09-02 00:50:01 | 47.39647 | 20.01255 | 224° | 16km/h | 32448m | 7.8m/s | -39.8°C | 2.4% | 8.5hPa | 2.5V | 00:00:00 | 01:55:32 | 00:00:00 | |
| PETON7-10 | 2026-09-02 00:49:46 | 47.39692 | 20.01297 | 207° | 13km/h | 32340m | 8.2m/s | -39.5°C | 2.3% | 8.6hPa | 2.5V | 00:00:00 | 00:00:00 | 00:00:00 | |
| OE5DRO-10 | 2026-09-02 00:49:41 | 47.39710 | 20.01296 | 143° | 11km/h | 32304m | 5.6m/s | -39.5°C | 2.3% | 8.7hPa | 2.5V | 00:00:00 | 00:00:00 | 00:00:00 | |
| PETON7-10 | 2026-09-02 00:49:31 | 47.39738 | 20.01308 | 197° | 11km/h | 32232m | 5.8m/s | -39.5°C | 2.3% | 8.8hPa | 2.5V | 00:00:00 | 00:00:00 | 00:00:00 | |
| OE5DRO-10 | 2026-09-02 00:49:21 | 47.39761 | 20.01297 | 171° | 16km/h | 32162m | 8.0m/s | -39.9°C | 2.3% | 8.9hPa | 2.5V | 00:00:00 | 00:00:00 | 00:00:00 | |
| PETON7-10 | 2026-09-02 00:49:16 | 47.39776 | 20.01296 | 190° | 18km/h | 32127m | 6.4m/s | -39.9°C | 2.3% | 9.0hPa | 2.5V | 00:00:00 | 01:54:47 | 00:00:00 | |
| OE5DRO-10 | 2026-09-02 00:49:02 | 47.39838 | 20.01312 | 204° | 22km/h | 32036m | 7.4m/s | -40.4°C | 2.4% | 9.1hPa | 2.5V | 00:00:00 | 00:00:00 | 00:00:00 | |
| PETON7-10 | 2026-09-02 00:49:01 | 47.39842 | 20.01314 | 203° | 24km/h | 32028m | 7.3m/s | -40.4°C | 2.4% | 9.1hPa | 2.5V | 00:00:00 | 00:00:00 | 00:00:00 | |
| PETON7-10 | 2026-09-02 00:48:46 | 47.39919 | 20.01373 | 209° | 20km/h | 31930m | 7.8m/s | -40.7°C | 2.4% | 9.2hPa | 2.5V | 00:00:00 | 00:00:00 | 00:00:00 | |
| OE5DRO-10 | 2026-09-02 00:48:42 | 47.39940 | 20.01380 | 174° | 18km/h | 31903m | 8.0m/s | -40.7°C | 2.4% | 9.3hPa | 2.5V | 00:00:00 | 00:00:00 | 00:00:00 | |
| PETON7-10 | 2026-09-02 00:48:31 | 47.39990 | 20.01366 | 141° | 20km/h | 31827m | 7.8m/s | -41.1°C | 2.4% | 9.4hPa | 2.5V | 00:00:00 | 01:54:02 | 00:00:00 | |
| OE5DRO-10 | 2026-09-02 00:48:23 | 47.40018 | 20.01326 | 146° | 22km/h | 31774m | 7.9m/s | -41.4°C | 2.5% | 9.5hPa | 2.5V | 00:00:00 | 00:00:00 | 00:00:00 | |
| PETON7-10 | 2026-09-02 00:48:16 | 47.40035 | 20.01291 | 85° | 22km/h | 31730m | 5.5m/s | -41.7°C | 2.5% | 9.5hPa | 2.5V | 00:00:00 | 00:00:00 | 08:30:00 | |
| OE5DRO-10 | 2026-09-02 00:48:04 | 47.40037 | 20.01208 | 82° | 31km/h | 31649m | 6.0m/s | -41.9°C | 2.5% | 9.6hPa | 2.5V | 00:00:00 | 00:00:00 | 00:00:00 | |
| PETON7-10 | 2026-09-02 00:48:01 | 47.40034 | 20.01180 | 80° | 31km/h | 31627m | 7.5m/s | -42.0°C | 2.6% | 9.7hPa | 2.5V | 00:00:00 | 00:00:00 | 00:00:00 | |
| LZ4TU-5 | 2026-09-02 00:47:48 | 47.40002 | 20.01054 | 54° | 31km/h | 31541m | 8.3m/s | -42.1°C | 0% | 0hPa | 2.5V | 00:00:00 | 00:00:00 | 00:00:00 | |
| PETON7-10 | 2026-09-02 00:47:46 | 47.39991 | 20.01024 | 75° | 29km/h | 31519m | 7.7m/s | -41.9°C | 2.6% | 9.8hPa | 2.5V | 00:00:00 | 01:53:17 | 00:00:00 | |
| OE5DRO-10 | 2026-09-02 00:47:45 | 47.39989 | 20.01012 | 84° | 29km/h | 31511m | 8.6m/s | -41.9°C | 2.5% | 9.9hPa | 2.5V | 00:00:00 | 00:00:00 | 00:00:00 | |
| LZ4TU-5 | 2026-09-02 00:47:43 | 47.39989 | 20.01000 | 90° | 33km/h | 31503m | 6.2m/s | -41.9°C | 0% | 0hPa | 2.5V | 00:00:00 | 00:00:00 | 00:00:00 | |
| PETON7-10 | 2026-09-02 00:47:31 | 47.39928 | 20.00907 | 39° | 26km/h | 31410m | 6.6m/s | -42.1°C | 2.6% | 10.0hPa | 2.5V | 00:00:00 | 00:00:00 | 00:00:00 | |
| OE5DRO-10 | 2026-09-02 00:47:26 | 47.39903 | 20.00864 | 45° | 26km/h | 31374m | 7.2m/s | -42.2°C | 2.6% | 10.0hPa | 2.5V | 00:00:00 | 00:00:00 | 08:30:00 | |
| PETON7-10 | 2026-09-02 00:47:16 | 47.39849 | 20.00831 | 31° | 22km/h | 31296m | 6.9m/s | -42.3°C | 2.7% | 10.2hPa | 2.5V | 00:00:00 | 00:00:00 | 00:00:00 | |
| OE5DRO-10 | 2026-09-02 00:47:07 | 47.39804 | 20.00790 | 353° | 15km/h | 31229m | 9.0m/s | -42.2°C | 2.6% | 10.3hPa | 2.5V | 00:00:00 | 00:00:00 | 00:00:00 | |
| PETON7-10 | 2026-09-02 00:47:01 | 47.39777 | 20.00803 | 347° | 13km/h | 31182m | 6.7m/s | -42.1°C | 2.6% | 10.3hPa | 2.5V | 00:00:00 | 01:52:32 | 00:00:00 | |
| OE5DRO-10 | 2026-09-02 00:46:48 | 47.39747 | 20.00804 | 9° | 11km/h | 31080m | 8.7m/s | -41.8°C | 2.5% | 10.5hPa | 2.5V | 00:00:00 | 00:00:00 | 00:00:00 | |
| OE5DXL-15 | 2026-09-02 00:46:47 | 47.39738 | 20.00794 | 55° | 15km/h | 31057m | 9.0m/s | -41.9°C | 2.5% | 10.6hPa | 2.5V | 00:00:00 | 00:00:00 | 08:30:00 | |
| PETON7-10 | 2026-09-02 00:46:45 | 47.39738 | 20.00794 | 55° | 9km/h | 31057m | 9.0m/s | -41.9°C | 2.5% | 10.6hPa | 2.5V | 00:00:00 | 00:00:00 | 00:00:00 | |
| PETON7-10 | 2026-09-02 00:46:30 | 47.39726 | 20.00768 | 95° | 11km/h | 30937m | 8.7m/s | -42.1°C | 2.5% | 10.7hPa | 2.6V | 00:00:00 | 00:00:00 | 00:00:00 | |
| OE5DRO-10 | 2026-09-02 00:46:29 | 47.39726 | 20.00762 | 100° | 9km/h | 30929m | 6.7m/s | -42.1°C | 2.5% | 10.8hPa | 2.6V | 00:00:00 | 00:00:00 | 00:00:00 | |
| PETON7-10 | 2026-09-02 00:46:15 | 47.39744 | 20.00749 | 162° | 9km/h | 30822m | 8.8m/s | -42.6°C | 2.6% | 10.9hPa | 2.6V | 00:00:00 | 01:51:46 | 00:00:00 | |
| OE5DRO-10 | 2026-09-02 00:46:09 | 47.39748 | 20.00741 | 92° | 13km/h | 30775m | 6.4m/s | -42.8°C | 2.7% | 11.0hPa | 2.6V | 00:00:00 | 00:00:00 | 00:00:00 | |
| LZ4TU-5 | 2026-09-02 00:46:04 | 47.39758 | 20.00728 | 144° | 18km/h | 30744m | 6.0m/s | -42.9°C | 0% | 0hPa | 2.6V | 00:00:00 | 00:00:00 | 00:00:00 | |
| PETON7-10 | 2026-09-02 00:46:00 | 47.39763 | 20.00711 | 88° | 18km/h | 30708m | 6.6m/s | -42.8°C | 2.7% | 11.1hPa | 2.6V | 00:00:00 | 00:00:00 | 08:30:00 | |
| OE5DRO-10 | 2026-09-02 00:45:50 | 47.39787 | 20.00642 | 143° | 22km/h | 30631m | 6.0m/s | -42.4°C | 2.6% | 11.3hPa | 2.5V | 00:00:00 | 00:00:00 | 00:00:00 | |
| PETON7-10 | 2026-09-02 00:45:45 | 47.39789 | 20.00620 | 74° | 13km/h | 30596m | 6.5m/s | -42.4°C | 2.6% | 11.3hPa | 2.5V | 00:00:00 | 00:00:00 | 00:00:00 | |
| PETON7-10 | 2026-09-02 00:45:30 | 47.39796 | 20.00555 | 58° | 13km/h | 30485m | 6.6m/s | -43.0°C | 2.7% | 11.5hPa | 2.5V | 00:00:00 | 01:51:01 | 00:00:00 | |
| PETON7-10 | 2026-09-02 00:45:15 | 47.39780 | 20.00487 | 77° | 16km/h | 30375m | 6.8m/s | -43.1°C | 2.8% | 11.7hPa | 2.5V | 00:00:00 | 00:00:00 | 00:00:00 | |
| OE5DXL-15 | 2026-09-02 00:45:14 | 47.39778 | 20.00459 | 93° | 20km/h | 30355m | 7.9m/s | -43.1°C | 2.8% | 11.7hPa | 2.5V | 00:00:00 | 00:00:00 | 00:00:00 | |
| PETON7-10 | 2026-09-02 00:45:00 | 47.39764 | 20.00402 | 81° | 24km/h | 30271m | 8.3m/s | -42.8°C | 2.7% | 11.9hPa | 2.5V | 00:00:00 | 00:00:00 | 00:00:00 | |
| OE5DRO-10 | 2026-09-02 00:44:51 | 47.39744 | 20.00333 | 10° | 31km/h | 30206m | 8.1m/s | -42.6°C | 2.7% | 12.0hPa | 2.5V | 00:00:00 | 00:00:00 | 00:00:00 | |
| PETON7-10 | 2026-09-02 00:44:45 | 47.39726 | 20.00298 | 82° | 33km/h | 30165m | 6.4m/s | -42.5°C | 2.7% | 12.1hPa | 2.5V | 00:00:00 | 01:50:16 | 00:00:00 | |
| PETON7-10 | 2026-09-02 00:44:30 | 47.39668 | 20.00168 | 67° | 33km/h | 30061m | 8.8m/s | -42.4°C | 2.6% | 12.3hPa | 2.5V | 00:00:00 | 00:00:00 | 00:00:00 | |
| OE5DRO-10 | 2026-09-02 00:44:26 | 47.39659 | 20.00119 | 64° | 35km/h | 30036m | 6.6m/s | -42.5°C | 2.6% | 12.3hPa | 2.6V | 00:00:00 | 00:00:00 | 00:00:00 | |
| PETON7-10 | 2026-09-02 00:44:15 | 47.39584 | 20.00064 | 53° | 35km/h | 29960m | 8.7m/s | -42.8°C | 2.7% | 12.4hPa | 2.6V | 00:00:00 | 00:00:00 | 00:00:00 | |
| OE5DXL-15 | 2026-09-02 00:44:09 | 47.39533 | 19.99982 | 20° | 24km/h | 29909m | 8.0m/s | -42.8°C | 2.7% | 12.6hPa | 2.6V | 00:00:00 | 00:00:00 | 00:00:00 | |
| OE5DRO-10 | 2026-09-02 00:44:06 | 47.39524 | 19.99978 | 10° | 29km/h | 29900m | 8.0m/s | -42.8°C | 2.8% | 12.6hPa | 2.6V | 00:00:00 | 00:00:00 | 00:00:00 | |
| PETON7-10 | 2026-09-02 00:44:00 | 47.39483 | 19.99966 | 34° | 27km/h | 29861m | 8.3m/s | -42.6°C | 2.7% | 12.7hPa | 2.6V | 00:00:00 | 01:49:31 | 00:00:00 | |
| OE5DRO-10 | 2026-09-02 00:43:47 | 47.39409 | 19.99901 | 357° | 16km/h | 29772m | 6.1m/s | -42.4°C | 2.6% | 12.8hPa | 2.6V | 00:00:00 | 00:00:00 | 08:30:00 | |
| PETON7-10 | 2026-09-02 00:43:45 | 47.39400 | 19.99900 | 31° | 18km/h | 29757m | 6.3m/s | -42.3°C | 2.6% | 12.9hPa | 2.6V | 00:00:00 | 00:00:00 | 08:30:00 | |
| PETON7-10 | 2026-09-02 00:43:30 | 47.39353 | 19.99855 | 60° | 15km/h | 29656m | 5.4m/s | -42.4°C | 2.6% | 13.1hPa | 2.6V | 00:00:00 | 00:00:00 | 00:00:00 | |
| OE5DRO-10 | 2026-09-02 00:43:28 | 47.39350 | 19.99848 | 51° | 13km/h | 29645m | 7.8m/s | -42.5°C | 2.6% | 13.1hPa | 2.6V | 00:00:00 | 00:00:00 | 00:00:00 | |
| PETON7-10 | 2026-09-02 00:43:15 | 47.39348 | 19.99806 | 167° | 9km/h | 29554m | 6.4m/s | -42.9°C | 2.7% | 13.3hPa | 2.6V | 00:00:00 | 01:48:46 | 00:00:00 | |
| OE5DRO-10 | 2026-09-02 00:43:09 | 47.39344 | 19.99790 | 133° | 13km/h | 29515m | 6.9m/s | -42.9°C | 2.7% | 13.3hPa | 2.6V | 00:00:00 | 00:00:00 | 00:00:00 | |
| OE5DXL-15 | 2026-09-02 00:43:06 | 47.39359 | 19.99781 | 141° | 16km/h | 29482m | 6.6m/s | -42.9°C | 2.7% | 13.4hPa | 2.6V | 00:00:00 | 00:00:00 | 00:00:00 | |
| PETON7-10 | 2026-09-02 00:43:00 | 47.39363 | 19.99777 | 101° | 15km/h | 29454m | 4.7m/s | -43.0°C | 2.7% | 13.5hPa | 2.5V | 00:00:00 | 00:00:00 | 00:00:00 | |
| OE5DRO-10 | 2026-09-02 00:42:50 | 47.39359 | 19.99721 | 76° | 18km/h | 29384m | 6.2m/s | -43.1°C | 2.7% | 13.6hPa | 2.6V | 00:00:00 | 00:00:00 | 00:00:00 | |
| PETON7-10 | 2026-09-02 00:42:45 | 47.39355 | 19.99697 | 55° | 22km/h | 29349m | 8.7m/s | -42.9°C | 2.7% | 13.7hPa | 2.5V | 00:00:00 | 00:00:00 | 00:00:00 | |
| OE5DRO-10 | 2026-09-02 00:42:31 | 47.39321 | 19.99604 | 37° | 26km/h | 29249m | 7.9m/s | -43.2°C | 2.7% | 13.9hPa | 2.5V | 00:00:00 | 00:00:00 | 00:00:00 | |
| PETON7-10 | 2026-09-02 00:42:29 | 47.39312 | 19.99593 | 45° | 27km/h | 29235m | 6.3m/s | -43.3°C | 2.7% | 13.9hPa | 2.5V | 00:00:00 | 01:48:00 | 00:00:00 | |
| PETON7-10 | 2026-09-02 00:42:14 | 47.39260 | 19.99468 | 48° | 20km/h | 29127m | 7.7m/s | -43.3°C | 2.7% | 14.2hPa | 2.5V | 00:00:00 | 00:00:00 | 00:00:00 | |
| OE5DRO-10 | 2026-09-02 00:42:12 | 47.39255 | 19.99458 | 62° | 22km/h | 29115m | 5.1m/s | -43.3°C | 2.7% | 14.2hPa | 2.5V | 00:00:00 | 00:00:00 | 00:00:00 | |
| PETON7-10 | 2026-09-02 00:41:59 | 47.39208 | 19.99398 | 29° | 20km/h | 29023m | 6.2m/s | -44.1°C | 2.8% | 14.4hPa | 2.5V | 00:00:00 | 00:00:00 | 00:00:00 | |
| PETON7-10 | 2026-09-02 00:41:44 | 47.39134 | 19.99361 | 26° | 20km/h | 28920m | 7.8m/s | -44.1°C | 2.8% | 14.6hPa | 2.5V | 00:00:00 | 01:47:15 | 00:00:00 | |
| OE5DXL-15 | 2026-09-02 00:41:35 | 47.39085 | 19.99315 | 14° | 18km/h | 28843m | 8.5m/s | -44.2°C | 2.9% | 14.8hPa | 2.5V | 00:00:00 | 00:00:00 | 00:00:00 | |
| OE5DRO-10 | 2026-09-02 00:41:33 | 47.39085 | 19.99315 | 14° | 20km/h | 28843m | 8.5m/s | -44.2°C | 2.9% | 14.8hPa | 2.5V | 00:00:00 | 00:00:00 | 00:00:00 | |
| PETON7-10 | 2026-09-02 00:41:25 | 47.39050 | 19.99296 | 6° | 18km/h | 28787m | 6.2m/s | -44.2°C | 2.8% | 14.9hPa | 2.6V | 00:00:00 | 00:00:00 | 08:30:00 | |
| OE5DRO-10 | 2026-09-02 00:41:14 | 47.38999 | 19.99278 | 43° | 18km/h | 28711m | 6.9m/s | -44.3°C | 2.8% | 15.1hPa | 2.6V | 00:00:00 | 00:00:00 | 00:00:00 | |
| PETON7-10 | 2026-09-02 00:41:10 | 47.38988 | 19.99260 | 57° | 18km/h | 28683m | 6.5m/s | -44.5°C | 2.8% | 15.1hPa | 2.6V | 00:00:00 | 00:00:00 | 00:00:00 | |
| OE5DXL-15 | 2026-09-02 00:41:05 | 47.38967 | 19.99244 | 342° | 16km/h | 28634m | 5.7m/s | -44.6°C | 2.7% | 15.3hPa | 2.6V | 00:00:00 | 00:00:00 | 00:00:00 | |
| PETON7-10 | 2026-09-02 00:40:55 | 47.38937 | 19.99225 | 82° | 16km/h | 28578m | 8.8m/s | -44.9°C | 2.8% | 15.4hPa | 2.6V | 00:00:00 | 01:46:26 | 00:00:00 | |
| OE5DRO-10 | 2026-09-02 00:40:53 | 47.38936 | 19.99209 | 85° | 15km/h | 28564m | 5.4m/s | -45.1°C | 2.8% | 15.4hPa | 2.6V | 00:00:00 | 00:00:00 | 00:00:00 | |
| SP9KGR-15 | 2026-09-02 00:40:43 | 47.38915 | 19.99186 | 38° | 13km/h | 28500m | 6.6m/s | -46.0°C | 0.8% | 15.6hPa | 2.6V | 00:00:00 | 00:00:00 | 00:00:00 | |
| PETON7-10 | 2026-09-02 00:40:40 | 47.38912 | 19.99163 | 95° | 16km/h | 28472m | 6.3m/s | -46.2°C | 3.0% | 15.6hPa | 2.6V | 00:00:00 | 00:00:00 | 00:00:00 | |
| OE5DRO-10 | 2026-09-02 00:40:34 | 47.38903 | 19.99138 | 25° | 16km/h | 28431m | 7.5m/s | -46.4°C | 3.1% | 15.7hPa | 2.6V | 00:00:00 | 00:00:00 | 08:30:00 | |
| PETON7-10 | 2026-09-02 00:40:25 | 47.38869 | 19.99098 | 67° | 15km/h | 28366m | 8.5m/s | -46.8°C | 3.1% | 15.9hPa | 2.5V | 00:00:00 | 00:00:00 | 00:00:00 | |
| SP9KGR-15 | 2026-09-02 00:40:21 | 47.38867 | 19.99084 | 84° | 13km/h | 28347m | 6.6m/s | -47.0°C | 0.8% | 16.0hPa | 2.5V | 00:00:00 | 00:00:00 | 00:00:00 | |
| OE5DRO-10 | 2026-09-02 00:40:15 | 47.38860 | 19.99058 | 26° | 18km/h | 28297m | 7.6m/s | -47.0°C | 3.1% | 16.1hPa | 2.5V | 00:00:00 | 00:00:00 | 00:00:00 | |
| SP9KGR-15 | 2026-09-02 00:40:05 | 47.38843 | 19.99012 | 102° | 26km/h | 28232m | 5.6m/s | -47.5°C | 0.8% | 16.3hPa | 2.5V | 00:00:00 | 00:00:00 | 00:00:00 | |
| OE5DRO-10 | 2026-09-02 00:39:56 | 47.38840 | 19.98945 | 54° | 24km/h | 28161m | 6.3m/s | -47.7°C | 3.2% | 16.4hPa | 2.5V | 00:00:00 | 00:00:00 | 00:00:00 | |
| PETON7-10 | 2026-09-02 00:39:52 | 47.38827 | 19.98910 | 74° | 22km/h | 28133m | 7.6m/s | -48.0°C | 3.4% | 16.5hPa | 2.5V | 00:00:00 | 00:00:00 | 00:00:00 | |
| SP9KGR-15 | 2026-09-02 00:39:44 | 47.38837 | 19.98849 | 109° | 18km/h | 28081m | 8.1m/s | -48.2°C | 0.9% | 16.6hPa | 2.5V | 00:00:00 | 00:00:00 | 00:00:00 | |
| PETON7-10 | 2026-09-02 00:39:37 | 47.38821 | 19.98794 | 82° | 15km/h | 28026m | 7.3m/s | -48.0°C | 3.4% | 16.8hPa | 2.5V | 00:00:00 | 00:00:00 | 00:00:00 | |
| OE5DXL-15 | 2026-09-02 00:39:35 | 47.38825 | 19.98764 | 118° | 15km/h | 27997m | 6.2m/s | 0°C | 0% | 0hPa | 2.5V | 00:00:00 | 00:00:00 | 00:00:00 | |
| LZ4TU-5 | 2026-09-02 00:39:31 | 47.38827 | 19.98759 | 129° | 15km/h | 27990m | 8.6m/s | -48.0°C | 0% | 0hPa | 2.5V | 00:00:00 | 00:00:00 | 00:00:00 | |
| SP9KGR-15 | 2026-09-02 00:39:27 | 47.38827 | 19.98750 | 49° | 13km/h | 27962m | 8.2m/s | -48.0°C | 0.9% | 17.0hPa | 2.5V | 00:00:00 | 00:00:00 | 00:00:00 | |
| PETON7-10 | 2026-09-02 00:39:22 | 47.38812 | 19.98721 | 72° | 18km/h | 27920m | 8.5m/s | -48.1°C | 3.5% | 17.0hPa | 2.5V | 00:00:00 | 01:44:53 | 00:00:00 | |
| OE5DRO-10 | 2026-09-02 00:39:18 | 47.38809 | 19.98689 | 94° | 15km/h | 27891m | 8.2m/s | -48.0°C | 3.5% | 17.1hPa | 2.5V | 00:00:00 | 00:00:00 | 00:00:00 | |
| SP9KGR-15 | 2026-09-02 00:39:11 | 47.38801 | 19.98658 | 51° | 16km/h | 27849m | 7.3m/s | -48.0°C | 0% | 17.3hPa | 2.5V | 00:00:00 | 00:00:00 | 00:00:00 | |
| PETON7-10 | 2026-09-02 00:39:07 | 47.38787 | 19.98632 | 58° | 13km/h | 27813m | 6.1m/s | -47.8°C | 3.4% | 17.3hPa | 2.5V | 00:00:00 | 00:00:00 | 08:30:00 | |
| OE5DRO-10 | 2026-09-02 00:38:59 | 47.38779 | 19.98596 | 43° | 9km/h | 27760m | 5.5m/s | -47.8°C | 3.4% | 17.5hPa | 2.5V | 00:00:00 | 00:00:00 | 00:00:00 | |
| PETON7-10 | 2026-09-02 00:38:52 | 47.38778 | 19.98572 | 84° | 11km/h | 27712m | 5.6m/s | -47.7°C | 3.3% | 17.6hPa | 2.5V | 00:00:00 | 00:00:00 | 00:00:00 | |
| SP9KGR-15 | 2026-09-02 00:38:50 | 47.38778 | 19.98567 | 84° | 13km/h | 27706m | 6.7m/s | -47.7°C | 0% | 17.7hPa | 2.5V | 00:00:00 | 00:00:00 | 00:00:00 | |
| OE5DRO-10 | 2026-09-02 00:38:40 | 47.38767 | 19.98551 | 94° | 13km/h | 27629m | 8.1m/s | -47.6°C | 3.3% | 17.8hPa | 2.5V | 00:00:00 | 00:00:00 | 00:00:00 | |
| PETON7-10 | 2026-09-02 00:38:37 | 47.38769 | 19.98532 | 109° | 9km/h | 27608m | 8.1m/s | -47.6°C | 3.3% | 17.9hPa | 2.5V | 00:00:00 | 01:44:08 | 00:00:00 | |
| SP9KGR-15 | 2026-09-02 00:38:34 | 47.38771 | 19.98526 | 164° | 4km/h | 27595m | 6.3m/s | -47.7°C | 0% | 18.0hPa | 2.5V | 00:00:00 | 00:00:00 | 00:00:00 | |
| PETON7-10 | 2026-09-02 00:38:22 | 47.38765 | 19.98528 | 104° | 9km/h | 27505m | 5.5m/s | -47.5°C | 3.2% | 18.2hPa | 2.5V | 00:00:00 | 00:00:00 | 00:00:00 | |
| SP9KGR-15 | 2026-09-02 00:38:16 | 47.38758 | 19.98510 | 51° | 4km/h | 27463m | 6.1m/s | -47.6°C | 0% | 18.3hPa | 2.6V | 00:00:00 | 00:00:00 | 00:00:00 | |
| PETON7-10 | 2026-09-02 00:38:07 | 47.38756 | 19.98478 | 80° | 13km/h | 27401m | 7.0m/s | -47.9°C | 3.3% | 18.5hPa | 2.6V | 00:00:00 | 00:00:00 | 00:00:00 | |
| SP9KGR-15 | 2026-09-02 00:37:54 | 47.38755 | 19.98435 | 111° | 18km/h | 27325m | 5.1m/s | -48.3°C | 0% | 18.7hPa | 2.6V | 00:00:00 | 00:00:00 | 00:00:00 | |
| PETON7-10 | 2026-09-02 00:37:52 | 47.38755 | 19.98414 | 66° | 11km/h | 27306m | 4.2m/s | -48.2°C | 3.4% | 18.7hPa | 2.6V | 00:00:00 | 01:43:23 | 00:00:00 | |
| LZ4TU-5 | 2026-09-02 00:37:50 | 47.38752 | 19.98407 | 60° | 18km/h | 27301m | 6.1m/s | -48.3°C | 0% | 0hPa | 2.6V | 00:00:00 | 00:00:00 | 00:00:00 | |
| SP9KGR-15 | 2026-09-02 00:37:38 | 47.38729 | 19.98414 | 32° | 5km/h | 27217m | 6.3m/s | -48.3°C | 0% | 19.0hPa | 2.6V | 00:00:00 | 00:00:00 | 00:00:00 | |
| PETON7-10 | 2026-09-02 00:37:37 | 47.38727 | 19.98410 | 70° | 11km/h | 27203m | 7.2m/s | -48.4°C | 3.4% | 19.0hPa | 2.6V | 00:00:00 | 00:00:00 | 00:00:00 | |
| OE5DXL-15 | 2026-09-02 00:37:28 | 47.38708 | 19.98432 | 294° | 9km/h | 27133m | 5.5m/s | 0°C | 0% | 0hPa | 2.6V | 00:00:00 | 01:42:57 | 00:00:00 | |
| SP9KGR-15 | 2026-09-02 00:37:23 | 47.38709 | 19.98436 | 215° | 7km/h | 27119m | 7.6m/s | -48.7°C | 0% | 19.4hPa | 2.6V | 00:00:00 | 00:00:00 | 00:00:00 | |
| PETON7-10 | 2026-09-02 00:37:22 | 47.38712 | 19.98438 | 191° | 11km/h | 27105m | 7.5m/s | -48.6°C | 3.5% | 19.3hPa | 2.6V | 00:00:00 | 00:00:00 | 00:00:00 | |
| PETON7-10 | 2026-09-02 00:37:07 | 47.38713 | 19.98495 | 268° | 11km/h | 27002m | 7.1m/s | -48.5°C | 3.5% | 19.6hPa | 2.6V | 00:00:00 | 01:42:38 | 00:00:00 | |
| SP9KGR-15 | 2026-09-02 00:37:04 | 47.38714 | 19.98501 | 257° | 13km/h | 26988m | 5.8m/s | -48.5°C | 0% | 0hPa | 2.6V | 00:00:00 | 00:00:00 | 00:00:00 | |
| OE5DXL-15 | 2026-09-02 00:36:58 | 47.38718 | 19.98545 | 195° | 9km/h | 26929m | 8.1m/s | 0°C | 0% | 0hPa | 2.6V | 00:00:00 | 00:00:00 | 00:00:00 | |
| PETON7-10 | 2026-09-02 00:36:52 | 47.38725 | 19.98536 | 154° | 9km/h | 26901m | 6.2m/s | -48.3°C | 3.4% | 19.9hPa | 2.6V | 00:00:00 | 00:00:00 | 08:30:00 | |
| SP9KGR-15 | 2026-09-02 00:36:48 | 47.38730 | 19.98535 | 239° | 4km/h | 26881m | 6.8m/s | -48.4°C | 0% | 0hPa | 2.6V | 00:00:00 | 00:00:00 | 00:00:00 | |
| PETON7-10 | 2026-09-02 00:36:37 | 47.38745 | 19.98537 | 104° | 5km/h | 26800m | 7.6m/s | -48.6°C | 3.5% | 20.2hPa | 2.6V | 00:00:00 | 00:00:00 | 00:00:00 | |
| SP9KGR-15 | 2026-09-02 00:36:31 | 47.38747 | 19.98528 | 323° | 2km/h | 26766m | 7.6m/s | 0°C | 0% | 0hPa | 2.6V | 00:00:00 | 00:00:00 | 00:00:00 | |
| PETON7-10 | 2026-09-02 00:36:21 | 47.38745 | 19.98520 | 118° | 9km/h | 26687m | 7.2m/s | -48.8°C | 3.5% | 20.6hPa | 2.6V | 00:00:00 | 01:41:52 | 00:00:00 | |
| SP9KGR-15 | 2026-09-02 00:36:13 | 47.38734 | 19.98531 | 281° | 11km/h | 26639m | 7.1m/s | 0°C | 0% | 0hPa | 2.6V | 00:00:00 | 00:00:00 | 00:00:00 | |
| PETON7-10 | 2026-09-02 00:36:06 | 47.38740 | 19.98542 | 121° | 7km/h | 26584m | 7.1m/s | -48.6°C | 3.5% | 21.0hPa | 2.6V | 00:00:00 | 00:00:00 | 00:00:00 | |
| SP9KGR-15 | 2026-09-02 00:35:56 | 47.38742 | 19.98524 | 291° | 7km/h | 26522m | 5.3m/s | 0°C | 0% | 0hPa | 2.7V | 00:00:00 | 00:00:00 | 00:00:00 | |
| PETON7-10 | 2026-09-02 00:35:51 | 47.38745 | 19.98532 | 77° | 7km/h | 26480m | 6.3m/s | -48.5°C | 3.5% | 21.3hPa | 2.7V | 00:00:00 | 00:00:00 | 00:00:00 | |
| LZ4TU-5 | 2026-09-02 00:35:48 | 47.38745 | 19.98526 | 103° | 11km/h | 26466m | 7.6m/s | -48.5°C | 0% | 0hPa | 2.7V | 00:00:00 | 00:00:00 | 00:00:00 | |
| LZ4TU-5 | 2026-09-02 00:35:43 | 47.38743 | 19.98507 | 57° | 9km/h | 26434m | 5.6m/s | -48.4°C | 0% | 0hPa | 2.7V | 00:00:00 | 00:00:00 | 00:00:00 | |
| SP9KGR-15 | 2026-09-02 00:35:40 | 47.38742 | 19.98499 | 85° | 5km/h | 26414m | 5.5m/s | 0°C | 0% | 0hPa | 2.7V | 00:00:00 | 00:00:00 | 00:00:00 | |
| PETON7-10 | 2026-09-02 00:35:36 | 47.38739 | 19.98498 | 213° | 5km/h | 26380m | 7.8m/s | -48.5°C | 3.4% | 21.6hPa | 2.7V | 00:00:00 | 01:41:07 | 00:00:00 | |
| SP9KGR-15 | 2026-09-02 00:35:23 | 47.38724 | 19.98507 | 346° | 13km/h | 26301m | 5.7m/s | 0°C | 0% | 0hPa | 2.7V | 00:00:00 | 00:00:00 | 00:00:00 | |
| PETON7-10 | 2026-09-02 00:35:21 | 47.38720 | 19.98512 | 252° | 11km/h | 26280m | 5.6m/s | -48.4°C | 3.4% | 21.9hPa | 2.7V | 00:00:00 | 00:00:00 | 00:00:00 | |
| SP9KGR-15 | 2026-09-02 00:35:07 | 47.38721 | 19.98556 | 263° | 15km/h | 26195m | 6.3m/s | 0°C | 0% | 0hPa | 2.6V | 00:00:00 | 00:00:00 | 00:00:00 | |
| PETON7-10 | 2026-09-02 00:35:06 | 47.38721 | 19.98569 | 271° | 9km/h | 26180m | 5.8m/s | -48.5°C | 3.3% | 22.3hPa | 2.6V | 00:00:00 | 00:00:00 | 00:00:00 | |
| PETON7-10 | 2026-09-02 00:34:51 | 47.38741 | 19.98603 | 250° | 4km/h | 26081m | 5.8m/s | -49.2°C | 3.5% | 22.6hPa | 2.6V | 00:00:00 | 01:40:22 | 00:00:00 | |
| SP9KGR-15 | 2026-09-02 00:34:41 | 47.38749 | 19.98605 | 155° | 4km/h | 26023m | 6.3m/s | 0°C | 0% | 0hPa | 2.6V | 00:00:00 | 00:00:00 | 00:00:00 | |
| PETON7-10 | 2026-09-02 00:34:36 | 47.38751 | 19.98606 | 214° | 13km/h | 25984m | 6.0m/s | -49.5°C | 3.6% | 23.0hPa | 2.6V | 00:00:00 | 00:00:00 | 08:30:00 | |
| PETON7-10 | 2026-09-02 00:34:21 | 47.38775 | 19.98656 | 226° | 15km/h | 25889m | 7.4m/s | -49.7°C | 3.5% | 23.3hPa | 2.6V | 00:00:00 | 00:00:00 | 00:00:00 | |
| OE5DRO-10 | 2026-09-02 00:34:15 | 47.38791 | 19.98692 | 217° | 9km/h | 25852m | 5.6m/s | -49.7°C | 3.5% | 23.5hPa | 2.6V | 00:00:00 | 00:00:00 | 00:00:00 | |
| PETON7-10 | 2026-09-02 00:34:06 | 47.38804 | 19.98717 | 255° | 7km/h | 25793m | 5.9m/s | -49.9°C | 3.5% | 23.6hPa | 2.6V | 00:00:00 | 01:39:37 | 00:00:00 | |
| SP9KGR-15 | 2026-09-02 00:34:05 | 47.38804 | 19.98717 | 256° | 16km/h | 25793m | 5.9m/s | 0°C | 0% | 0hPa | 2.6V | 00:00:00 | 00:00:00 | 00:00:00 | |
| LZ4TU-5 | 2026-09-02 00:34:00 | 47.38809 | 19.98732 | 0° | 0km/h | 25761m | 6.6m/s | -50.5°C | 0% | 0hPa | 2.6V | 00:00:00 | 00:00:00 | 00:00:00 | |
| OE5DRO-10 | 2026-09-02 00:33:56 | 47.38807 | 19.98716 | 77° | 9km/h | 25729m | 7.0m/s | -50.7°C | 3.7% | 23.9hPa | 2.6V | 00:00:00 | 00:00:00 | 00:00:00 | |
| PETON7-10 | 2026-09-02 00:33:51 | 47.38810 | 19.98720 | 227° | 9km/h | 25696m | 5.6m/s | -50.6°C | 3.6% | 24.0hPa | 2.6V | 00:00:00 | 00:00:00 | 00:00:00 | |
| SP9KGR-15 | 2026-09-02 00:33:49 | 47.38810 | 19.98721 | 254° | 5km/h | 25690m | 7.6m/s | 0°C | 0% | 0hPa | 2.5V | 00:00:00 | 00:00:00 | 00:00:00 | |
| PETON7-10 | 2026-09-02 00:33:36 | 47.38791 | 19.98694 | 12° | 9km/h | 25600m | 6.2m/s | -51.0°C | 3.7% | 24.4hPa | 2.5V | 00:00:00 | 00:00:00 | 00:00:00 | |
| SP9KGR-15 | 2026-09-02 00:33:31 | 47.38784 | 19.98686 | 52° | 11km/h | 25575m | 4.1m/s | 0°C | 0% | 0hPa | 2.5V | 00:00:00 | 00:00:00 | 00:00:00 | |
| PETON7-10 | 2026-09-02 00:33:21 | 47.38773 | 19.98696 | 212° | 9km/h | 25504m | 6.9m/s | -52.1°C | 4.0% | 24.8hPa | 2.5V | 00:00:00 | 01:38:52 | 00:00:00 | |
| OE5DRO-10 | 2026-09-02 00:33:17 | 47.38777 | 19.98701 | 7° | 7km/h | 25479m | 5.5m/s | -52.0°C | 4.0% | 24.8hPa | 2.5V | 00:00:00 | 00:00:00 | 00:00:00 | |
| PETON7-10 | 2026-09-02 00:33:06 | 47.38790 | 19.98695 | 207° | 15km/h | 25404m | 6.0m/s | -51.8°C | 3.9% | 25.1hPa | 2.5V | 00:00:00 | 00:00:00 | 00:00:00 | |
| OE5DRO-10 | 2026-09-02 00:32:53 | 47.38829 | 19.98686 | 195° | 18km/h | 25322m | 5.0m/s | -51.9°C | 4.0% | 25.5hPa | 2.6V | 00:00:00 | 00:00:00 | 00:00:00 | |
| PETON7-10 | 2026-09-02 00:32:51 | 47.38839 | 19.98688 | 177° | 16km/h | 25311m | 7.0m/s | -52.0°C | 3.9% | 25.5hPa | 2.6V | 00:00:00 | 00:00:00 | 00:00:00 | |
| PETON7-10 | 2026-09-02 00:32:36 | 47.38898 | 19.98653 | 167° | 13km/h | 25210m | 7.8m/s | -52.0°C | 4.0% | 25.9hPa | 2.6V | 00:00:00 | 01:38:07 | 00:00:00 | |
| OE5DRO-10 | 2026-09-02 00:32:34 | 47.38906 | 19.98652 | 168° | 11km/h | 25199m | 4.9m/s | -52.0°C | 4.0% | 26.0hPa | 2.6V | 00:00:00 | 00:00:00 | 00:00:00 | |
| LZ4TU-5 | 2026-09-02 00:32:23 | 47.38931 | 19.98621 | 140° | 11km/h | 25135m | 4.1m/s | -52.0°C | 0% | 0hPa | 2.5V | 00:00:00 | 00:00:00 | 00:00:00 | |
| PETON7-10 | 2026-09-02 00:32:21 | 47.38935 | 19.98618 | 178° | 9km/h | 25116m | 5.9m/s | -52.0°C | 4.0% | 26.3hPa | 2.5V | 00:00:00 | 00:00:00 | 08:30:00 | |
| LZ4TU-5 | 2026-09-02 00:32:18 | 47.38938 | 19.98616 | 148° | 9km/h | 25104m | 7.8m/s | -52.0°C | 0% | 0hPa | 2.5V | 00:00:00 | 00:00:00 | 00:00:00 | |
| OE5DRO-10 | 2026-09-02 00:32:15 | 47.38947 | 19.98605 | 132° | 11km/h | 25077m | 5.5m/s | -51.8°C | 3.9% | 26.5hPa | 2.5V | 00:00:00 | 00:00:00 | 00:00:00 | |
| PETON7-10 | 2026-09-02 00:32:06 | 47.38952 | 19.98586 | 177° | 13km/h | 25020m | 6.8m/s | -51.7°C | 3.9% | 26.7hPa | 2.5V | 00:00:00 | 00:00:00 | 00:00:00 | |
| OE5DRO-10 | 2026-09-02 00:31:56 | 47.38975 | 19.98544 | 106° | 15km/h | 24955m | 7.4m/s | -51.9°C | 3.9% | 27.0hPa | 2.5V | 00:00:00 | 00:00:00 | 00:00:00 | |
| PETON7-10 | 2026-09-02 00:31:51 | 47.38981 | 19.98541 | 200° | 16km/h | 24923m | 6.4m/s | -52.2°C | 4.0% | 27.1hPa | 2.5V | 00:00:00 | 01:37:22 | 00:00:00 | |
| OE5DRO-10 | 2026-09-02 00:31:37 | 47.39030 | 19.98506 | 206° | 9km/h | 24831m | 5.7m/s | -52.3°C | 4.1% | 27.5hPa | 2.5V | 00:00:00 | 00:00:00 | 00:00:00 | |
| PETON7-10 | 2026-09-02 00:31:36 | 47.39031 | 19.98506 | 178° | 13km/h | 24824m | 6.5m/s | -52.3°C | 4.0% | 27.5hPa | 2.5V | 00:00:00 | 00:00:00 | 00:00:00 | |
| PETON7-10 | 2026-09-02 00:31:21 | 47.39042 | 19.98460 | 262° | 9km/h | 24730m | 6.0m/s | -52.2°C | 3.9% | 27.9hPa | 2.7V | 00:00:00 | 00:00:00 | 00:00:00 | |
| OE5DRO-10 | 2026-09-02 00:31:18 | 47.39042 | 19.98460 | 93° | 15km/h | 24711m | 5.4m/s | -52.3°C | 4.0% | 28.0hPa | 2.7V | 00:00:00 | 00:00:00 | 00:00:00 | |
| PETON7-10 | 2026-09-02 00:31:06 | 47.39042 | 19.98421 | 27° | 15km/h | 24635m | 7.2m/s | -52.3°C | 3.9% | 28.3hPa | 2.7V | 00:00:00 | 01:36:37 | 00:00:00 | |
| OE5DRO-10 | 2026-09-02 00:30:59 | 47.39033 | 19.98391 | 132° | 13km/h | 24589m | 5.6m/s | -52.6°C | 4.0% | 28.6hPa | 2.7V | 00:00:00 | 00:00:00 | 00:00:00 | |
| PETON7-10 | 2026-09-02 00:30:51 | 47.39021 | 19.98365 | 30° | 15km/h | 24537m | 5.8m/s | -52.7°C | 4.1% | 28.8hPa | 2.7V | 00:00:00 | 00:00:00 | 00:00:00 | |
| OE5DRO-10 | 2026-09-02 00:30:39 | 47.39021 | 19.98322 | 50° | 18km/h | 24454m | 6.4m/s | -52.8°C | 4.1% | 29.2hPa | 2.6V | 00:00:00 | 00:00:00 | 08:30:00 | |
| PETON7-10 | 2026-09-02 00:30:31 | 47.39016 | 19.98290 | 137° | 16km/h | 24411m | 5.5m/s | -52.7°C | 4.1% | 29.4hPa | 2.7V | 00:00:00 | 00:00:00 | 00:00:00 | |
| PETON7-10 | 2026-09-02 00:30:17 | 47.39005 | 19.98235 | 123° | 11km/h | 24318m | 6.2m/s | -52.6°C | 4.1% | 29.8hPa | 2.7V | 00:00:00 | 01:35:47 | 00:00:00 | |
| OE5DRO-10 | 2026-09-02 00:30:15 | 47.39007 | 19.98233 | 133° | 9km/h | 24311m | 6.8m/s | -52.6°C | 4.1% | 29.8hPa | 2.7V | 00:00:00 | 00:00:00 | 00:00:00 | |
| PETON7-10 | 2026-09-02 00:30:01 | 47.38982 | 19.98201 | 108° | 15km/h | 24225m | 6.9m/s | -52.6°C | 4.1% | 30.3hPa | 2.7V | 00:00:00 | 00:00:00 | 08:30:00 | |
| OE5DRO-10 | 2026-09-02 00:29:56 | 47.38971 | 19.98203 | 356° | 15km/h | 24196m | 5.8m/s | -52.8°C | 4.1% | 30.4hPa | 2.7V | 00:00:00 | 00:00:00 | 00:00:00 | |
| PETON7-10 | 2026-09-02 00:29:46 | 47.38927 | 19.98212 | 327° | 15km/h | 24132m | 7.3m/s | -52.8°C | 4.2% | 30.7hPa | 2.7V | 00:00:00 | 00:00:00 | 00:00:00 | |
| PETON7-10 | 2026-09-02 00:29:31 | 47.38887 | 19.98255 | 301° | 11km/h | 24039m | 6.2m/s | -52.7°C | 4.2% | 31.1hPa | 2.7V | 00:00:00 | 01:35:02 | 00:00:00 | |
| PETON7-10 | 2026-09-02 00:29:16 | 47.38887 | 19.98314 | 222° | 16km/h | 23946m | 5.3m/s | -52.3°C | 4.0% | 31.6hPa | 2.7V | 00:00:00 | 00:00:00 | 00:00:00 | |
| LZ4TU-5 | 2026-09-02 00:29:10 | 47.38906 | 19.98331 | 225° | 20km/h | 23915m | 6.5m/s | -52.3°C | 0% | 0hPa | 2.5V | 00:00:00 | 00:00:00 | 00:00:00 | |
| LZ4TU-5 | 2026-09-02 00:29:05 | 47.38916 | 19.98353 | 226° | 11km/h | 23886m | 5.8m/s | -52.4°C | 0% | 0hPa | 2.5V | 00:00:00 | 00:00:00 | 00:00:00 | |
| PETON7-10 | 2026-09-02 00:29:01 | 47.38933 | 19.98364 | 192° | 13km/h | 23855m | 5.0m/s | -52.5°C | 4.0% | 32.0hPa | 2.5V | 00:00:00 | 00:00:00 | 00:00:00 | |
| OE5DRO-10 | 2026-09-02 00:28:50 | 47.38983 | 19.98390 | 179° | 11km/h | 23785m | 6.9m/s | -52.6°C | 4.1% | 32.4hPa | 2.5V | 00:00:00 | 00:00:00 | 00:00:00 | |
| PETON7-10 | 2026-09-02 00:28:46 | 47.38975 | 19.98388 | 194° | 9km/h | 23761m | 5.5m/s | -52.6°C | 4.1% | 32.5hPa | 2.6V | 00:00:00 | 01:34:17 | 00:00:00 | |
| PETON7-10 | 2026-09-02 00:28:31 | 47.38999 | 19.98416 | 227° | 16km/h | 23670m | 6.4m/s | -53.0°C | 4.1% | 33.0hPa | 2.6V | 00:00:00 | 00:00:00 | 00:00:00 | |
| OE5DRO-10 | 2026-09-02 00:28:25 | 47.39001 | 19.98450 | 288° | 15km/h | 23627m | 4.7m/s | -53.0°C | 4.2% | 33.2hPa | 2.5V | 00:00:00 | 00:00:00 | 00:00:00 | |
| PETON7-10 | 2026-09-02 00:28:16 | 47.39003 | 19.98505 | 233° | 9km/h | 23576m | 6.6m/s | -53.3°C | 4.2% | 33.5hPa | 2.5V | 00:00:00 | 00:00:00 | 00:00:00 | |
| OE5DRO-10 | 2026-09-02 00:28:06 | 47.39018 | 19.98538 | 242° | 11km/h | 23506m | 6.3m/s | -53.0°C | 4.2% | 33.8hPa | 2.5V | 00:00:00 | 00:00:00 | 00:00:00 | |
| PETON7-10 | 2026-09-02 00:28:01 | 47.39025 | 19.98544 | 170° | 11km/h | 23482m | 5.1m/s | -53.0°C | 4.1% | 34.0hPa | 2.5V | 00:00:00 | 01:33:32 | 00:00:00 | |
| OE5DRO-10 | 2026-09-02 00:27:47 | 47.39064 | 19.98517 | 135° | 11km/h | 23384m | 6.9m/s | -53.1°C | 4.3% | 34.5hPa | 2.5V | 00:00:00 | 00:00:00 | 00:00:00 | |
| PETON7-10 | 2026-09-02 00:27:31 | 47.39090 | 19.98487 | 138° | 7km/h | 23299m | 6.0m/s | -52.9°C | 4.2% | 34.9hPa | 2.5V | 00:00:00 | 00:00:00 | 00:00:00 | |
| LZ4TU-5 | 2026-09-02 00:27:30 | 47.39090 | 19.98487 | 139° | 5km/h | 23299m | 6.1m/s | -52.9°C | 0% | 0hPa | 2.5V | 00:00:00 | 00:00:00 | 00:00:00 | |
| LZ4TU-5 | 2026-09-02 00:27:27 | 47.39102 | 19.98479 | 162° | 18km/h | 23275m | 4.5m/s | -52.8°C | 0% | 0hPa | 2.5V | 00:00:00 | 00:00:00 | 00:00:00 | |
| PETON7-10 | 2026-09-02 00:27:16 | 47.39103 | 19.98482 | 203° | 7km/h | 23205m | 6.1m/s | -52.7°C | 4.1% | 35.4hPa | 2.5V | 00:00:00 | 01:32:47 | 00:00:00 | |
| OE5DRO-10 | 2026-09-02 00:27:09 | 47.39120 | 19.98498 | 293° | 9km/h | 23154m | 5.7m/s | -52.6°C | 4.1% | 35.7hPa | 2.5V | 00:00:00 | 00:00:00 | 00:00:00 | |
| PETON7-10 | 2026-09-02 00:27:01 | 47.39123 | 19.98507 | 212° | 13km/h | 23116m | 6.2m/s | -52.7°C | 4.1% | 35.9hPa | 2.5V | 00:00:00 | 00:00:00 | 00:00:00 | |
| OE5DRO-10 | 2026-09-02 00:26:50 | 47.39119 | 19.98551 | 304° | 15km/h | 23039m | 6.8m/s | -52.7°C | 4.1% | 36.4hPa | 2.5V | 00:00:00 | 00:00:00 | 08:30:00 | |
| PETON7-10 | 2026-09-02 00:26:46 | 47.39117 | 19.98563 | 272° | 15km/h | 23026m | 6.1m/s | -52.8°C | 4.1% | 36.5hPa | 2.5V | 00:00:00 | 00:00:00 | 00:00:00 | |
| PETON7-10 | 2026-09-02 00:26:31 | 47.39135 | 19.98632 | 263° | 20km/h | 22934m | 7.0m/s | -52.8°C | 4.2% | 37.0hPa | 2.5V | 00:00:00 | 01:32:02 | 00:00:00 | |
| PETON7-10 | 2026-09-02 00:26:16 | 47.39199 | 19.98681 | 233° | 18km/h | 22844m | 4.9m/s | -52.4°C | 4.0% | 37.5hPa | 2.5V | 00:00:00 | 00:00:00 | 00:00:00 | |
| OE5DRO-10 | 2026-09-02 00:26:12 | 47.39211 | 19.98688 | 180° | 20km/h | 22820m | 6.5m/s | 0°C | 0% | 0hPa | 2.5V | 00:00:00 | 00:00:00 | 00:00:00 | |
| PETON7-10 | 2026-09-02 00:26:01 | 47.39262 | 19.98688 | 195° | 26km/h | 22753m | 6.9m/s | -52.8°C | 4.1% | 38.0hPa | 2.5V | 00:00:00 | 00:00:00 | 00:00:00 | |
| LZ4TU-5 | 2026-09-02 00:25:46 | 47.39355 | 19.98650 | 174° | 20km/h | 22665m | 4.3m/s | -52.5°C | 0% | 0hPa | 2.5V | 00:00:00 | 00:00:00 | 00:00:00 | |
| LZ4TU-5 | 2026-09-02 00:25:40 | 47.39380 | 19.98627 | 146° | 33km/h | 22635m | 6.5m/s | -52.6°C | 0% | 0hPa | 2.5V | 00:00:00 | 00:00:00 | 00:00:00 | |
| PETON7-10 | 2026-09-02 00:25:31 | 47.39447 | 19.98552 | 134° | 24km/h | 22577m | 5.1m/s | -52.7°C | 4.1% | 39.1hPa | 2.5V | 00:00:00 | 00:00:00 | 08:30:00 | |
| PETON7-10 | 2026-09-02 00:25:16 | 47.39504 | 19.98452 | 122° | 24km/h | 22490m | 4.7m/s | -52.6°C | 4.1% | 39.7hPa | 2.5V | 00:00:00 | 00:00:00 | 00:00:00 | |
| PETON7-10 | 2026-09-02 00:25:01 | 47.39543 | 19.98337 | 96° | 26km/h | 22402m | 5.3m/s | -52.5°C | 4.0% | 40.2hPa | 2.5V | 00:00:00 | 01:30:32 | 00:00:00 | |
| OE5DRO-10 | 2026-09-02 00:24:50 | 47.39560 | 19.98230 | 104° | 22km/h | 22343m | 4.6m/s | 0°C | 0% | 0hPa | 2.5V | 00:00:00 | 00:00:00 | 00:00:00 | |
| PETON7-10 | 2026-09-02 00:24:45 | 47.39554 | 19.98181 | 74° | 24km/h | 22313m | 6.7m/s | -52.9°C | 4.1% | 40.7hPa | 2.5V | 00:00:00 | 00:00:00 | 00:00:00 | |
| OE5DRO-10 | 2026-09-02 00:24:31 | 47.39527 | 19.98080 | 63° | 18km/h | 22232m | 7.0m/s | 0°C | 0% | 0hPa | 2.5V | 00:00:00 | 00:00:00 | 00:00:00 | |
| PETON7-10 | 2026-09-02 00:24:30 | 47.39524 | 19.98070 | 57° | 18km/h | 22226m | 5.4m/s | -53.5°C | 4.2% | 41.3hPa | 2.5V | 00:00:00 | 00:00:00 | 00:00:00 | |
| PETON7-10 | 2026-09-02 00:24:15 | 47.39472 | 19.98015 | 48° | 13km/h | 22136m | 6.9m/s | -53.7°C | 4.3% | 41.9hPa | 2.5V | 00:00:00 | 01:29:46 | 00:00:00 | |
| LZ4TU-5 | 2026-09-02 00:24:06 | 47.39443 | 19.97991 | 18° | 11km/h | 22087m | 7.3m/s | -54.0°C | 0% | 0hPa | 2.5V | 00:00:00 | 00:00:00 | 00:00:00 | |
| LZ4TU-5 | 2026-09-02 00:24:01 | 47.39440 | 19.97995 | 229° | 7km/h | 22057m | 7.2m/s | -54.2°C | 0% | 0hPa | 2.5V | 00:00:00 | 00:00:00 | 00:00:00 | |
| PETON7-10 | 2026-09-02 00:24:00 | 47.39442 | 19.97997 | 156° | 15km/h | 22045m | 4.6m/s | -54.1°C | 4.4% | 42.5hPa | 2.5V | 00:00:00 | 00:00:00 | 00:00:00 | |
| OE5DRO-10 | 2026-09-02 00:23:52 | 47.39432 | 19.97954 | 82° | 11km/h | 21997m | 4.6m/s | 0°C | 0% | 0hPa | 2.5V | 00:00:00 | 00:00:00 | 00:00:00 | |
| PETON7-10 | 2026-09-02 00:23:45 | 47.39446 | 19.97931 | 118° | 11km/h | 21958m | 4.3m/s | -53.9°C | 4.4% | 43.1hPa | 2.5V | 00:00:00 | 00:00:00 | 00:00:00 | |
| OE5DRO-10 | 2026-09-02 00:23:33 | 47.39456 | 19.97882 | 132° | 9km/h | 21874m | 6.0m/s | 0°C | 0% | 0hPa | 2.5V | 00:00:00 | 00:00:00 | 00:00:00 | |
| PETON7-10 | 2026-09-02 00:23:30 | 47.39456 | 19.97880 | 107° | 9km/h | 21868m | 4.9m/s | -53.4°C | 4.2% | 43.7hPa | 2.5V | 00:00:00 | 01:29:01 | 00:00:00 | |
| PETON7-10 | 2026-09-02 00:23:15 | 47.39458 | 19.97847 | 304° | 5km/h | 21780m | 5.0m/s | -53.6°C | 4.2% | 44.3hPa | 2.5V | 00:00:00 | 00:00:00 | 08:30:00 | |
| PETON7-10 | 2026-09-02 00:23:00 | 47.39445 | 19.97866 | 325° | 7km/h | 21693m | 4.5m/s | -53.8°C | 4.3% | 44.9hPa | 2.5V | 00:00:00 | 00:00:00 | 00:00:00 | |
| PETON7-10 | 2026-09-02 00:22:45 | 47.39424 | 19.97851 | 60° | 11km/h | 21606m | 4.5m/s | -53.7°C | 4.3% | 45.5hPa | 2.5V | 00:00:00 | 01:28:16 | 00:00:00 | |
| OE5DRO-10 | 2026-09-02 00:22:38 | 47.39422 | 19.97818 | 1° | 26km/h | 21553m | 5.9m/s | 0°C | 0% | 0hPa | 2.5V | 00:00:00 | 00:00:00 | 00:00:00 | |
| PETON7-10 | 2026-09-02 00:22:30 | 47.39412 | 19.97795 | 84° | 16km/h | 21519m | 5.1m/s | -53.3°C | 4.2% | 46.1hPa | 2.5V | 00:00:00 | 00:00:00 | 00:00:00 | |
| LZ4TU-5 | 2026-09-02 00:22:26 | 47.39408 | 19.97774 | 65° | 18km/h | 21501m | 5.1m/s | -53.3°C | 0% | 0hPa | 2.7V | 00:00:00 | 00:00:00 | 00:00:00 | |
| LZ4TU-5 | 2026-09-02 00:22:21 | 47.39399 | 19.97758 | 24° | 13km/h | 21472m | 5.6m/s | -53.2°C | 0% | 0hPa | 2.7V | 00:00:00 | 00:00:00 | 00:00:00 | |
| PETON7-10 | 2026-09-02 00:22:15 | 47.39382 | 19.97717 | 66° | 24km/h | 21431m | 5.8m/s | -53.2°C | 4.1% | 46.7hPa | 2.7V | 00:00:00 | 00:00:00 | 00:00:00 | |
| PETON7-10 | 2026-09-02 00:22:00 | 47.39334 | 19.97606 | 51° | 31km/h | 21343m | 6.2m/s | -53.3°C | 4.1% | 47.4hPa | 2.7V | 00:00:00 | 01:27:31 | 00:00:00 | |
| OE5DRO-10 | 2026-09-02 00:21:54 | 47.39300 | 19.97568 | 37° | 35km/h | 21309m | 5.0m/s | 0°C | 0% | 0hPa | 2.7V | 00:00:00 | 00:00:00 | 00:00:00 | |
| PETON7-10 | 2026-09-02 00:21:45 | 47.39245 | 19.97485 | 43° | 33km/h | 21257m | 5.4m/s | -53.8°C | 4.2% | 48.1hPa | 2.7V | 00:00:00 | 00:00:00 | 00:00:00 | |
| OE5DRO-10 | 2026-09-02 00:21:35 | 47.39176 | 19.97411 | 48° | 18km/h | 21196m | 5.3m/s | 0°C | 0% | 0hPa | 2.7V | 00:00:00 | 00:00:00 | 00:00:00 | |
| PETON7-10 | 2026-09-02 00:21:30 | 47.39156 | 19.97376 | 45° | 18km/h | 21164m | 6.6m/s | -53.9°C | 4.3% | 48.7hPa | 2.7V | 00:00:00 | 00:00:00 | 00:00:00 | |
| PETON7-10 | 2026-09-02 00:21:15 | 47.39117 | 19.97289 | 91° | 16km/h | 21078m | 5.9m/s | -53.8°C | 4.2% | 49.4hPa | 2.7V | 00:00:00 | 01:26:46 | 00:00:00 | |
| PETON7-10 | 2026-09-02 00:21:00 | 47.39112 | 19.97203 | 94° | 18km/h | 20989m | 5.6m/s | -53.8°C | 4.2% | 50.1hPa | 2.7V | 00:00:00 | 00:00:00 | 08:30:00 | |
| LZ4TU-5 | 2026-09-02 00:20:47 | 47.39108 | 19.97125 | 76° | 22km/h | 20919m | 5.7m/s | -54.5°C | 0% | 0hPa | 2.5V | 00:00:00 | 00:00:00 | 00:00:00 | |
| PETON7-10 | 2026-09-02 00:20:45 | 47.39105 | 19.97106 | 75° | 22km/h | 20902m | 4.2m/s | -54.4°C | 4.3% | 50.8hPa | 2.5V | 00:00:00 | 00:00:00 | 00:00:00 | |
| LZ4TU-5 | 2026-09-02 00:20:42 | 47.39103 | 19.97092 | 77° | 22km/h | 20890m | 5.5m/s | -54.5°C | 0% | 0hPa | 2.5V | 00:00:00 | 00:00:00 | 00:00:00 | |
| PETON7-10 | 2026-09-02 00:20:30 | 47.39085 | 19.96982 | 76° | 27km/h | 20817m | 6.5m/s | -54.6°C | 4.4% | 51.5hPa | 2.5V | 00:00:00 | 01:26:01 | 00:00:00 | |
| PETON7-10 | 2026-09-02 00:20:15 | 47.39054 | 19.96838 | 72° | 26km/h | 20733m | 4.5m/s | -55.2°C | 4.5% | 52.2hPa | 2.5V | 00:00:00 | 00:00:00 | 00:00:00 | |
| PETON7-10 | 2026-09-02 00:20:00 | 47.39005 | 19.96719 | 44° | 22km/h | 20649m | 6.7m/s | -55.2°C | 4.6% | 52.8hPa | 2.7V | 00:00:00 | 00:00:00 | 00:00:00 | |
| PETON7-10 | 2026-09-02 00:19:45 | 47.38944 | 19.96646 | 28° | 16km/h | 20566m | 4.4m/s | -55.0°C | 4.4% | 53.5hPa | 2.7V | 00:00:00 | 01:25:16 | 00:00:00 | |
| PETON7-10 | 2026-09-02 00:19:30 | 47.38883 | 19.96626 | 13° | 16km/h | 20480m | 5.8m/s | -55.7°C | 4.8% | 54.3hPa | 2.7V | 00:00:00 | 00:00:00 | 00:00:00 | |
| PETON7-10 | 2026-09-02 00:19:15 | 47.38821 | 19.96605 | 10° | 20km/h | 20400m | 5.5m/s | -55.3°C | 4.6% | 55.0hPa | 2.5V | 00:00:00 | 00:00:00 | 00:00:00 | |
| LZ4TU-5 | 2026-09-02 00:19:07 | 47.38780 | 19.96605 | 17° | 20km/h | 20355m | 5.4m/s | -55.1°C | 0% | 0hPa | 2.5V | 00:00:00 | 00:00:00 | 00:00:00 | |
| LZ4TU-5 | 2026-09-02 00:19:01 | 47.38756 | 19.96590 | 13° | 20km/h | 20326m | 5.2m/s | -55.1°C | 0% | 0hPa | 2.5V | 00:00:00 | 00:00:00 | 00:00:00 | |
| PETON7-10 | 2026-09-02 00:18:45 | 47.38699 | 19.96553 | 20° | 11km/h | 20230m | 5.3m/s | -55.4°C | 4.7% | 56.5hPa | 2.5V | 00:00:00 | 00:00:00 | 08:30:00 | |
| PETON7-10 | 2026-09-02 00:18:30 | 47.38665 | 19.96528 | 346° | 13km/h | 20149m | 5.1m/s | -55.1°C | 4.7% | 57.2hPa | 2.7V | 00:00:00 | 00:00:00 | 00:00:00 | |
| PETON7-10 | 2026-09-02 00:18:15 | 47.38624 | 19.96560 | 349° | 11km/h | 20061m | 4.1m/s | -54.5°C | 4.4% | 58.0hPa | 2.7V | 00:00:00 | 01:23:46 | 00:00:00 | |
| PETON7-10 | 2026-09-02 00:17:59 | 47.38597 | 19.96604 | 310° | 9km/h | 19967m | 4.1m/s | -54.4°C | 4.3% | 58.8hPa | 2.7V | 00:00:00 | 00:00:00 | 00:00:00 | |
| PETON7-10 | 2026-09-02 00:17:44 | 47.38597 | 19.96647 | 195° | 11km/h | 19877m | 5.5m/s | -54.1°C | 4.2% | 59.7hPa | 2.7V | 00:00:00 | 00:00:00 | 00:00:00 | |
| PETON7-10 | 2026-09-02 00:17:29 | 47.38625 | 19.96684 | 158° | 15km/h | 19782m | 6.0m/s | -55.3°C | 4.6% | 60.6hPa | 2.7V | 00:00:00 | 01:23:00 | 00:00:00 | |
| LZ4TU-5 | 2026-09-02 00:17:27 | 47.38627 | 19.96683 | 157° | 11km/h | 19775m | 8.1m/s | -55.4°C | 0% | 0hPa | 2.7V | 00:00:00 | 00:00:00 | 00:00:00 | |
| LZ4TU-5 | 2026-09-02 00:17:22 | 47.38641 | 19.96672 | 137° | 13km/h | 19744m | 4.8m/s | -55.2°C | 0% | 0hPa | 2.7V | 00:00:00 | 00:00:00 | 00:00:00 | |
| PETON7-10 | 2026-09-02 00:17:14 | 47.38656 | 19.96624 | 111° | 18km/h | 19685m | 6.2m/s | -54.8°C | 4.5% | 61.5hPa | 2.7V | 00:00:00 | 00:00:00 | 00:00:00 | |
| SQ9EZE-14 | 2026-09-02 00:16:59 | 47.38664 | 19.96531 | 83° | 22km/h | 19586m | 5.2m/s | 0°C | 0% | 0hPa | 2.7V | 00:00:00 | 00:00:00 | 00:00:00 | |
| PETON7-10 | 2026-09-02 00:16:56 | 47.38663 | 19.96505 | 86° | 22km/h | 19568m | 5.6m/s | -54.3°C | 4.4% | 62.6hPa | 2.7V | 00:00:00 | 00:00:00 | 00:00:00 | |
| PETON7-10 | 2026-09-02 00:16:41 | 47.38649 | 19.96386 | 83° | 24km/h | 19474m | 5.5m/s | -53.9°C | 4.3% | 63.6hPa | 2.7V | 00:00:00 | 01:22:12 | 00:00:00 | |
| PETON7-10 | 2026-09-02 00:16:26 | 47.38644 | 19.96259 | 94° | 26km/h | 19383m | 5.7m/s | -53.8°C | 4.2% | 64.5hPa | 2.7V | 00:00:00 | 00:00:00 | 08:30:00 | |
| PETON7-10 | 2026-09-02 00:16:11 | 47.38634 | 19.96127 | 66° | 22km/h | 19293m | 6.8m/s | -54.1°C | 4.1% | 65.4hPa | 2.6V | 00:00:00 | 00:00:00 | 00:00:00 | |
| PETON7-10 | 2026-09-02 00:15:56 | 47.38599 | 19.96018 | 53° | 27km/h | 19204m | 6.7m/s | -55.1°C | 4.4% | 66.3hPa | 2.6V | 00:00:00 | 01:21:27 | 00:00:00 | |
| LZ4TU-5 | 2026-09-02 00:15:50 | 47.38574 | 19.95976 | 50° | 24km/h | 19174m | 7.1m/s | -55.4°C | 0% | 0hPa | 2.6V | 00:00:00 | 00:00:00 | 00:00:00 | |
| LZ4TU-5 | 2026-09-02 00:15:47 | 47.38561 | 19.95953 | 53° | 18km/h | 19150m | 4.7m/s | -56.0°C | 0% | 0hPa | 2.6V | 00:00:00 | 00:00:00 | 00:00:00 | |
| PETON7-10 | 2026-09-02 00:15:41 | 47.38543 | 19.95903 | 68° | 24km/h | 19115m | 6.6m/s | -56.1°C | 4.7% | 67.2hPa | 2.6V | 00:00:00 | 00:00:00 | 00:00:00 | |
| PETON7-10 | 2026-09-02 00:15:26 | 47.38504 | 19.95782 | 58° | 20km/h | 19028m | 5.5m/s | -55.8°C | 4.7% | 68.1hPa | 2.7V | 00:00:00 | 00:00:00 | 00:00:00 | |
| PETON7-10 | 2026-09-02 00:15:10 | 47.38463 | 19.95680 | 63° | 24km/h | 18936m | 3.9m/s | -55.6°C | 4.6% | 69.1hPa | 2.7V | 00:00:00 | 01:20:41 | 00:00:00 | |
| PETON7-10 | 2026-09-02 00:14:55 | 47.38436 | 19.95557 | 76° | 24km/h | 18852m | 6.6m/s | -55.4°C | 4.6% | 70.1hPa | 2.7V | 00:00:00 | 00:00:00 | 00:00:00 | |
| PETON7-10 | 2026-09-02 00:14:39 | 47.38417 | 19.95416 | 83° | 18km/h | 18761m | 4.8m/s | -55.5°C | 4.6% | 71.1hPa | 2.6V | 00:00:00 | 00:00:00 | 00:00:00 | |
| PETON7-10 | 2026-09-02 00:14:24 | 47.38418 | 19.95314 | 80° | 27km/h | 18678m | 6.4m/s | -55.6°C | 4.6% | 72.0hPa | 2.6V | 00:00:00 | 01:19:55 | 00:00:00 | |
| PETON7-10 | 2026-09-02 00:14:09 | 47.38365 | 19.95199 | 36° | 20km/h | 18597m | 6.6m/s | -56.2°C | 4.9% | 72.9hPa | 2.6V | 00:00:00 | 00:00:00 | 08:30:00 | |
| LZ4TU-5 | 2026-09-02 00:14:01 | 47.38351 | 19.95164 | 60° | 31km/h | 18558m | 4.9m/s | -56.1°C | 0% | 0hPa | 2.7V | 00:00:00 | 00:00:00 | 00:00:00 | |
| LZ4TU-5 | 2026-09-02 00:13:57 | 47.38328 | 19.95134 | 31° | 22km/h | 18537m | 3.7m/s | -55.9°C | 0% | 0hPa | 2.7V | 00:00:00 | 00:00:00 | 00:00:00 | |
| PETON7-10 | 2026-09-02 00:13:54 | 47.38323 | 19.95114 | 128° | 16km/h | 18505m | 4.8m/s | -55.7°C | 4.8% | 74.0hPa | 2.7V | 00:00:00 | 00:00:00 | 00:00:00 | |
| PETON7-10 | 2026-09-02 00:13:39 | 47.38336 | 19.95039 | 168° | 20km/h | 18411m | 2.5m/s | -55.4°C | 4.7% | 75.1hPa | 2.7V | 00:00:00 | 01:19:10 | 00:00:00 | |
| PETON7-10 | 2026-09-02 00:13:24 | 47.38382 | 19.94953 | 153° | 31km/h | 18316m | 8.0m/s | -54.9°C | 4.6% | 76.2hPa | 2.7V | 00:00:00 | 00:00:00 | 00:00:00 | |
| PETON7-10 | 2026-09-02 00:13:09 | 47.38430 | 19.94804 | 118° | 37km/h | 18224m | 6.7m/s | -54.4°C | 4.4% | 77.3hPa | 2.7V | 00:00:00 | 00:00:00 | 00:00:00 | |
| PETON7-10 | 2026-09-02 00:12:54 | 47.38495 | 19.94625 | 117° | 42km/h | 18137m | 5.5m/s | -54.4°C | 4.3% | 78.4hPa | 2.7V | 00:00:00 | 01:18:25 | 00:00:00 | |
| PETON7-10 | 2026-09-02 00:12:39 | 47.38551 | 19.94406 | 104° | 47km/h | 18056m | 5.5m/s | -54.7°C | 4.3% | 79.4hPa | 2.7V | 00:00:00 | 00:00:00 | 00:00:00 | |
| PETON7-10 | 2026-09-02 00:12:24 | 47.38569 | 19.94140 | 101° | 51km/h | 17973m | 4.6m/s | -55.1°C | 4.3% | 80.4hPa | 2.7V | 00:00:00 | 00:00:00 | 00:00:00 | |
| PETON7-10 | 2026-09-02 00:12:09 | 47.38553 | 19.93854 | 83° | 44km/h | 17892m | 6.7m/s | -56.1°C | 4.8% | 81.5hPa | 2.7V | 00:00:00 | 01:17:40 | 00:00:00 | |
| LZ4TU-5 | 2026-09-02 00:12:08 | 47.38553 | 19.93854 | 84° | 51km/h | 17892m | 6.7m/s | -56.2°C | 0% | 0hPa | 2.7V | 00:00:00 | 00:00:00 | 00:00:00 | |
| LZ4TU-5 | 2026-09-02 00:12:04 | 47.38547 | 19.93779 | 88° | 49km/h | 17869m | 4.2m/s | -56.1°C | 0% | 0hPa | 2.7V | 00:00:00 | 00:00:00 | 00:00:00 | |
| PETON7-10 | 2026-09-02 00:11:54 | 47.38540 | 19.93613 | 83° | 37km/h | 17808m | 5.1m/s | -56.0°C | 4.8% | 82.5hPa | 2.7V | 00:00:00 | 00:00:00 | 08:30:00 | |
| PETON7-10 | 2026-09-02 00:11:39 | 47.38547 | 19.93418 | 90° | 33km/h | 17726m | 5.7m/s | -55.6°C | 4.8% | 83.6hPa | 2.7V | 00:00:00 | 00:00:00 | 00:00:00 | |
| PETON7-10 | 2026-09-02 00:11:24 | 47.38578 | 19.93241 | 105° | 26km/h | 17644m | 6.4m/s | -55.4°C | 4.7% | 84.7hPa | 2.7V | 00:00:00 | 01:16:55 | 00:00:00 | |
| PETON7-10 | 2026-09-02 00:11:09 | 47.38623 | 19.93118 | 123° | 27km/h | 17560m | 4.7m/s | -54.9°C | 4.6% | 85.8hPa | 2.7V | 00:00:00 | 00:00:00 | 00:00:00 | |
| PETON7-10 | 2026-09-02 00:10:54 | 47.38679 | 19.92991 | 124° | 29km/h | 17481m | 5.9m/s | -54.5°C | 4.5% | 86.9hPa | 2.7V | 00:00:00 | 00:00:00 | 00:00:00 | |
| PETON7-10 | 2026-09-02 00:10:39 | 47.38731 | 19.92853 | 126° | 29km/h | 17401m | 6.6m/s | -53.9°C | 4.4% | 88.0hPa | 2.7V | 00:00:00 | 01:16:10 | 00:00:00 | |
| PETON7-10 | 2026-09-02 00:10:24 | 47.38777 | 19.92707 | 110° | 27km/h | 17325m | 4.7m/s | -53.8°C | 4.4% | 89.0hPa | 2.7V | 00:00:00 | 00:00:00 | 00:00:00 | |
| LZ4TU-5 | 2026-09-02 00:10:14 | 47.38795 | 19.92625 | 104° | 29km/h | 17278m | 6.2m/s | 0°C | 0% | 0hPa | 2.6V | 00:00:00 | 00:00:00 | 00:00:00 | |
| PETON7-10 | 2026-09-02 00:10:09 | 47.38806 | 19.92561 | 103° | 29km/h | 17246m | 4.1m/s | -53.3°C | 4.2% | 90.1hPa | 2.6V | 00:00:00 | 00:00:00 | 00:00:00 | |
| PETON7-10 | 2026-09-02 00:09:54 | 47.38833 | 19.92408 | 103° | 29km/h | 17170m | 5.9m/s | -53.0°C | 4.1% | 91.2hPa | 2.6V | 00:00:00 | 01:15:25 | 00:00:00 | |
| PETON7-10 | 2026-09-02 00:09:39 | 47.38864 | 19.92249 | 123° | 38km/h | 17095m | 4.8m/s | -53.4°C | 4.3% | 92.3hPa | 2.6V | 00:00:00 | 00:00:00 | 08:30:00 | |
| PETON7-10 | 2026-09-02 00:09:26 | 47.38919 | 19.92048 | 113° | 46km/h | 17015m | 6.3m/s | -53.2°C | 4.1% | 93.4hPa | 2.7V | 00:00:00 | 00:00:00 | 00:00:00 | |
| PETON7-10 | 2026-09-02 00:09:09 | 47.38967 | 19.91808 | 109° | 51km/h | 16940m | 4.6m/s | -53.4°C | 4.1% | 94.5hPa | 2.7V | 00:00:00 | 01:14:40 | 00:00:00 | |
| PETON7-10 | 2026-09-02 00:08:54 | 47.38994 | 19.91524 | 94° | 60km/h | 16866m | 4.3m/s | -54.5°C | 4.5% | 95.6hPa | 2.7V | 00:00:00 | 00:00:00 | 00:00:00 | |
| PETON7-10 | 2026-09-02 00:08:39 | 47.38971 | 19.91184 | 87° | 57km/h | 16792m | 4.3m/s | -54.4°C | 4.4% | 96.8hPa | 2.6V | 00:00:00 | 00:00:00 | 00:00:00 | |
| LZ4TU-5 | 2026-09-02 00:08:26 | 47.38960 | 19.90931 | 90° | 55km/h | 16731m | 4.9m/s | 0°C | 0% | 0hPa | 2.6V | 00:00:00 | 00:00:00 | 00:00:00 | |
| PETON7-10 | 2026-09-02 00:08:24 | 47.38959 | 19.90874 | 92° | 47km/h | 16714m | 6.9m/s | -54.7°C | 4.6% | 97.9hPa | 2.6V | 00:00:00 | 01:13:55 | 00:00:00 | |
| LZ4TU-5 | 2026-09-02 00:08:21 | 47.38960 | 19.90839 | 96° | 46km/h | 16704m | 5.4m/s | 0°C | 0% | 0hPa | 2.6V | 00:00:00 | 00:00:00 | 00:00:00 | |
| PETON7-10 | 2026-09-02 00:08:09 | 47.38965 | 19.90611 | 96° | 42km/h | 16635m | 5.8m/s | -54.5°C | 4.6% | 99.2hPa | 2.6V | 00:00:00 | 00:00:00 | 00:00:00 | |
| PETON7-10 | 2026-09-02 00:07:54 | 47.38973 | 19.90382 | 106° | 46km/h | 16554m | 5.6m/s | -54.6°C | 4.5% | 100.4hPa | 2.7V | 00:00:00 | 00:00:00 | 00:00:00 | |
| PETON7-10 | 2026-09-02 00:07:39 | 47.38996 | 19.90129 | 96° | 55km/h | 16468m | 6.2m/s | -54.3°C | 4.4% | 101.7hPa | 2.7V | 00:00:00 | 01:13:10 | 00:00:00 | |
| PETON7-10 | 2026-09-02 00:07:24 | 47.38998 | 19.89817 | 86° | 62km/h | 16382m | 4.7m/s | -55.0°C | 4.6% | 103.2hPa | 2.7V | 00:00:00 | 00:00:00 | 08:30:00 | |
| PETON7-10 | 2026-09-02 00:07:09 | 47.38958 | 19.89478 | 75° | 60km/h | 16302m | 6.1m/s | -55.4°C | 4.8% | 104.5hPa | 2.7V | 00:00:00 | 00:00:00 | 00:00:00 | |
| PETON7-10 | 2026-09-02 00:06:54 | 47.38916 | 19.89143 | 82° | 62km/h | 16223m | 4.2m/s | -55.3°C | 4.8% | 105.8hPa | 2.7V | 00:00:00 | 01:12:25 | 00:00:00 | |
| PETON7-10 | 2026-09-02 00:06:39 | 47.38901 | 19.88793 | 90° | 60km/h | 16145m | 4.6m/s | -55.1°C | 4.7% | 107.1hPa | 2.7V | 00:00:00 | 00:00:00 | 00:00:00 | |
| PETON7-10 | 2026-09-02 00:06:24 | 47.38909 | 19.88451 | 85° | 60km/h | 16064m | 6.0m/s | -55.1°C | 4.7% | 108.4hPa | 2.7V | 00:00:00 | 00:00:00 | 00:00:00 | |
| PETON7-10 | 2026-09-02 00:06:09 | 47.38885 | 19.88118 | 84° | 62km/h | 15985m | 3.2m/s | -54.9°C | 4.7% | 109.8hPa | 2.7V | 00:00:00 | 01:11:40 | 00:00:00 | |
| PETON7-10 | 2026-09-02 00:05:53 | 47.38855 | 19.87756 | 82° | 64km/h | 15905m | 6.0m/s | -55.2°C | 4.8% | 111.2hPa | 2.7V | 00:00:00 | 00:00:00 | 00:00:00 | |
| PETON7-10 | 2026-09-02 00:05:38 | 47.38846 | 19.87397 | 95° | 75km/h | 15831m | 4.5m/s | -55.5°C | 4.9% | 112.5hPa | 2.6V | 00:00:00 | 00:00:00 | 00:00:00 | |
| PETON7-10 | 2026-09-02 00:05:23 | 47.38850 | 19.86979 | 85° | 73km/h | 15758m | 4.3m/s | -55.3°C | 4.8% | 113.8hPa | 2.6V | 00:00:00 | 01:10:54 | 00:00:00 | |
| PETON7-10 | 2026-09-02 00:05:08 | 47.38815 | 19.86575 | 81° | 75km/h | 15686m | 3.5m/s | -55.3°C | 4.8% | 115.1hPa | 2.6V | 00:00:00 | 00:00:00 | 08:30:00 | |
| PETON7-10 | 2026-09-02 00:04:53 | 47.38783 | 19.86156 | 86° | 77km/h | 15612m | 6.2m/s | -55.1°C | 4.7% | 116.4hPa | 2.7V | 00:00:00 | 00:00:00 | 00:00:00 | |
| PETON7-10 | 2026-09-02 00:04:38 | 47.38729 | 19.85736 | 80° | 77km/h | 15539m | 4.3m/s | -54.9°C | 4.8% | 117.7hPa | 2.7V | 00:00:00 | 01:10:09 | 00:00:00 | |
| PETON7-10 | 2026-09-02 00:04:23 | 47.38668 | 19.85323 | 79° | 75km/h | 15468m | 4.4m/s | -55.1°C | 4.8% | 119.1hPa | 2.7V | 00:00:00 | 00:00:00 | 00:00:00 | |
| PETON7-10 | 2026-09-02 00:04:09 | 47.38593 | 19.84920 | 79° | 68km/h | 15397m | 5.1m/s | -55.2°C | 4.9% | 120.4hPa | 2.7V | 00:00:00 | 00:00:00 | 00:00:00 | |
| PETON7-10 | 2026-09-02 00:03:56 | 47.38545 | 19.84548 | 83° | 71km/h | 15322m | 3.9m/s | -55.2°C | 4.9% | 121.9hPa | 2.7V | 00:00:00 | 01:09:24 | 00:00:00 | |
| PETON7-10 | 2026-09-02 00:03:44 | 47.38508 | 19.84149 | 83° | 78km/h | 15244m | 3.6m/s | -55.1°C | 5.0% | 123.4hPa | 2.7V | 00:00:00 | 00:00:00 | 00:00:00 | |
| PETON7-10 | 2026-09-02 00:03:27 | 47.38473 | 19.83717 | 87° | 77km/h | 15166m | 6.6m/s | -54.9°C | 4.9% | 124.9hPa | 2.7V | 00:00:00 | 00:00:00 | 00:00:00 | |
| PETON7-10 | 2026-09-02 00:03:20 | 47.38440 | 19.83295 | 84° | 75km/h | 15090m | 6.0m/s | -54.9°C | 4.9% | 126.4hPa | 2.7V | 00:00:00 | 01:08:39 | 00:00:00 | |
| PETON7-10 | 2026-09-02 00:03:08 | 47.38403 | 19.82879 | 83° | 84km/h | 15012m | 5.8m/s | -55.0°C | 5.0% | 127.9hPa | 2.7V | 00:00:00 | 00:00:00 | 08:30:00 | |
| PETON7-10 | 2026-09-02 00:02:46 | 47.38351 | 19.82417 | 82° | 86km/h | 14935m | 5.1m/s | -55.6°C | 5.5% | 129.5hPa | 2.6V | 00:00:00 | 00:00:00 | 00:00:00 | |
| PETON7-10 | 2026-09-02 00:02:33 | 47.38305 | 19.81943 | 82° | 78km/h | 14856m | 5.3m/s | -55.0°C | 5.2% | 131.1hPa | 2.6V | 00:00:00 | 01:07:54 | 00:00:00 | |
| PETON7-10 | 2026-09-02 00:02:17 | 47.38253 | 19.81518 | 78° | 69km/h | 14777m | 4.0m/s | -55.4°C | 5.3% | 132.8hPa | 2.6V | 00:00:00 | 00:00:00 | 00:00:00 | |
| PETON7-10 | 2026-09-02 00:02:00 | 47.38212 | 19.81133 | 81° | 73km/h | 14694m | 3.9m/s | -55.3°C | 5.4% | 134.5hPa | 2.7V | 00:00:00 | 00:00:00 | 00:00:00 | |
| PETON7-10 | 2026-09-02 00:01:27 | 47.38081 | 19.80255 | 81° | 93km/h | 14529m | 5.4m/s | -55.6°C | 5.4% | 138.0hPa | 2.7V | 00:00:00 | 00:00:00 | 00:00:00 | |
| PETON7-10 | 2026-09-02 00:01:10 | 47.37998 | 19.79714 | 77° | 82km/h | 14442m | 7.1m/s | -55.2°C | 5.4% | 139.9hPa | 2.6V | 00:00:00 | 00:00:00 | 00:00:00 | |
| PETON7-10 | 2026-09-02 00:00:52 | 47.37928 | 19.79269 | 76° | 77km/h | 14358m | 4.6m/s | -55.2°C | 5.3% | 141.7hPa | 2.6V | 00:00:00 | 01:06:23 | 00:00:00 | |
| PETON7-10 | 2026-09-02 00:00:38 | 47.37895 | 19.78839 | 85° | 77km/h | 14279m | 6.4m/s | -55.1°C | 5.5% | 143.5hPa | 2.6V | 00:00:00 | 00:00:00 | 08:30:00 | |
| PETON7-10 | 2026-09-02 00:00:27 | 47.37887 | 19.78410 | 90° | 78km/h | 14205m | 6.4m/s | -54.9°C | 5.5% | 145.2hPa | 2.6V | 00:00:00 | 00:00:00 | 00:00:00 | |
| PETON7-10 | 2026-09-02 00:00:08 | 47.37901 | 19.77936 | 95° | 86km/h | 14123m | 5.9m/s | -55.6°C | 5.9% | 147.1hPa | 2.6V | 00:00:00 | 01:05:37 | 00:00:00 | |
| ATIDSZ-14 | 2026-09-01 23:59:58 | 47.37924 | 19.77719 | 102° | 89km/h | 14086m | 6.2m/s | -55.8°C | 2.8% | 148.0hPa | 2.6V | 00:00:00 | 00:00:00 | 00:00:00 | |
| PETON7-10 | 2026-09-01 23:59:50 | 47.37949 | 19.77426 | 96° | 91km/h | 14039m | 6.5m/s | -55.8°C | 6.1% | 149.0hPa | 2.6V | 00:00:00 | 00:00:00 | 00:00:00 | |
| PETON7-10 | 2026-09-01 23:59:35 | 47.37971 | 19.76917 | 93° | 97km/h | 13966m | 4.5m/s | -56.2°C | 6.4% | 150.7hPa | 2.6V | 00:00:00 | 00:00:00 | 00:00:00 | |
| ATIDSZ-14 | 2026-09-01 23:59:32 | 47.37973 | 19.76844 | 93° | 99km/h | 13956m | 7.0m/s | -56.3°C | 2.9% | 151.0hPa | 2.6V | 00:00:00 | 00:00:00 | 00:00:00 | |
| PETON7-10 | 2026-09-01 23:59:20 | 47.37968 | 19.76379 | 87° | 95km/h | 13893m | 4.8m/s | -56.2°C | 6.4% | 152.5hPa | 2.6V | 00:00:00 | 01:04:51 | 00:00:00 | |
| ATIDSZ-14 | 2026-09-01 23:59:06 | 47.37935 | 19.75921 | 85° | 97km/h | 13826m | 5.7m/s | -56.6°C | 3.2% | 154.1hPa | 2.6V | 00:00:00 | 00:00:00 | 00:00:00 | |
| PETON7-10 | 2026-09-01 23:59:05 | 47.37929 | 19.75850 | 81° | 102km/h | 13814m | 4.4m/s | -56.6°C | 6.9% | 154.4hPa | 2.6V | 00:00:00 | 00:00:00 | 00:00:00 | |
| PETON7-10 | 2026-09-01 23:58:50 | 47.37860 | 19.75290 | 78° | 100km/h | 13733m | 4.6m/s | -56.3°C | 6.6% | 156.3hPa | 2.6V | 00:00:00 | 00:00:00 | 00:00:00 | |
| ATIDSZ-14 | 2026-09-01 23:58:42 | 47.37818 | 19.75036 | 81° | 99km/h | 13696m | 4.1m/s | -56.2°C | 3.2% | 157.4hPa | 2.6V | 00:00:00 | 00:00:00 | 00:00:00 | |
| PETON7-10 | 2026-09-01 23:58:35 | 47.37774 | 19.74747 | 77° | 95km/h | 13655m | 6.7m/s | -56.1°C | 6.5% | 158.3hPa | 2.6V | 00:00:00 | 01:04:06 | 00:00:00 | |
| ATIDSZ-14 | 2026-09-01 23:58:23 | 47.37712 | 19.74336 | 73° | 93km/h | 13591m | 6.6m/s | -56.1°C | 3.4% | 159.9hPa | 2.6V | 00:00:00 | 00:00:00 | 00:00:00 | |
| PETON7-10 | 2026-09-01 23:58:20 | 47.37694 | 19.74235 | 79° | 91km/h | 13574m | 5.7m/s | -56.0°C | 6.8% | 160.3hPa | 2.6V | 00:00:00 | 00:00:00 | 08:30:00 | |
| ATIDSZ-14 | 2026-09-01 23:57:58 | 47.37624 | 19.73543 | 84° | 89km/h | 13457m | 7.7m/s | -55.9°C | 3.8% | 163.4hPa | 2.7V | 00:00:00 | 00:00:00 | 00:00:00 | |
| PETON7-10 | 2026-09-01 23:57:50 | 47.37601 | 19.73249 | 81° | 91km/h | 13407m | 4.3m/s | -55.5°C | 7.6% | 164.6hPa | 2.7V | 00:00:00 | 01:03:21 | 00:00:00 | |
| ATIDSZ-14 | 2026-09-01 23:57:38 | 47.37566 | 19.72890 | 83° | 93km/h | 13351m | 4.2m/s | -55.7°C | 4.8% | 166.1hPa | 2.7V | 00:00:00 | 00:00:00 | 00:00:00 | |
| PETON7-10 | 2026-09-01 23:57:35 | 47.37547 | 19.72748 | 77° | 91km/h | 13329m | 5.8m/s | -55.5°C | 8.7% | 166.6hPa | 2.7V | 00:00:00 | 00:00:00 | 00:00:00 | |
| PETON7-10 | 2026-09-01 23:57:20 | 47.37508 | 19.72246 | 87° | 99km/h | 13230m | 7.7m/s | -56.7°C | 10.5% | 169.2hPa | 2.7V | 00:00:00 | 00:00:00 | 00:00:00 | |
| ATIDSZ-14 | 2026-09-01 23:57:13 | 47.37495 | 19.72014 | 85° | 106km/h | 13192m | 7.9m/s | -56.9°C | 7.0% | 170.3hPa | 2.7V | 00:00:00 | 00:00:00 | 00:00:00 | |
| PETON7-10 | 2026-09-01 23:57:05 | 47.37469 | 19.71695 | 85° | 97km/h | 13132m | 5.5m/s | -57.3°C | 12.4% | 171.9hPa | 2.7V | 00:00:00 | 01:02:36 | 00:00:00 | |
| PETON7-10 | 2026-09-01 23:56:50 | 47.37464 | 19.71149 | 86° | 100km/h | 13032m | 6.0m/s | -57.0°C | 13.1% | 174.6hPa | 2.7V | 00:00:00 | 00:00:00 | 00:00:00 | |
| ATIDSZ-14 | 2026-09-01 23:56:48 | 47.37462 | 19.71114 | 87° | 97km/h | 13027m | 5.6m/s | -57.0°C | 8.5% | 174.8hPa | 2.7V | 00:00:00 | 00:00:00 | 00:00:00 | |
| PETON7-10 | 2026-09-01 23:56:35 | 47.37448 | 19.70590 | 91° | 106km/h | 12940m | 6.3m/s | -56.7°C | 14.0% | 177.2hPa | 2.7V | 00:00:00 | 00:00:00 | 00:00:00 | |
| PETON7-10 | 2026-09-01 23:56:20 | 47.37442 | 19.70010 | 89° | 102km/h | 12856m | 7.2m/s | -57.0°C | 16.0% | 179.5hPa | 2.7V | 00:00:00 | 01:01:51 | 00:00:00 | |
| ATIDSZ-14 | 2026-09-01 23:56:15 | 47.37439 | 19.69859 | 94° | 100km/h | 12835m | 5.4m/s | -57.4°C | 11.4% | 180.2hPa | 2.7V | 00:00:00 | 00:00:00 | 00:00:00 | |
| PETON7-10 | 2026-09-01 23:56:05 | 47.37449 | 19.69435 | 95° | 104km/h | 12764m | 7.0m/s | -57.5°C | 17.6% | 182.3hPa | 2.7V | 00:00:00 | 00:00:00 | 08:30:00 | |
| ATIDSZ-14 | 2026-09-01 23:55:55 | 47.37471 | 19.69083 | 95° | 102km/h | 12709m | 7.7m/s | -57.5°C | 12.4% | 183.9hPa | 2.7V | 00:00:00 | 00:00:00 | 00:00:00 | |
| OM5KV | 2026-09-01 23:55:51 | 47.37476 | 19.68934 | 93° | 99km/h | 12685m | 3.7m/s | -57.7°C | 12.9% | 184.6hPa | 2.7V | 00:00:00 | 00:00:00 | 00:00:00 | |
| PETON7-10 | 2026-09-01 23:55:50 | 47.37478 | 19.68859 | 92° | 106km/h | 12673m | 6.9m/s | -57.6°C | 18.6% | 185.0hPa | 2.7V | 00:00:00 | 00:00:00 | 00:00:00 | |
| OM5KV | 2026-09-01 23:55:46 | 47.37478 | 19.68739 | 89° | 111km/h | 12656m | 6.9m/s | -57.6°C | 12.9% | 185.5hPa | 2.7V | 00:00:00 | 00:00:00 | 00:00:00 | |
| OM5KV | 2026-09-01 23:55:40 | 47.37475 | 19.68506 | 96° | 95km/h | 12626m | 3.8m/s | -57.7°C | 13.4% | 186.4hPa | 2.7V | 00:00:00 | 00:00:00 | 00:00:00 | |
| PETON7-10 | 2026-09-01 23:55:35 | 47.37486 | 19.68269 | 93° | 106km/h | 12587m | 8.5m/s | -57.5°C | 19.0% | 187.4hPa | 2.7V | 00:00:00 | 01:01:06 | 00:00:00 | |
| OM5KV | 2026-09-01 23:55:34 | 47.37486 | 19.68269 | 93° | 119km/h | 12587m | 8.5m/s | -57.5°C | 13.4% | 187.5hPa | 2.7V | 00:00:00 | 00:00:00 | 00:00:00 | |
| ATIDSZ-14 | 2026-09-01 23:55:33 | 47.37486 | 19.68225 | 92° | 117km/h | 12580m | 6.1m/s | -57.5°C | 13.3% | 187.6hPa | 2.7V | 00:00:00 | 00:00:00 | 00:00:00 | |
| OM5KV | 2026-09-01 23:55:28 | 47.37477 | 19.68025 | 83° | 99km/h | 12542m | 7.4m/s | -57.4°C | 14.0% | 188.7hPa | 2.7V | 00:00:00 | 00:00:00 | 00:00:00 | |
| OM5KV | 2026-09-01 23:55:27 | 47.37475 | 19.67989 | 86° | 97km/h | 12536m | 5.9m/s | -57.4°C | 14.3% | 188.9hPa | 2.7V | 00:00:00 | 00:00:00 | 00:00:00 | |
| OE3JTB-15 | 2026-09-01 23:55:25 | 47.37482 | 19.67801 | 99° | 106km/h | 12506m | 7.2m/s | -57.6°C | 21.3% | 189.8hPa | 2.7V | 00:00:00 | 00:00:00 | 00:00:00 | |
| OM5KV | 2026-09-01 23:55:22 | 47.37482 | 19.67801 | 99° | 108km/h | 12506m | 7.3m/s | -57.6°C | 15.4% | 189.9hPa | 2.7V | 00:00:00 | 00:00:00 | 00:00:00 | |
| PETON7-10 | 2026-09-01 23:55:20 | 47.37489 | 19.67681 | 93° | 106km/h | 12490m | 6.0m/s | -57.7°C | 22.6% | 190.4hPa | 2.7V | 00:00:00 | 00:00:00 | 00:00:00 | |
| OM5KV | 2026-09-01 23:55:16 | 47.37491 | 19.67566 | 92° | 102km/h | 12471m | 7.4m/s | -57.9°C | 17.2% | 191.0hPa | 2.7V | 00:00:00 | 00:00:00 | 00:00:00 | |
| ATIDSZ-14 | 2026-09-01 23:55:12 | 47.37493 | 19.67414 | 90° | 108km/h | 12443m | 5.8m/s | -58.7°C | 19.8% | 191.8hPa | 2.7V | 00:00:00 | 00:00:00 | 00:00:00 | |
| OM5KV | 2026-09-01 23:55:10 | 47.37491 | 19.67333 | 89° | 111km/h | 12432m | 7.6m/s | -58.6°C | 19.9% | 192.1hPa | 2.7V | 00:00:00 | 00:00:00 | 00:00:00 | |
| PETON7-10 | 2026-09-01 23:55:05 | 47.37486 | 19.67088 | 90° | 104km/h | 12399m | 5.8m/s | -58.3°C | 28.6% | 193.1hPa | 2.7V | 00:00:00 | 00:00:00 | 00:00:00 | |
| OM5KV | 2026-09-01 23:55:04 | 47.37486 | 19.67088 | 90° | 102km/h | 12399m | 5.9m/s | -58.3°C | 21.4% | 193.2hPa | 2.7V | 00:00:00 | 00:00:00 | 00:00:00 | |
| OM5KV | 2026-09-01 23:54:59 | 47.37480 | 19.66895 | 85° | 110km/h | 12370m | 5.4m/s | -58.1°C | 22.7% | 194.0hPa | 2.7V | 00:00:00 | 00:00:00 | 00:00:00 | |
| OM5KV | 2026-09-01 23:54:58 | 47.37477 | 19.66854 | 86° | 110km/h | 12364m | 6.9m/s | -58.1°C | 23.1% | 194.2hPa | 2.7V | 00:00:00 | 00:00:00 | 00:00:00 | |
| OM5KV | 2026-09-01 23:54:54 | 47.37473 | 19.66695 | 90° | 102km/h | 12342m | 5.9m/s | -58.1°C | 25.5% | 195.0hPa | 2.7V | 00:00:00 | 00:00:00 | 00:00:00 | |
| ATIDSZ-14 | 2026-09-01 23:54:52 | 47.37470 | 19.66621 | 86° | 100km/h | 12328m | 7.1m/s | -58.2°C | 26.4% | 195.4hPa | 2.7V | 00:00:00 | 00:00:00 | 00:00:00 | |
| PETON7-10 | 2026-09-01 23:54:50 | 47.37462 | 19.66506 | 84° | 100km/h | 12308m | 6.4m/s | -58.3°C | 36.2% | 195.9hPa | 2.7V | 00:00:00 | 01:00:21 | 00:00:00 | |
| OM5KV | 2026-09-01 23:54:36 | 47.37453 | 19.66025 | 85° | 102km/h | 12229m | 5.5m/s | -59.0°C | 36.0% | 198.5hPa | 2.7V | 00:00:00 | 00:00:00 | 00:00:00 | |
| PETON7-10 | 2026-09-01 23:54:35 | 47.37447 | 19.65948 | 85° | 104km/h | 12217m | 7.0m/s | -58.9°C | 45.7% | 198.8hPa | 2.7V | 00:00:00 | 00:00:00 | 00:00:00 | |
| ATIDSZ-14 | 2026-09-01 23:54:32 | 47.37442 | 19.65872 | 85° | 100km/h | 12202m | 6.4m/s | -59.0°C | 38.3% | 199.3hPa | 2.7V | 00:00:00 | 00:00:00 | 00:00:00 | |
| OM5KV | 2026-09-01 23:54:31 | 47.37439 | 19.65835 | 85° | 99km/h | 12196m | 6.1m/s | -59.1°C | 39.0% | 199.5hPa | 2.7V | 00:00:00 | 00:00:00 | 00:00:00 | |
| OM5KV | 2026-09-01 23:54:30 | 47.37437 | 19.65799 | 86° | 99km/h | 12190m | 5.7m/s | -59.0°C | 39.6% | 199.7hPa | 2.7V | 00:00:00 | 00:00:00 | 00:00:00 | |
| OM5KV | 2026-09-01 23:54:25 | 47.37430 | 19.65610 | 89° | 106km/h | 12162m | 6.9m/s | -59.1°C | 42.1% | 200.6hPa | 2.7V | 00:00:00 | 00:00:00 | 00:00:00 | |
| OM5KV | 2026-09-01 23:54:24 | 47.37428 | 19.65570 | 87° | 110km/h | 12156m | 4.7m/s | -59.2°C | 42.6% | 200.8hPa | 2.7V | 00:00:00 | 00:00:00 | 00:00:00 | |
| PETON7-10 | 2026-09-01 23:54:20 | 47.37418 | 19.65369 | 93° | 100km/h | 12127m | 5.1m/s | -59.3°C | 55.4% | 201.7hPa | 2.7V | 00:00:00 | 00:00:00 | 00:00:00 | |
| OM5KV | 2026-09-01 23:54:19 | 47.37418 | 19.65369 | 94° | 99km/h | 12127m | 5.1m/s | -59.4°C | 44.4% | 201.8hPa | 2.7V | 00:00:00 | 00:00:00 | 00:00:00 | |
| OM5KV | 2026-09-01 23:54:18 | 47.37420 | 19.65334 | 96° | 93km/h | 12122m | 5.8m/s | -59.4°C | 43.8% | 201.9hPa | 2.7V | 00:00:00 | 00:00:00 | 00:00:00 | |
| ATIDSZ-14 | 2026-09-01 23:54:11 | 47.37425 | 19.65083 | 91° | 102km/h | 12072m | 6.6m/s | -59.3°C | 45.2% | 203.4hPa | 2.7V | 00:00:00 | 00:00:00 | 00:00:00 | |
| OM5KV | 2026-09-01 23:54:06 | 47.37438 | 19.64885 | 100° | 111km/h | 12039m | 8.0m/s | -59.0°C | 45.3% | 204.4hPa | 2.7V | 00:00:00 | 00:00:00 | 00:00:00 | |
| OM5KV | 2026-09-01 23:54:00 | 47.37461 | 19.64651 | 103° | 97km/h | 12003m | 7.1m/s | -58.9°C | 45.3% | 205.7hPa | 2.7V | 00:00:00 | 00:00:00 | 00:00:00 | |
| OE3JTB-15 | 2026-09-01 23:53:57 | 47.37482 | 19.64509 | 100° | 115km/h | 11985m | 3.6m/s | -58.8°C | 57.9% | 206.3hPa | 2.7V | 00:00:00 | 00:00:00 | 00:00:00 | |
| OM5KV | 2026-09-01 23:53:54 | 47.37489 | 19.64427 | 98° | 117km/h | 11973m | 5.8m/s | -58.7°C | 45.9% | 206.7hPa | 2.7V | 00:00:00 | 00:00:00 | 00:00:00 | |
| PETON7-10 | 2026-09-01 23:53:50 | 47.37506 | 19.64216 | 99° | 108km/h | 11945m | 6.9m/s | -58.6°C | 58.3% | 207.6hPa | 2.7V | 00:00:00 | 00:00:00 | 08:30:00 | |
| ATIDSZ-14 | 2026-09-01 23:53:49 | 47.37506 | 19.64216 | 100° | 104km/h | 11945m | 7.0m/s | -58.6°C | 47.3% | 207.6hPa | 2.7V | 00:00:00 | 00:00:00 | 00:00:00 | |
| OM5KV | 2026-09-01 23:53:47 | 47.37513 | 19.64139 | 97° | 104km/h | 11929m | 7.6m/s | -58.6°C | 48.8% | 208.1hPa | 2.7V | 00:00:00 | 00:00:00 | 00:00:00 | |
| PETON7-10 | 2026-09-01 23:53:35 | 47.37548 | 19.63615 | 100° | 108km/h | 11858m | 4.9m/s | -58.2°C | 61.8% | 210.5hPa | 2.7V | 00:00:00 | 00:00:00 | 00:00:00 | |
| OM5KV | 2026-09-01 23:53:32 | 47.37557 | 19.63539 | 103° | 104km/h | 11846m | 7.5m/s | -58.2°C | 50.0% | 210.9hPa | 2.7V | 00:00:00 | 00:00:00 | 00:00:00 | |
| OM5KV | 2026-09-01 23:53:27 | 47.37580 | 19.63343 | 97° | 110km/h | 11819m | 7.5m/s | -58.0°C | 50.8% | 211.9hPa | 2.7V | 00:00:00 | 00:00:00 | 00:00:00 | |
| ATIDSZ-14 | 2026-09-01 23:53:26 | 47.37583 | 19.63301 | 95° | 115km/h | 11812m | 6.4m/s | -58.0°C | 52.1% | 212.1hPa | 2.7V | 00:00:00 | 00:00:00 | 00:00:00 | |
| OM5KV | 2026-09-01 23:53:21 | 47.37593 | 19.63095 | 95° | 104km/h | 11789m | 6.4m/s | -57.9°C | 53.2% | 212.9hPa | 2.7V | 00:00:00 | 00:00:00 | 00:00:00 | |
| PETON7-10 | 2026-09-01 23:53:20 | 47.37595 | 19.63016 | 92° | 111km/h | 11775m | 7.9m/s | -57.8°C | 65.1% | 213.3hPa | 2.7V | 00:00:00 | 00:58:51 | 00:00:00 | |
| OM5KV | 2026-09-01 23:53:15 | 47.37598 | 19.62844 | 93° | 119km/h | 11749m | 5.6m/s | -57.6°C | 53.5% | 214.1hPa | 2.7V | 00:00:00 | 00:00:00 | 00:00:00 | |
| OM5KV | 2026-09-01 23:53:14 | 47.37599 | 19.62801 | 94° | 115km/h | 11743m | 6.5m/s | -57.6°C | 53.3% | 214.4hPa | 2.7V | 00:00:00 | 00:00:00 | 00:00:00 | |
| OM5KV | 2026-09-01 23:53:08 | 47.37616 | 19.62545 | 96° | 110km/h | 11705m | 8.1m/s | -57.3°C | 52.1% | 215.7hPa | 2.7V | 00:00:00 | 00:00:00 | 00:00:00 | |
| PETON7-10 | 2026-09-01 23:53:05 | 47.37615 | 19.62391 | 88° | 113km/h | 11677m | 7.7m/s | -57.1°C | 63.3% | 216.5hPa | 2.7V | 00:00:00 | 00:00:00 | 00:00:00 | |
| ATIDSZ-14 | 2026-09-01 23:53:04 | 47.37615 | 19.62391 | 89° | 104km/h | 11677m | 7.7m/s | -57.1°C | 52.2% | 216.6hPa | 2.7V | 00:00:00 | 00:00:00 | 00:00:00 | |
| OM5KV | 2026-09-01 23:52:57 | 47.37623 | 19.62081 | 95° | 119km/h | 11634m | 5.5m/s | -56.8°C | 53.6% | 218.0hPa | 2.7V | 00:00:00 | 00:00:00 | 00:00:00 | |
| OM5KV | 2026-09-01 23:52:52 | 47.37630 | 19.61880 | 92° | 106km/h | 11607m | 6.2m/s | -56.6°C | 54.5% | 219.0hPa | 2.7V | 00:00:00 | 00:00:00 | 00:00:00 | |
| OM5KV | 2026-09-01 23:52:51 | 47.37630 | 19.61840 | 92° | 110km/h | 11602m | 3.8m/s | -56.5°C | 54.6% | 219.1hPa | 2.7V | 00:00:00 | 00:00:00 | 00:00:00 | |
| PETON7-10 | 2026-09-01 23:52:50 | 47.37630 | 19.61756 | 90° | 111km/h | 11592m | 6.0m/s | -56.4°C | 64.8% | 219.4hPa | 2.7V | 00:00:00 | 00:00:00 | 00:00:00 | |
| OM5KV | 2026-09-01 23:52:47 | 47.37632 | 19.61671 | 93° | 113km/h | 11581m | 7.8m/s | -56.3°C | 52.6% | 219.9hPa | 2.7V | 00:00:00 | 00:00:00 | 00:00:00 | |
| ATIDSZ-14 | 2026-09-01 23:52:42 | 47.37649 | 19.61463 | 95° | 111km/h | 11553m | 2.8m/s | -56.1°C | 53.6% | 221.0hPa | 2.7V | 00:00:00 | 00:00:00 | 00:00:00 | |
| OM5KV | 2026-09-01 23:52:40 | 47.37651 | 19.61380 | 92° | 111km/h | 11543m | 5.7m/s | -56.0°C | 52.1% | 221.3hPa | 2.7V | 00:00:00 | 00:00:00 | 00:00:00 | |
| PETON7-10 | 2026-09-01 23:52:35 | 47.37663 | 19.61136 | 94° | 106km/h | 11507m | 3.2m/s | -55.7°C | 64.6% | 222.5hPa | 2.7V | 00:00:00 | 00:58:06 | 00:00:00 | |
| OM5KV | 2026-09-01 23:52:34 | 47.37663 | 19.61135 | 95° | 108km/h | 11507m | 3.2m/s | -55.8°C | 53.7% | 222.5hPa | 2.7V | 00:00:00 | 00:00:00 | 00:00:00 | |
| OM5KV | 2026-09-01 23:52:29 | 47.37661 | 19.60946 | 90° | 100km/h | 11483m | 4.1m/s | -55.6°C | 56.5% | 223.4hPa | 2.7V | 00:00:00 | 00:00:00 | 00:00:00 | |
| OM5KV | 2026-09-01 23:52:28 | 47.37661 | 19.60907 | 92° | 108km/h | 11479m | 3.3m/s | -55.5°C | 56.1% | 223.5hPa | 2.7V | 00:00:00 | 00:00:00 | 00:00:00 | |
| OM5KV | 2026-09-01 23:52:24 | 47.37668 | 19.60701 | 95° | 110km/h | 11455m | 5.3m/s | -55.3°C | 56.9% | 224.4hPa | 2.7V | 00:00:00 | 00:00:00 | 00:00:00 | |
| ATIDSZ-14 | 2026-09-01 23:52:22 | 47.37670 | 19.60662 | 94° | 104km/h | 11450m | 5.5m/s | -55.3°C | 56.7% | 224.5hPa | 2.7V | 00:00:00 | 00:00:00 | 00:00:00 | |
| PETON7-10 | 2026-09-01 23:52:20 | 47.37668 | 19.60545 | 86° | 106km/h | 11429m | 8.8m/s | -55.2°C | 65.6% | 225.2hPa | 2.7V | 00:00:00 | 00:00:00 | 00:00:00 | |
| OM5KV | 2026-09-01 23:52:17 | 47.37664 | 19.60464 | 89° | 111km/h | 11413m | 8.4m/s | -55.1°C | 55.5% | 225.8hPa | 2.7V | 00:00:00 | 00:00:00 | 00:00:00 | |
| OM5KV | 2026-09-01 23:52:16 | 47.37665 | 19.60423 | 93° | 111km/h | 11405m | 8.1m/s | -55.0°C | 55.6% | 226.1hPa | 2.7V | 00:00:00 | 00:00:00 | 00:00:00 | |
| OM5KV | 2026-09-01 23:52:11 | 47.37675 | 19.60228 | 94° | 97km/h | 11375m | 4.9m/s | -54.8°C | 57.1% | 227.2hPa | 2.7V | 00:00:00 | 00:00:00 | 00:00:00 | |
| OM5KV | 2026-09-01 23:52:06 | 47.37673 | 19.59995 | 87° | 111km/h | 11342m | 5.7m/s | -54.5°C | 59.5% | 228.4hPa | 2.7V | 00:00:00 | 00:00:00 | 00:00:00 | |
| PETON7-10 | 2026-09-01 23:52:05 | 47.37672 | 19.59954 | 88° | 100km/h | 11338m | 2.9m/s | -54.4°C | 71.8% | 228.5hPa | 2.7V | 00:00:00 | 00:00:00 | 00:00:00 | |
| ATIDSZ-14 | 2026-09-01 23:52:02 | 47.37671 | 19.59873 | 94° | 108km/h | 11328m | 5.7m/s | -54.3°C | 60.5% | 228.9hPa | 2.7V | 00:00:00 | 00:00:00 | 00:00:00 | |
| OM5KV | 2026-09-01 23:52:00 | 47.37677 | 19.59795 | 99° | 102km/h | 11320m | 4.8m/s | -54.2°C | 60.4% | 229.2hPa | 2.7V | 00:00:00 | 00:00:00 | 00:00:00 | |
| OM5KV | 2026-09-01 23:51:55 | 47.37680 | 19.59612 | 87° | 97km/h | 11291m | 8.0m/s | -54.0°C | 60.8% | 230.3hPa | 2.7V | 00:00:00 | 00:00:00 | 00:00:00 | |
| OM5KV | 2026-09-01 23:51:54 | 47.37679 | 19.59576 | 87° | 99km/h | 11285m | 5.7m/s | -53.9°C | 61.7% | 230.5hPa | 2.7V | 00:00:00 | 00:00:00 | 00:00:00 | |
| PETON7-10 | 2026-09-01 23:51:50 | 47.37675 | 19.59390 | 93° | 110km/h | 11257m | 5.7m/s | -53.6°C | 71.9% | 231.4hPa | 2.7V | 00:00:00 | 00:57:21 | 00:00:00 | |
| OM5KV | 2026-09-01 23:51:49 | 47.37675 | 19.59390 | 93° | 108km/h | 11257m | 5.7m/s | -53.7°C | 61.0% | 231.5hPa | 2.7V | 00:00:00 | 00:00:00 | 00:00:00 | |
| OM5KV | 2026-09-01 23:51:48 | 47.37676 | 19.59348 | 93° | 115km/h | 11250m | 8.4m/s | -53.6°C | 60.4% | 231.7hPa | 2.7V | 00:00:00 | 00:00:00 | 00:00:00 | |
| OM5KV | 2026-09-01 23:51:43 | 47.37677 | 19.59127 | 93° | 111km/h | 11215m | 6.8m/s | -53.3°C | 62.3% | 232.8hPa | 2.7V | 00:00:00 | 00:00:00 | 00:00:00 | |
| ATIDSZ-14 | 2026-09-01 23:51:42 | 47.37678 | 19.59087 | 93° | 102km/h | 11208m | 5.9m/s | -53.3°C | 62.3% | 233.1hPa | 2.7V | 00:00:00 | 00:00:00 | 00:00:00 | |
| OM5KV | 2026-09-01 23:51:37 | 47.37678 | 19.58905 | 88° | 110km/h | 11183m | 4.1m/s | -53.1°C | 63.5% | 234.1hPa | 2.7V | 00:00:00 | 00:00:00 | 00:00:00 | |
| OM5KV | 2026-09-01 23:51:36 | 47.37676 | 19.58864 | 86° | 115km/h | 11178m | 7.1m/s | -53.0°C | 62.8% | 234.3hPa | 2.7V | 00:00:00 | 00:00:00 | 00:00:00 | |
| PETON7-10 | 2026-09-01 23:51:35 | 47.37672 | 19.58775 | 87° | 110km/h | 11166m | 6.8m/s | -52.9°C | 75.0% | 234.7hPa | 2.7V | 00:00:00 | 00:00:00 | 08:30:00 | |
| OM5KV | 2026-09-01 23:51:32 | 47.37670 | 19.58691 | 90° | 106km/h | 11151m | 7.2m/s | -52.8°C | 65.0% | 235.2hPa | 2.7V | 00:00:00 | 00:00:00 | 00:00:00 | |
| OM5KV | 2026-09-01 23:51:30 | 47.37669 | 19.58617 | 91° | 95km/h | 11140m | 5.5m/s | -52.8°C | 65.3% | 235.6hPa | 2.7V | 00:00:00 | 00:00:00 | 00:00:00 | |
| OM5KV | 2026-09-01 23:51:26 | 47.37665 | 19.58471 | 90° | 110km/h | 11123m | 4.7m/s | -52.6°C | 67.7% | 236.3hPa | 2.7V | 00:00:00 | 00:00:00 | 00:00:00 | |
| OM5KV | 2026-09-01 23:51:23 | 47.37665 | 19.58341 | 94° | 119km/h | 11103m | 8.0m/s | -52.5°C | 67.3% | 237.0hPa | 2.7V | 00:00:00 | 00:00:00 | 00:00:00 | |
| OM5KV | 2026-09-01 23:51:21 | 47.37669 | 19.58254 | 95° | 117km/h | 11090m | 5.2m/s | -52.4°C | 67.9% | 237.5hPa | 2.7V | 00:00:00 | 00:00:00 | 00:00:00 | |
| PETON7-10 | 2026-09-01 23:51:20 | 47.37674 | 19.58171 | 94° | 111km/h | 11078m | 6.4m/s | -52.3°C | 78.7% | 237.8hPa | 2.7V | 00:00:00 | 00:00:00 | 00:00:00 | |
| OM5KV | 2026-09-01 23:51:17 | 47.37675 | 19.58091 | 91° | 106km/h | 11065m | 7.4m/s | -52.2°C | 65.6% | 238.3hPa | 2.7V | 00:00:00 | 00:00:00 | 00:00:00 | |
| OM5KV | 2026-09-01 23:51:16 | 47.37675 | 19.58052 | 91° | 104km/h | 11058m | 8.0m/s | -52.1°C | 65.4% | 238.5hPa | 2.7V | 00:00:00 | 00:00:00 | 00:00:00 | |
| OM5KV | 2026-09-01 23:51:12 | 47.37674 | 19.57897 | 89° | 102km/h | 11033m | 7.0m/s | -51.9°C | 63.5% | 239.4hPa | 2.7V | 00:00:00 | 00:00:00 | 00:00:00 | |
| OM5KV | 2026-09-01 23:51:10 | 47.37671 | 19.57819 | 87° | 110km/h | 11022m | 2.7m/s | -51.9°C | 63.5% | 239.9hPa | 2.7V | 00:00:00 | 00:00:00 | 00:00:00 | |
| OM5KV | 2026-09-01 23:51:06 | 47.37672 | 19.57640 | 95° | 130km/h | 11002m | 5.1m/s | -51.7°C | 59.4% | 240.5hPa | 2.7V | 00:00:00 | 00:00:00 | 00:00:00 | |
| PETON7-10 | 2026-09-01 23:51:05 | 47.37676 | 19.57548 | 94° | 113km/h | 10991m | 3.6m/s | -51.6°C | 69.2% | 240.9hPa | 2.7V | 00:00:00 | 00:56:36 | 00:00:00 | |
| OM5KV | 2026-09-01 23:51:01 | 47.37678 | 19.57423 | 91° | 108km/h | 10974m | 7.7m/s | -51.4°C | 56.3% | 241.5hPa | 2.7V | 00:00:00 | 00:00:00 | 00:00:00 | |
| ATIDSZ-14 | 2026-09-01 23:51:00 | 47.37678 | 19.57383 | 89° | 110km/h | 10966m | 7.2m/s | -51.4°C | 56.7% | 241.9hPa | 2.7V | 00:00:00 | 00:00:00 | 00:00:00 | |
| OM5KV | 2026-09-01 23:50:59 | 47.37677 | 19.57342 | 88° | 113km/h | 10960m | 6.1m/s | -51.3°C | 57.0% | 242.1hPa | 2.7V | 00:00:00 | 00:00:00 | 00:00:00 | |
| OM5KV | 2026-09-01 23:50:55 | 47.37667 | 19.57173 | 86° | 110km/h | 10940m | 3.7m/s | -51.2°C | 58.9% | 242.9hPa | 2.7V | 00:00:00 | 00:00:00 | 00:00:00 | |
| OM5KV | 2026-09-01 23:50:53 | 47.37663 | 19.57091 | 89° | 113km/h | 10930m | 5.9m/s | -51.2°C | 57.9% | 243.3hPa | 2.7V | 00:00:00 | 00:00:00 | 00:00:00 | |
| PETON7-10 | 2026-09-01 23:50:50 | 47.37663 | 19.56911 | 92° | 108km/h | 10904m | 6.8m/s | -50.9°C | 66.5% | 244.2hPa | 2.7V | 00:00:00 | 00:00:00 | 00:00:00 | |
| OM5KV | 2026-09-01 23:50:47 | 47.37662 | 19.56819 | 88° | 117km/h | 10891m | 4.6m/s | -50.8°C | 57.7% | 244.7hPa | 2.7V | 00:00:00 | 00:00:00 | 00:00:00 | |
| OM5KV | 2026-09-01 23:50:43 | 47.37652 | 19.56655 | 88° | 108km/h | 10868m | 5.4m/s | -50.6°C | 55.9% | 245.7hPa | 2.7V | 00:00:00 | 00:00:00 | 00:00:00 | |
| OM5KV | 2026-09-01 23:50:42 | 47.37651 | 19.56615 | 92° | 106km/h | 10864m | 2.6m/s | -50.6°C | 55.1% | 245.9hPa | 2.7V | 00:00:00 | 00:00:00 | 00:00:00 | |
| OM5KV | 2026-09-01 23:50:39 | 47.37659 | 19.56464 | 94° | 100km/h | 10846m | 2.5m/s | -50.4°C | 52.4% | 246.7hPa | 2.7V | 00:00:00 | 00:00:00 | 00:00:00 | |
| OM5KV | 2026-09-01 23:50:36 | 47.37661 | 19.56388 | 93° | 104km/h | 10834m | 7.5m/s | -50.2°C | 51.1% | 247.1hPa | 2.7V | 00:00:00 | 00:00:00 | 00:00:00 | |
| PETON7-10 | 2026-09-01 23:50:35 | 47.37662 | 19.56307 | 89° | 108km/h | 10821m | 7.9m/s | -50.1°C | 58.8% | 247.6hPa | 2.7V | 00:00:00 | 00:00:00 | 00:00:00 | |
| OM5KV | 2026-09-01 23:50:33 | 47.37660 | 19.56266 | 87° | 113km/h | 10813m | 7.9m/s | -50.0°C | 49.9% | 248.0hPa | 2.7V | 00:00:00 | 00:00:00 | 00:00:00 | |
| OM5KV | 2026-09-01 23:50:27 | 47.37643 | 19.56025 | 89° | 106km/h | 10773m | 5.5m/s | -49.7°C | 49.0% | 249.3hPa | 2.7V | 00:00:00 | 00:00:00 | 00:00:00 | |
| OM5KV | 2026-09-01 23:50:21 | 47.37646 | 19.55791 | 97° | 110km/h | 10737m | 6.6m/s | -49.4°C | 44.8% | 250.6hPa | 2.7V | 00:00:00 | 00:00:00 | 00:00:00 | |
| PETON7-10 | 2026-09-01 23:50:20 | 47.37651 | 19.55706 | 94° | 110km/h | 10728m | 3.3m/s | -49.2°C | 53.6% | 251.0hPa | 2.7V | 00:00:00 | 00:55:51 | 00:00:00 | |
| ATIDSZ-14 | 2026-09-01 23:50:18 | 47.37652 | 19.55663 | 92° | 115km/h | 10724m | 5.1m/s | -49.2°C | 45.8% | 251.2hPa | 2.7V | 00:00:00 | 00:00:00 | 00:00:00 | |
| OM5KV | 2026-09-01 23:50:15 | 47.37646 | 19.55540 | 82° | 106km/h | 10709m | 5.3m/s | -49.1°C | 44.2% | 251.7hPa | 2.7V | 00:00:00 | 00:00:00 | 00:00:00 | |
| OM5KV | 2026-09-01 23:50:12 | 47.37631 | 19.55423 | 80° | 110km/h | 10695m | 4.3m/s | -49.0°C | 44.3% | 252.3hPa | 2.7V | 00:00:00 | 00:00:00 | 00:00:00 | |
| PETON7-10 | 2026-09-01 23:50:05 | 47.37623 | 19.55096 | 90° | 113km/h | 10646m | 4.8m/s | -48.4°C | 49.1% | 254.2hPa | 2.7V | 00:00:00 | 00:00:00 | 00:00:00 | |
| OM5KV | 2026-09-01 23:50:04 | 47.37623 | 19.55096 | 90° | 108km/h | 10646m | 4.8m/s | -48.5°C | 41.7% | 254.2hPa | 2.7V | 00:00:00 | 00:00:00 | 00:00:00 | |
| ATIDSZ-14 | 2026-09-01 23:49:58 | 47.37611 | 19.54836 | 85° | 115km/h | 10616m | 4.0m/s | -48.2°C | 38.5% | 255.4hPa | 2.7V | 00:00:00 | 00:00:00 | 00:00:00 | |
| OM5KV | 2026-09-01 23:49:56 | 47.37604 | 19.54751 | 83° | 115km/h | 10603m | 8.6m/s | -48.1°C | 37.0% | 255.9hPa | 2.7V | 00:00:00 | 00:00:00 | 00:00:00 | |
| PETON7-10 | 2026-09-01 23:49:50 | 47.37577 | 19.54473 | 88° | 108km/h | 10553m | 6.5m/s | -47.6°C | 42.4% | 257.7hPa | 2.7V | 00:00:00 | 00:00:00 | 00:00:00 | |
| OE3JTB-15 | 2026-09-01 23:49:45 | 47.37557 | 19.54206 | 79° | 111km/h | 10511m | 4.7m/s | -47.2°C | 41.2% | 259.3hPa | 2.7V | 00:00:00 | 00:00:00 | 00:00:00 | |
| ATIDSZ-14 | 2026-09-01 23:49:38 | 47.37545 | 19.53997 | 90° | 111km/h | 10479m | 9.1m/s | -46.9°C | 33.9% | 260.6hPa | 2.7V | 00:00:00 | 00:00:00 | 00:00:00 | |
| PETON7-10 | 2026-09-01 23:49:35 | 47.37539 | 19.53878 | 83° | 115km/h | 10456m | 8.1m/s | -46.7°C | 40.7% | 261.5hPa | 2.7V | 00:00:00 | 00:55:06 | 00:00:00 | |
| OM5KV | 2026-09-01 23:49:32 | 47.37532 | 19.53801 | 84° | 104km/h | 10441m | 6.4m/s | -46.6°C | 36.0% | 262.1hPa | 2.7V | 00:00:00 | 00:00:00 | 00:00:00 | |
| OM5KV | 2026-09-01 23:49:31 | 47.37529 | 19.53762 | 84° | 108km/h | 10434m | 6.8m/s | -46.6°C | 36.1% | 262.3hPa | 2.7V | 00:00:00 | 00:00:00 | 00:00:00 | |
| OM5KV | 2026-09-01 23:49:27 | 47.37516 | 19.53592 | 84° | 115km/h | 10412m | 3.1m/s | -46.5°C | 38.0% | 263.3hPa | 2.7V | 00:00:00 | 00:00:00 | 00:00:00 | |
| OM5KV | 2026-09-01 23:49:25 | 47.37511 | 19.53506 | 86° | 119km/h | 10403m | 6.0m/s | -46.4°C | 36.9% | 263.5hPa | 2.7V | 00:00:00 | 00:00:00 | 00:00:00 | |
| OM5KV | 2026-09-01 23:49:21 | 47.37501 | 19.53327 | 85° | 122km/h | 10378m | 5.8m/s | -46.2°C | 37.1% | 264.6hPa | 2.7V | 00:00:00 | 00:00:00 | 00:00:00 | |
| PETON7-10 | 2026-09-01 23:49:20 | 47.37494 | 19.53239 | 84° | 100km/h | 10366m | 5.6m/s | -46.0°C | 45.3% | 265.1hPa | 2.7V | 00:00:00 | 00:00:00 | 08:30:00 | |
| OM5KV | 2026-09-01 23:49:19 | 47.37494 | 19.53239 | 84° | 113km/h | 10366m | 5.7m/s | -46.1°C | 38.9% | 265.2hPa | 2.7V | 00:00:00 | 00:00:00 | 00:00:00 | |
| ATIDSZ-14 | 2026-09-01 23:49:16 | 47.37485 | 19.53123 | 85° | 97km/h | 10347m | 5.9m/s | -45.9°C | 41.5% | 265.8hPa | 2.7V | 00:00:00 | 00:00:00 | 00:00:00 | |
| OM5KV | 2026-09-01 23:49:15 | 47.37482 | 19.53088 | 86° | 95km/h | 10341m | 6.4m/s | -45.9°C | 42.7% | 266.1hPa | 2.7V | 00:00:00 | 00:00:00 | 00:00:00 | |
| OM5KV | 2026-09-01 23:49:13 | 47.37479 | 19.53016 | 87° | 99km/h | 10329m | 7.2m/s | -45.8°C | 45.6% | 266.6hPa | 2.7V | 00:00:00 | 00:00:00 | 00:00:00 | |
| OM5KV | 2026-09-01 23:49:11 | 47.37472 | 19.52903 | 84° | 102km/h | 10306m | 7.9m/s | -45.7°C | 51.9% | 267.4hPa | 2.7V | 00:00:00 | 00:00:00 | 00:00:00 | |
| OM5KV | 2026-09-01 23:49:08 | 47.37463 | 19.52829 | 78° | 99km/h | 10292m | 7.1m/s | -45.8°C | 57.2% | 268.0hPa | 2.7V | 00:00:00 | 00:00:00 | 00:00:00 | |
| PETON7-10 | 2026-09-01 23:49:05 | 47.37445 | 19.52688 | 84° | 102km/h | 10273m | 5.9m/s | -45.6°C | 66.2% | 268.7hPa | 2.7V | 00:00:00 | 00:00:00 | 00:00:00 | |
| OM5KV | 2026-09-01 23:49:04 | 47.37445 | 19.52688 | 85° | 93km/h | 10273m | 5.9m/s | -45.7°C | 58.0% | 268.8hPa | 2.7V | 00:00:00 | 00:00:00 | 00:00:00 | |
| OM5KV | 2026-09-01 23:49:02 | 47.37440 | 19.52619 | 85° | 93km/h | 10257m | 7.8m/s | -45.5°C | 57.4% | 269.4hPa | 2.7V | 00:00:00 | 00:00:00 | 00:00:00 | |
| OM5KV | 2026-09-01 23:48:58 | 47.37427 | 19.52469 | 81° | 110km/h | 10230m | 6.3m/s | -45.3°C | 55.0% | 270.5hPa | 2.7V | 00:00:00 | 00:00:00 | 00:00:00 | |
| OM5KV | 2026-09-01 23:48:56 | 47.37416 | 19.52389 | 79° | 110km/h | 10218m | 5.4m/s | -45.2°C | 55.5% | 271.0hPa | 2.7V | 00:00:00 | 00:00:00 | 00:00:00 | |
| ATIDSZ-14 | 2026-09-01 23:48:55 | 47.37411 | 19.52349 | 80° | 106km/h | 10213m | 3.8m/s | -45.1°C | 55.7% | 271.2hPa | 2.7V | 00:00:00 | 00:00:00 | 00:00:00 | |
| OM5KV | 2026-09-01 23:48:52 | 47.37403 | 19.52236 | 90° | 99km/h | 10196m | 9.1m/s | -45.0°C | 53.2% | 271.9hPa | 2.7V | 00:00:00 | 00:00:00 | 00:00:00 | |
| OM5KV | 2026-09-01 23:48:51 | 47.37403 | 19.52199 | 92° | 99km/h | 10187m | 7.9m/s | -44.9°C | 53.0% | 272.2hPa | 2.7V | 00:00:00 | 00:00:00 | 00:00:00 | |
| PETON7-10 | 2026-09-01 23:48:50 | 47.37403 | 19.52126 | 89° | 106km/h | 10172m | 7.6m/s | -44.8°C | 60.0% | 272.8hPa | 2.7V | 00:00:00 | 00:54:21 | 00:00:00 | |
| OM5KV | 2026-09-01 23:48:46 | 47.37395 | 19.52012 | 83° | 110km/h | 10154m | 4.0m/s | -44.6°C | 52.0% | 273.7hPa | 2.7V | 00:00:00 | 00:00:00 | 00:00:00 | |
| OM5KV | 2026-09-01 23:48:45 | 47.37391 | 19.51971 | 83° | 111km/h | 10149m | 6.9m/s | -44.6°C | 52.3% | 273.9hPa | 2.7V | 00:00:00 | 00:00:00 | 00:00:00 | |
| OM5KV | 2026-09-01 23:48:40 | 47.37387 | 19.51770 | 93° | 102km/h | 10120m | 6.0m/s | -44.3°C | 52.4% | 275.0hPa | 2.7V | 00:00:00 | 00:00:00 | 00:00:00 | |
| PETON7-10 | 2026-09-01 23:48:35 | 47.37377 | 19.51533 | 86° | 99km/h | 10083m | 5.6m/s | -43.9°C | 58.0% | 276.6hPa | 2.7V | 00:00:00 | 00:00:00 | 00:00:00 | |
| OM5KV | 2026-09-01 23:48:34 | 47.37377 | 19.51533 | 87° | 115km/h | 10083m | 5.6m/s | -44.0°C | 50.9% | 276.6hPa | 2.7V | 00:00:00 | 00:00:00 | 00:00:00 | |
| OM5KV | 2026-09-01 23:48:29 | 47.37379 | 19.51336 | 90° | 95km/h | 10056m | 6.5m/s | -43.7°C | 49.9% | 277.7hPa | 2.7V | 00:00:00 | 00:00:00 | 00:00:00 | |
| OM5KV | 2026-09-01 23:48:23 | 47.37362 | 19.51131 | 84° | 104km/h | 10011m | 6.5m/s | -43.4°C | 49.8% | 279.5hPa | 2.7V | 00:00:00 | 00:00:00 | 00:00:00 | |
| PETON7-10 | 2026-09-01 23:48:19 | 47.37353 | 19.50949 | 85° | 99km/h | 9976m | 4.6m/s | -43.0°C | 54.8% | 280.8hPa | 2.7V | 00:00:00 | 00:00:00 | 00:00:00 | |
| OM5KV | 2026-09-01 23:48:18 | 47.37353 | 19.50949 | 86° | 84km/h | 9976m | 4.7m/s | -43.1°C | 48.2% | 280.9hPa | 2.7V | 00:00:00 | 00:00:00 | 00:00:00 | |
| OM5KV | 2026-09-01 23:48:17 | 47.37351 | 19.50918 | 85° | 84km/h | 9971m | 6.0m/s | -43.0°C | 48.2% | 281.1hPa | 2.7V | 00:00:00 | 00:00:00 | 00:00:00 | |
| ATIDSZ-14 | 2026-09-01 23:48:15 | 47.37342 | 19.50818 | 85° | 99km/h | 9955m | 6.3m/s | -42.9°C | 48.1% | 281.8hPa | 2.7V | 00:00:00 | 00:00:00 | 00:00:00 | |
| OM5KV | 2026-09-01 23:48:12 | 47.37338 | 19.50742 | 90° | 108km/h | 9943m | 6.6m/s | -42.7°C | 47.5% | 282.3hPa | 2.7V | 00:00:00 | 00:00:00 | 00:00:00 | |
| OM5KV | 2026-09-01 23:48:07 | 47.37344 | 19.50546 | 96° | 99km/h | 9918m | 7.0m/s | -42.5°C | 45.8% | 283.4hPa | 2.7V | 00:00:00 | 00:00:00 | 00:00:00 | |
| OM5KV | 2026-09-01 23:48:06 | 47.37347 | 19.50509 | 95° | 99km/h | 9911m | 8.0m/s | -42.4°C | 45.7% | 283.7hPa | 2.7V | 00:00:00 | 00:00:00 | 00:00:00 | |
| PETON7-10 | 2026-09-01 23:48:04 | 47.37350 | 19.50395 | 90° | 99km/h | 9890m | 6.7m/s | -42.2°C | 51.6% | 284.6hPa | 2.7V | 00:00:00 | 00:53:35 | 00:00:00 | |
| OM5KV | 2026-09-01 23:48:01 | 47.37347 | 19.50314 | 86° | 115km/h | 9879m | 6.0m/s | -42.1°C | 45.9% | 285.2hPa | 2.7V | 00:00:00 | 00:00:00 | 00:00:00 | |
| OM5KV | 2026-09-01 23:47:56 | 47.37338 | 19.50119 | 89° | 89km/h | 9854m | 8.1m/s | -41.9°C | 48.7% | 286.2hPa | 2.7V | 00:00:00 | 00:00:00 | 00:00:00 | |
| ATIDSZ-14 | 2026-09-01 23:47:55 | 47.37336 | 19.50053 | 87° | 88km/h | 9841m | 6.2m/s | -41.8°C | 50.0% | 286.8hPa | 2.7V | 00:00:00 | 00:00:00 | 00:00:00 | |
| OM5KV | 2026-09-01 23:47:50 | 47.37330 | 19.49915 | 85° | 95km/h | 9818m | 8.3m/s | -41.6°C | 47.5% | 287.7hPa | 2.7V | 00:00:00 | 00:00:00 | 00:00:00 | |
| PETON7-10 | 2026-09-01 23:47:49 | 47.37323 | 19.49844 | 79° | 102km/h | 9803m | 5.4m/s | -41.4°C | 53.7% | 288.3hPa | 2.7V | 00:00:00 | 00:00:00 | 00:00:00 | |
| OM5KV | 2026-09-01 23:47:44 | 47.37303 | 19.49706 | 86° | 91km/h | 9784m | 3.6m/s | -41.3°C | 48.1% | 289.1hPa | 2.7V | 00:00:00 | 00:00:00 | 00:00:00 | |
| OM5KV | 2026-09-01 23:47:38 | 47.37303 | 19.49471 | 88° | 111km/h | 9746m | 4.6m/s | -40.9°C | 46.8% | 290.8hPa | 2.7V | 00:00:00 | 00:00:00 | 00:00:00 | |
| PETON7-10 | 2026-09-01 23:47:34 | 47.37299 | 19.49277 | 95° | 104km/h | 9714m | 7.2m/s | -40.5°C | 50.8% | 292.0hPa | 2.7V | 00:00:00 | 00:00:00 | 00:00:00 | |
| OM5KV | 2026-09-01 23:47:33 | 47.37299 | 19.49277 | 95° | 100km/h | 9714m | 7.2m/s | -40.6°C | 45.0% | 292.1hPa | 2.7V | 00:00:00 | 00:00:00 | 00:00:00 | |
| ATIDSZ-14 | 2026-09-01 23:47:32 | 47.37301 | 19.49240 | 97° | 99km/h | 9707m | 7.2m/s | -40.5°C | 44.8% | 292.4hPa | 2.7V | 00:00:00 | 00:00:00 | 00:00:00 | |
| OE3JTB-15 | 2026-09-01 23:47:31 | 47.37300 | 19.49088 | 85° | 97km/h | 9679m | 8.9m/s | -40.2°C | 48.0% | 293.5hPa | 2.7V | 00:00:00 | 00:00:00 | 08:30:00 | |
| OM5KV | 2026-09-01 23:47:28 | 47.37298 | 19.49046 | 86° | 117km/h | 9672m | 5.6m/s | -40.2°C | 42.9% | 293.9hPa | 2.9V | 00:00:00 | 00:00:00 | 00:00:00 | |
| OM5KV | 2026-09-01 23:47:22 | 47.37290 | 19.48847 | 87° | 91km/h | 9644m | 8.0m/s | -39.9°C | 42.6% | 295.0hPa | 2.9V | 00:00:00 | 00:00:00 | 00:00:00 | |
| OM5KV | 2026-09-01 23:47:21 | 47.37288 | 19.48813 | 86° | 88km/h | 9636m | 7.7m/s | -39.8°C | 42.8% | 295.4hPa | 2.9V | 00:00:00 | 00:00:00 | 00:00:00 | |
| PETON7-10 | 2026-09-01 23:47:19 | 47.37284 | 19.48708 | 91° | 97km/h | 9614m | 6.7m/s | -39.6°C | 48.9% | 296.3hPa | 2.9V | 00:00:00 | 00:52:50 | 00:00:00 | |
| ATIDSZ-14 | 2026-09-01 23:47:13 | 47.37305 | 19.48391 | 101° | 95km/h | 9552m | 4.4m/s | -39.0°C | 42.6% | 299.0hPa | 2.9V | 00:00:00 | 00:00:00 | 00:00:00 | |
| OM5KV | 2026-09-01 23:47:12 | 47.37309 | 19.48356 | 101° | 95km/h | 9548m | 4.1m/s | -39.0°C | 42.9% | 299.1hPa | 2.9V | 00:00:00 | 00:00:00 | 00:00:00 | |
| OM5KV | 2026-09-01 23:47:02 | 47.37313 | 19.48136 | 86° | 93km/h | 9508m | 7.4m/s | -38.6°C | 40.4% | 300.9hPa | 2.9V | 00:00:00 | 00:00:00 | 00:00:00 | |
| OE3JTB-15 | 2026-09-01 23:47:00 | 47.37301 | 19.47967 | 85° | 104km/h | 9479m | 6.3m/s | -38.3°C | 47.1% | 302.1hPa | 2.9V | 00:00:00 | 00:00:00 | 00:00:00 | |
| PETON7-10 | 2026-09-01 23:46:58 | 47.37301 | 19.47967 | 85° | 110km/h | 9479m | 6.3m/s | -38.3°C | 47.1% | 302.1hPa | 2.9V | 00:00:00 | 00:00:00 | 08:30:00 | |
| OM5KV | 2026-09-01 23:46:56 | 47.37299 | 19.47927 | 88° | 111km/h | 9473m | 7.1m/s | -38.3°C | 43.0% | 302.5hPa | 2.9V | 00:00:00 | 00:00:00 | 00:00:00 | |
| OM5KV | 2026-09-01 23:46:52 | 47.37299 | 19.47762 | 95° | 108km/h | 9449m | 5.1m/s | -38.2°C | 44.7% | 303.6hPa | 2.9V | 00:00:00 | 00:00:00 | 00:00:00 | |
| OM5KV | 2026-09-01 23:46:51 | 47.37300 | 19.47721 | 96° | 108km/h | 9444m | 4.8m/s | -38.1°C | 44.6% | 303.8hPa | 2.9V | 00:00:00 | 00:00:00 | 00:00:00 | |
| ATIDSZ-14 | 2026-09-01 23:46:47 | 47.37303 | 19.47549 | 91° | 120km/h | 9417m | 5.6m/s | -38.0°C | 46.4% | 305.1hPa | 2.9V | 00:00:00 | 00:00:00 | 00:00:00 | |
| OM5KV | 2026-09-01 23:46:45 | 47.37302 | 19.47464 | 90° | 108km/h | 9407m | 5.7m/s | -37.9°C | 47.1% | 305.5hPa | 2.9V | 00:00:00 | 00:00:00 | 00:00:00 | |
| PETON7-10 | 2026-09-01 23:46:42 | 47.37301 | 19.47313 | 94° | 108km/h | 9376m | 8.0m/s | -37.6°C | 51.6% | 306.8hPa | 2.9V | 00:00:00 | 00:00:00 | 00:00:00 | |
| OM5KV | 2026-09-01 23:46:40 | 47.37304 | 19.47276 | 98° | 102km/h | 9368m | 6.8m/s | -37.6°C | 46.3% | 307.1hPa | 2.9V | 00:00:00 | 00:00:00 | 00:00:00 | |
| OM5KV | 2026-09-01 23:46:34 | 47.37327 | 19.47034 | 93° | 113km/h | 9343m | 5.6m/s | -37.5°C | 48.2% | 308.4hPa | 2.9V | 00:00:00 | 00:00:00 | 00:00:00 | |
| OM5KV | 2026-09-01 23:46:29 | 47.37324 | 19.46830 | 90° | 104km/h | 9309m | 7.7m/s | -37.3°C | 46.4% | 309.9hPa | 2.9V | 00:00:00 | 00:00:00 | 00:00:00 | |
| PETON7-10 | 2026-09-01 23:46:27 | 47.37323 | 19.46707 | 92° | 91km/h | 9288m | 6.0m/s | -37.1°C | 50.3% | 310.8hPa | 2.9V | 00:00:00 | 00:51:58 | 00:00:00 | |
| ATIDSZ-14 | 2026-09-01 23:46:26 | 47.37323 | 19.46708 | 92° | 115km/h | 9288m | 6.1m/s | -37.2°C | 45.2% | 310.8hPa | 2.9V | 00:00:00 | 00:00:00 | 00:00:00 | |
| OM5KV | 2026-09-01 23:46:23 | 47.37326 | 19.46586 | 93° | 102km/h | 9275m | 5.5m/s | -37.1°C | 45.8% | 311.5hPa | 2.9V | 00:00:00 | 00:00:00 | 00:00:00 | |
| OM5KV | 2026-09-01 23:46:17 | 47.37345 | 19.46394 | 103° | 91km/h | 9238m | 5.2m/s | -36.8°C | 42.0% | 313.1hPa | 2.9V | 00:00:00 | 00:00:00 | 00:00:00 | |
| OM5KV | 2026-09-01 23:46:12 | 47.37365 | 19.46199 | 98° | 108km/h | 9210m | 7.0m/s | -36.5°C | 40.1% | 314.2hPa | 2.9V | 00:00:00 | 00:00:00 | 00:00:00 | |
| OM5KV | 2026-09-01 23:46:11 | 47.37369 | 19.46162 | 99° | 99km/h | 9203m | 6.1m/s | -36.5°C | 40.1% | 314.5hPa | 2.9V | 00:00:00 | 00:00:00 | 00:00:00 | |
| ATIDSZ-14 | 2026-09-01 23:46:06 | 47.37366 | 19.46014 | 82° | 77km/h | 9169m | 6.2m/s | -36.2°C | 39.2% | 316.0hPa | 2.9V | 00:00:00 | 00:00:00 | 00:00:00 | |
| PETON7-10 | 2026-09-01 23:46:04 | 47.37361 | 19.45914 | 89° | 89km/h | 9155m | 6.7m/s | -36.0°C | 43.8% | 316.6hPa | 2.9V | 00:00:00 | 00:00:00 | 00:00:00 | |
| OM5KV | 2026-09-01 23:46:00 | 47.37365 | 19.45803 | 98° | 97km/h | 9131m | 7.0m/s | -36.0°C | 41.1% | 317.8hPa | 2.7V | 00:00:00 | 00:00:00 | 00:00:00 | |
| OM5KV | 2026-09-01 23:45:59 | 47.37369 | 19.45770 | 100° | 86km/h | 9125m | 5.2m/s | -36.0°C | 42.0% | 318.2hPa | 2.7V | 00:00:00 | 00:00:00 | 00:00:00 | |
| OM5KV | 2026-09-01 23:45:55 | 47.37380 | 19.45654 | 96° | 73km/h | 9104m | 3.9m/s | -35.9°C | 43.4% | 319.1hPa | 2.7V | 00:00:00 | 00:00:00 | 00:00:00 | |
| OM5KV | 2026-09-01 23:45:53 | 47.37381 | 19.45596 | 91° | 86km/h | 9093m | 5.6m/s | -35.8°C | 43.7% | 319.7hPa | 2.7V | 00:00:00 | 00:00:00 | 00:00:00 | |
| PETON7-10 | 2026-09-01 23:45:49 | 47.37370 | 19.45423 | 82° | 82km/h | 9061m | 5.5m/s | -35.4°C | 47.4% | 321.0hPa | 2.7V | 00:00:00 | 00:00:00 | 00:00:00 | |
| OM5KV | 2026-09-01 23:45:47 | 47.37367 | 19.45391 | 86° | 80km/h | 9056m | 4.6m/s | -35.4°C | 42.8% | 321.3hPa | 2.7V | 00:00:00 | 00:00:00 | 00:00:00 | |
| ATIDSZ-14 | 2026-09-01 23:45:45 | 47.37369 | 19.45333 | 98° | 78km/h | 9045m | 6.5m/s | -35.3°C | 41.3% | 321.7hPa | 2.7V | 00:00:00 | 00:00:00 | 00:00:00 | |
| OM5KV | 2026-09-01 23:45:43 | 47.37376 | 19.45276 | 102° | 78km/h | 9030m | 7.8m/s | -35.2°C | 40.5% | 322.3hPa | 2.7V | 00:00:00 | 00:00:00 | 00:00:00 | |
| OM5KV | 2026-09-01 23:45:42 | 47.37380 | 19.45246 | 101° | 82km/h | 9024m | 5.6m/s | -35.2°C | 40.6% | 322.7hPa | 2.7V | 00:00:00 | 00:00:00 | 00:00:00 | |
| OE3JTB-15 | 2026-09-01 23:45:41 | 47.37386 | 19.45183 | 95° | 86km/h | 9011m | 5.5m/s | -35.0°C | 44.7% | 323.3hPa | 2.7V | 00:00:00 | 00:51:12 | 00:00:00 | |
| OM5KV | 2026-09-01 23:45:38 | 47.37388 | 19.45118 | 92° | 84km/h | 8997m | 8.8m/s | -34.9°C | 38.7% | 323.9hPa | 2.7V | 00:00:00 | 00:00:00 | 00:00:00 | |
| OM5KV | 2026-09-01 23:45:37 | 47.37387 | 19.45058 | 86° | 80km/h | 8981m | 4.5m/s | -34.8°C | 39.0% | 324.7hPa | 2.7V | 00:00:00 | 00:00:00 | 00:00:00 | |
| PETON7-10 | 2026-09-01 23:45:34 | 47.37382 | 19.44970 | 85° | 93km/h | 8968m | 4.5m/s | -34.6°C | 43.3% | 325.3hPa | 2.7V | 00:00:00 | 00:51:05 | 00:00:00 | |
| OM5KV | 2026-09-01 23:45:32 | 47.37380 | 19.44940 | 86° | 84km/h | 8963m | 7.6m/s | -34.6°C | 38.9% | 325.6hPa | 2.7V | 00:00:00 | 00:00:00 | 00:00:00 | |
| OM5KV | 2026-09-01 23:45:29 | 47.37374 | 19.44840 | 89° | 97km/h | 8945m | 5.3m/s | -34.5°C | 40.4% | 326.6hPa | 2.7V | 00:00:00 | 00:00:00 | 00:00:00 | |
| ATIDSZ-14 | 2026-09-01 23:45:25 | 47.37382 | 19.44699 | 103° | 86km/h | 8922m | 4.8m/s | -34.4°C | 42.5% | 327.7hPa | 2.7V | 00:00:00 | 00:00:00 | 00:00:00 | |
| OM5KV | 2026-09-01 23:45:21 | 47.37399 | 19.44574 | 96° | 91km/h | 8905m | 5.2m/s | -34.3°C | 44.3% | 328.5hPa | 2.7V | 00:00:00 | 00:00:00 | 00:00:00 | |
| PETON7-10 | 2026-09-01 23:45:18 | 47.37396 | 19.44427 | 87° | 89km/h | 8878m | 6.0m/s | -34.0°C | 48.4% | 329.7hPa | 2.7V | 00:00:00 | 00:00:00 | 00:00:00 | |
| OM5KV | 2026-09-01 23:45:16 | 47.37395 | 19.44350 | 93° | 99km/h | 8863m | 7.9m/s | -33.9°C | 44.0% | 330.4hPa | 2.9V | 00:00:00 | 00:00:00 | 00:00:00 | |
| ATIDSZ-14 | 2026-09-01 23:45:06 | 47.37416 | 19.44033 | 93° | 80km/h | 8797m | 9.1m/s | -33.4°C | 44.1% | 333.3hPa | 2.9V | 00:00:00 | 00:00:00 | 00:00:00 | |
| OM5KV | 2026-09-01 23:44:55 | 47.37405 | 19.43702 | 89° | 97km/h | 8746m | 6.5m/s | -33.1°C | 45.7% | 335.8hPa | 2.9V | 00:00:00 | 00:00:00 | 00:00:00 | |
| OM5KV | 2026-09-01 23:44:51 | 47.37395 | 19.43540 | 83° | 88km/h | 8712m | 6.6m/s | -32.8°C | 44.1% | 337.3hPa | 2.9V | 00:00:00 | 00:00:00 | 00:00:00 | |
| OM5KV | 2026-09-01 23:44:48 | 47.37392 | 19.43473 | 92° | 93km/h | 8702m | 5.2m/s | -32.7°C | 44.1% | 337.9hPa | 2.9V | 00:00:00 | 00:00:00 | 00:00:00 | |
| PETON7-10 | 2026-09-01 23:44:46 | 47.37400 | 19.43365 | 100° | 86km/h | 8683m | 5.3m/s | -32.5°C | 48.7% | 338.8hPa | 2.9V | 00:00:00 | 00:50:17 | 00:00:00 | |
| OM5KV | 2026-09-01 23:44:45 | 47.37404 | 19.43329 | 99° | 97km/h | 8679m | 4.3m/s | -32.5°C | 44.6% | 339.1hPa | 2.9V | 00:00:00 | 00:00:00 | 00:00:00 | |
| OM5KV | 2026-09-01 23:44:42 | 47.37409 | 19.43258 | 94° | 95km/h | 8669m | 5.9m/s | -32.5°C | 43.8% | 339.5hPa | 2.9V | 00:00:00 | 00:00:00 | 00:00:00 | |
| OM5KV | 2026-09-01 23:44:38 | 47.37409 | 19.43109 | 91° | 104km/h | 8648m | 4.9m/s | -32.3°C | 43.9% | 340.5hPa | 2.9V | 00:00:00 | 00:00:00 | 00:00:00 | |
| OM5KV | 2026-09-01 23:44:36 | 47.37411 | 19.43033 | 94° | 97km/h | 8639m | 6.2m/s | -32.3°C | 44.9% | 341.0hPa | 2.9V | 00:00:00 | 00:00:00 | 00:00:00 | |
| OM5KV | 2026-09-01 23:44:34 | 47.37419 | 19.42935 | 103° | 78km/h | 8619m | 8.1m/s | -32.2°C | 45.1% | 341.9hPa | 2.9V | 00:00:00 | 00:00:00 | 00:00:00 | |
| OM5KV | 2026-09-01 23:44:31 | 47.37428 | 19.42882 | 103° | 69km/h | 8605m | 6.1m/s | -32.1°C | 46.8% | 342.6hPa | 2.9V | 00:00:00 | 00:00:00 | 00:00:00 | |
| PETON7-10 | 2026-09-01 23:44:30 | 47.37433 | 19.42826 | 95° | 89km/h | 8594m | 4.3m/s | -32.0°C | 53.1% | 343.1hPa | 2.9V | 00:00:00 | 00:00:00 | 08:30:00 | |
| OM5KV | 2026-09-01 23:44:27 | 47.37434 | 19.42760 | 89° | 95km/h | 8585m | 6.1m/s | -31.9°C | 47.9% | 343.6hPa | 2.7V | 00:00:00 | 00:00:00 | 00:00:00 | |
| OM5KV | 2026-09-01 23:44:25 | 47.37430 | 19.42690 | 87° | 95km/h | 8570m | 6.9m/s | -31.8°C | 48.4% | 344.3hPa | 2.7V | 00:00:00 | 00:00:00 | 00:00:00 | |
| OM5KV | 2026-09-01 23:44:22 | 47.37432 | 19.42595 | 97° | 78km/h | 8555m | 6.6m/s | -31.7°C | 47.6% | 345.1hPa | 2.7V | 00:00:00 | 00:00:00 | 00:00:00 | |
| OM5KV | 2026-09-01 23:44:20 | 47.37437 | 19.42519 | 95° | 66km/h | 8533m | 6.7m/s | -31.5°C | 48.2% | 346.1hPa | 2.7V | 00:00:00 | 00:00:00 | 00:00:00 | |
| OM5KV | 2026-09-01 23:44:14 | 47.37452 | 19.42319 | 100° | 104km/h | 8497m | 4.7m/s | -31.2°C | 47.5% | 347.9hPa | 2.7V | 00:00:00 | 00:00:00 | 00:00:00 | |
| OM5KV | 2026-09-01 23:44:08 | 47.37469 | 19.42129 | 97° | 71km/h | 8460m | 7.4m/s | -30.8°C | 47.1% | 349.8hPa | 2.7V | 00:00:00 | 00:00:00 | 00:00:00 | |
| ATIDSZ-14 | 2026-09-01 23:44:05 | 47.37474 | 19.42075 | 99° | 75km/h | 8449m | 4.1m/s | -30.7°C | 48.4% | 350.4hPa | 2.7V | 00:00:00 | 00:00:00 | 00:00:00 | |
| PETON7-10 | 2026-09-01 23:44:02 | 47.37478 | 19.41962 | 92° | 80km/h | 8424m | 6.2m/s | -30.5°C | 51.5% | 351.5hPa | 2.7V | 00:00:00 | 00:00:00 | 00:00:00 | |
| PETON7-10 | 2026-09-01 23:43:47 | 47.37497 | 19.41525 | 88° | 78km/h | 8330m | 6.0m/s | -29.8°C | 50.7% | 356.1hPa | 2.7V | 00:00:00 | 00:49:18 | 00:00:00 | |
| ATIDSZ-14 | 2026-09-01 23:43:45 | 47.37498 | 19.41499 | 97° | 75km/h | 8325m | 4.7m/s | -29.8°C | 47.1% | 356.4hPa | 2.7V | 00:00:00 | 00:00:00 | 00:00:00 | |
| OM5KV | 2026-09-01 23:43:42 | 47.37511 | 19.41407 | 107° | 93km/h | 8306m | 7.2m/s | -29.6°C | 44.9% | 357.3hPa | 2.7V | 00:00:00 | 00:00:00 | 00:00:00 | |
| OM5KV | 2026-09-01 23:43:27 | 47.37560 | 19.40993 | 90° | 69km/h | 8211m | 7.1m/s | -28.9°C | 42.8% | 362.0hPa | 2.7V | 00:00:00 | 00:00:00 | 00:00:00 | |
| ATIDSZ-14 | 2026-09-01 23:43:21 | 47.37578 | 19.40810 | 108° | 88km/h | 8178m | 6.1m/s | -28.7°C | 47.9% | 363.7hPa | 2.7V | 00:00:00 | 00:00:00 | 00:00:00 | |
| OE3JTB-15 | 2026-09-01 23:43:15 | 47.37605 | 19.40596 | 93° | 71km/h | 8129m | 8.0m/s | -28.4°C | 49.1% | 366.0hPa | 2.7V | 00:00:00 | 00:00:00 | 00:00:00 | |
| PETON7-10 | 2026-09-01 23:43:11 | 47.37605 | 19.40488 | 88° | 71km/h | 8104m | 5.1m/s | -28.2°C | 49.8% | 367.5hPa | 2.9V | 00:00:00 | 00:00:00 | 00:00:00 | |
| OM5KV | 2026-09-01 23:43:00 | 47.37623 | 19.40217 | 98° | 62km/h | 8037m | 5.1m/s | -27.8°C | 50.2% | 370.9hPa | 2.9V | 00:00:00 | 00:00:00 | 00:00:00 | |
| ATIDSZ-14 | 2026-09-01 23:42:58 | 47.37627 | 19.40146 | 92° | 66km/h | 8022m | 6.9m/s | -27.7°C | 50.3% | 371.6hPa | 2.9V | 00:00:00 | 00:00:00 | 00:00:00 | |
| PETON7-10 | 2026-09-01 23:42:56 | 47.37624 | 19.40096 | 84° | 77km/h | 8008m | 7.1m/s | 0°C | 0% | 0hPa | 2.9V | 00:00:00 | 00:00:00 | 00:00:00 | |
| OM5KV | 2026-09-01 23:42:54 | 47.37622 | 19.40069 | 86° | 78km/h | 8002m | 5.2m/s | -27.7°C | 52.0% | 372.8hPa | 2.9V | 00:00:00 | 00:00:00 | 00:00:00 | |
| OM5KV | 2026-09-01 23:42:43 | 47.37636 | 19.39764 | 86° | 89km/h | 7928m | 8.9m/s | -27.3°C | 50.5% | 376.5hPa | 2.9V | 00:00:00 | 00:00:00 | 00:00:00 | |
| OE3JTB-15 | 2026-09-01 23:42:42 | 47.37630 | 19.39699 | 82° | 77km/h | 7917m | 5.2m/s | -27.1°C | 53.7% | 377.2hPa | 2.9V | 00:00:00 | 00:00:00 | 00:00:00 | |
| PETON7-10 | 2026-09-01 23:42:41 | 47.37627 | 19.39669 | 84° | 78km/h | 7913m | 3.3m/s | 0°C | 0% | 0hPa | 2.9V | 00:00:00 | 00:48:12 | 00:00:00 | |
| OM5KV | 2026-09-01 23:42:37 | 47.37628 | 19.39570 | 100° | 60km/h | 7884m | 8.6m/s | -26.9°C | 45.0% | 378.9hPa | 2.9V | 00:00:00 | 00:00:00 | 00:00:00 | |
| ATIDSZ-14 | 2026-09-01 23:42:36 | 47.37628 | 19.39570 | 100° | 60km/h | 7884m | 8.6m/s | -26.9°C | 45.0% | 378.9hPa | 2.9V | 00:00:00 | 00:00:00 | 00:00:00 | |
| OM5KV | 2026-09-01 23:42:30 | 47.37642 | 19.39404 | 93° | 89km/h | 7848m | 7.9m/s | -26.5°C | 36.7% | 380.8hPa | 2.9V | 00:00:00 | 00:00:00 | 00:00:00 | |
| PETON7-10 | 2026-09-01 23:42:26 | 47.37648 | 19.39234 | 91° | 71km/h | 7822m | 7.9m/s | 0°C | 0% | 0hPa | 2.9V | 00:00:00 | 00:00:00 | 00:00:00 | |
| OM5KV | 2026-09-01 23:42:25 | 47.37648 | 19.39234 | 91° | 88km/h | 7822m | 7.9m/s | -26.3°C | 31.9% | 382.1hPa | 2.9V | 00:00:00 | 00:00:00 | 00:00:00 | |
| OM5KV | 2026-09-01 23:42:24 | 47.37647 | 19.39202 | 88° | 84km/h | 7814m | 7.1m/s | -26.3°C | 30.8% | 382.6hPa | 2.9V | 00:00:00 | 00:00:00 | 00:00:00 | |
| OM5KV | 2026-09-01 23:42:20 | 47.37633 | 19.39068 | 78° | 73km/h | 7780m | 5.6m/s | -26.0°C | 26.5% | 384.3hPa | 2.9V | 00:00:00 | 00:00:00 | 00:00:00 | |
| ATIDSZ-14 | 2026-09-01 23:42:16 | 47.37627 | 19.38964 | 95° | 66km/h | 7757m | 8.7m/s | -25.7°C | 26.2% | 385.6hPa | 2.9V | 00:00:00 | 00:00:00 | 00:00:00 | |
| OM5KV | 2026-09-01 23:42:14 | 47.37630 | 19.38940 | 107° | 66km/h | 7750m | 6.5m/s | -25.7°C | 25.8% | 386.0hPa | 2.9V | 00:00:00 | 00:00:00 | 00:00:00 | |
| OM5KV | 2026-09-01 23:42:13 | 47.37635 | 19.38917 | 111° | 66km/h | 7743m | 7.4m/s | -25.6°C | 25.2% | 386.3hPa | 2.9V | 00:00:00 | 00:00:00 | 00:00:00 | |
| OE3JTB-15 | 2026-09-01 23:42:12 | 47.37647 | 19.38871 | 109° | 71km/h | 7731m | 4.3m/s | -25.4°C | 27.3% | 387.0hPa | 2.9V | 00:00:00 | 00:47:43 | 00:00:00 | |
| PETON7-10 | 2026-09-01 23:42:11 | 47.37651 | 19.38850 | 105° | 73km/h | 7727m | 3.9m/s | 0°C | 0% | 0hPa | 2.9V | 00:00:00 | 00:00:00 | 00:00:00 | |
| OM5KV | 2026-09-01 23:42:09 | 47.37654 | 19.38829 | 101° | 58km/h | 7722m | 5.5m/s | -25.4°C | 25.3% | 387.6hPa | 2.9V | 00:00:00 | 00:00:00 | 00:00:00 | |
| OM5KV | 2026-09-01 23:42:07 | 47.37656 | 19.38784 | 91° | 60km/h | 7711m | 6.1m/s | -25.3°C | 25.4% | 388.2hPa | 2.9V | 00:00:00 | 00:00:00 | 00:00:00 | |
| OM5KV | 2026-09-01 23:42:01 | 47.37650 | 19.38624 | 96° | 86km/h | 7669m | 7.4m/s | -24.9°C | 27.9% | 390.2hPa | 2.9V | 00:00:00 | 00:00:00 | 00:00:00 | |
| OM5KV | 2026-09-01 23:41:59 | 47.37658 | 19.38561 | 106° | 86km/h | 7654m | 7.0m/s | -24.8°C | 26.7% | 390.9hPa | 2.9V | 00:00:00 | 00:00:00 | 00:00:00 | |
| PETON7-10 | 2026-09-01 23:41:56 | 47.37680 | 19.38455 | 101° | 69km/h | 7632m | 6.6m/s | 0°C | 0% | 0hPa | 2.9V | 00:00:00 | 00:47:27 | 00:00:00 | |
| ATIDSZ-14 | 2026-09-01 23:41:55 | 47.37682 | 19.38433 | 97° | 58km/h | 7625m | 8.2m/s | -24.6°C | 25.4% | 392.7hPa | 2.9V | 00:00:00 | 00:00:00 | 00:00:00 | |
| OM5KV | 2026-09-01 23:41:54 | 47.37683 | 19.38412 | 91° | 60km/h | 7618m | 6.2m/s | -24.6°C | 25.4% | 393.0hPa | 2.9V | 00:00:00 | 00:00:00 | 00:00:00 | |
| OM5KV | 2026-09-01 23:41:49 | 47.37683 | 19.38306 | 93° | 82km/h | 7596m | 5.6m/s | -24.4°C | 25.4% | 394.2hPa | 2.9V | 00:00:00 | 00:00:00 | 00:00:00 | |
| OM5KV | 2026-09-01 23:41:48 | 47.37685 | 19.38244 | 94° | 88km/h | 7588m | 4.3m/s | -24.3°C | 25.5% | 394.6hPa | 2.9V | 00:00:00 | 00:00:00 | 00:00:00 | |
| OE3JTB-15 | 2026-09-01 23:41:43 | 47.37699 | 19.38108 | 110° | 68km/h | 7562m | 8.8m/s | -24.0°C | 26.6% | 396.0hPa | 2.9V | 00:00:00 | 00:00:00 | 00:00:00 | |
| OM5KV | 2026-09-01 23:41:41 | 47.37704 | 19.38089 | 112° | 55km/h | 7556m | 5.0m/s | -24.0°C | 24.6% | 396.5hPa | 0V | 00:00:00 | 00:00:00 | 00:00:00 | |
| PETON7-10 | 2026-09-01 23:41:40 | 47.37711 | 19.38050 | 100° | 66km/h | 7547m | 3.9m/s | 0°C | 0% | 0hPa | 0V | 00:00:00 | 00:00:00 | 00:00:00 | |
| OM5KV | 2026-09-01 23:41:37 | 47.37714 | 19.38004 | 96° | 68km/h | 7536m | 7.7m/s | -23.8°C | 22.1% | 397.6hPa | 0V | 00:00:00 | 00:00:00 | 00:00:00 | |
| OM5KV | 2026-09-01 23:41:36 | 47.37716 | 19.37978 | 95° | 75km/h | 7528m | 8.6m/s | -23.7°C | 20.8% | 398.1hPa | 0V | 00:00:00 | 00:00:00 | 00:00:00 | |
| ATIDSZ-14 | 2026-09-01 23:41:34 | 47.37718 | 19.37919 | 93° | 82km/h | 7512m | 8.3m/s | -23.6°C | 18.5% | 398.9hPa | 0V | 00:00:00 | 00:00:00 | 00:00:00 | |
| OM5KV | 2026-09-01 23:41:32 | 47.37717 | 19.37861 | 87° | 77km/h | 7498m | 5.7m/s | -23.5°C | 18.1% | 399.5hPa | 0V | 00:00:00 | 00:00:00 | 00:00:00 | |
| OM5KV | 2026-09-01 23:41:27 | 47.37706 | 19.37727 | 83° | 71km/h | 7469m | 5.4m/s | -23.2°C | 18.8% | 401.2hPa | 0V | 00:00:00 | 00:00:00 | 00:00:00 | |
| OM5KV | 2026-09-01 23:41:26 | 47.37701 | 19.37674 | 83° | 73km/h | 7455m | 8.0m/s | -23.1°C | 17.3% | 401.9hPa | 0V | 00:00:00 | 00:00:00 | 00:00:00 | |
| OM5KV | 2026-09-01 23:41:21 | 47.37704 | 19.37568 | 103° | 66km/h | 7425m | 9.3m/s | -22.9°C | 22.6% | 403.5hPa | 0V | 00:00:00 | 00:00:00 | 00:00:00 | |
| OE3JTB-15 | 2026-09-01 23:41:14 | 47.37732 | 19.37397 | 104° | 66km/h | 7377m | 5.5m/s | 0°C | 0% | 0hPa | 0V | 00:00:00 | 00:00:00 | 00:00:00 | |
| ATIDSZ-14 | 2026-09-01 23:41:13 | 47.37732 | 19.37397 | 104° | 57km/h | 7377m | 5.5m/s | -22.5°C | 19.2% | 406.3hPa | 0V | 00:00:00 | 00:00:00 | 00:00:00 | |
| OM5KV | 2026-09-01 23:41:11 | 47.37742 | 19.37332 | 105° | 62km/h | 7360m | 6.8m/s | -22.3°C | 16.7% | 407.1hPa | 0V | 00:00:00 | 00:00:00 | 00:00:00 | |
| OM5KV | 2026-09-01 23:41:04 | 47.37764 | 19.37176 | 96° | 78km/h | 7323m | 6.0m/s | -22.0°C | 11.1% | 409.4hPa | 0V | 00:00:00 | 00:00:00 | 00:00:00 | |
| OM5KV | 2026-09-01 23:41:03 | 47.37765 | 19.37149 | 91° | 69km/h | 7318m | 4.2m/s | -22.0°C | 11.3% | 409.6hPa | 0V | 00:00:00 | 00:00:00 | 00:00:00 | |
| OM5KV | 2026-09-01 23:40:58 | 47.37754 | 19.37015 | 88° | 78km/h | 7287m | 5.6m/s | -21.7°C | 11.4% | 411.4hPa | 0V | 00:00:00 | 00:00:00 | 00:00:00 | |
| OM5KV | 2026-09-01 23:40:57 | 47.37754 | 19.36986 | 95° | 77km/h | 7282m | 5.1m/s | -21.6°C | 11.6% | 411.7hPa | 0V | 00:00:00 | 00:00:00 | 00:00:00 | |
| ATIDSZ-14 | 2026-09-01 23:40:54 | 47.37770 | 19.36880 | 111° | 68km/h | 7256m | 7.7m/s | -21.4°C | 11.3% | 412.9hPa | 0V | 00:00:00 | 00:00:00 | 00:00:00 | |
| OM5KV | 2026-09-01 23:40:47 | 47.37779 | 19.36754 | 81° | 58km/h | 7216m | 5.8m/s | -21.0°C | 9.6% | 415.3hPa | 0V | 00:00:00 | 00:00:00 | 00:00:00 | |
| OM5KV | 2026-09-01 23:40:46 | 47.37776 | 19.36732 | 76° | 62km/h | 7210m | 8.2m/s | -21.0°C | 9.2% | 415.7hPa | 0V | 00:00:00 | 00:00:00 | 00:00:00 | |
| OE3JTB-15 | 2026-09-01 23:40:45 | 47.37769 | 19.36685 | 83° | 64km/h | 7198m | 4.0m/s | 0°C | 0% | 0hPa | 0V | 00:00:00 | 00:46:16 | 00:00:00 | |
| OM5KV | 2026-09-01 23:40:41 | 47.37766 | 19.36606 | 92° | 75km/h | 7183m | 7.1m/s | -20.7°C | 7.7% | 417.2hPa | 0V | 00:00:00 | 00:00:00 | 00:00:00 | |
| OM5KV | 2026-09-01 23:40:35 | 47.37766 | 19.36443 | 83° | 55km/h | 7143m | 7.1m/s | -20.4°C | 7.3% | 419.4hPa | 0V | 00:00:00 | 00:00:00 | 00:00:00 | |
| ATIDSZ-14 | 2026-09-01 23:40:33 | 47.37760 | 19.36386 | 88° | 51km/h | 7123m | 4.9m/s | -20.3°C | 7.0% | 420.5hPa | 0V | 00:00:00 | 00:00:00 | 00:00:00 | |
| OM5KV | 2026-09-01 23:40:24 | 47.37781 | 19.36215 | 106° | 68km/h | 7072m | 5.1m/s | -20.0°C | 6.6% | 423.3hPa | 0V | 00:00:00 | 00:00:00 | 00:00:00 | |
| OM5KV | 2026-09-01 23:40:19 | 47.37791 | 19.36081 | 93° | 55km/h | 7035m | 5.5m/s | -20.5°C | 22.4% | 425.5hPa | 0V | 00:00:00 | 00:00:00 | 00:00:00 | |
| OM5KV | 2026-09-01 23:40:17 | 47.37791 | 19.36038 | 89° | 60km/h | 7027m | 5.0m/s | -20.4°C | 23.6% | 426.0hPa | 0V | 00:00:00 | 00:00:00 | 00:00:00 | |
| OE3JTB-15 | 2026-09-01 23:40:16 | 47.37790 | 19.36015 | 90° | 75km/h | 7023m | 4.3m/s | 0°C | 0% | 0hPa | 0V | 00:00:00 | 00:00:00 | 00:00:00 | |
| ATIDSZ-14 | 2026-09-01 23:40:12 | 47.37790 | 19.35953 | 93° | 53km/h | 6999m | 9.0m/s | -20.5°C | 28.8% | 427.5hPa | 0V | 00:00:00 | 00:00:00 | 00:00:00 | |
| OM5KV | 2026-09-01 23:40:11 | 47.37791 | 19.35933 | 99° | 57km/h | 6991m | 8.8m/s | -20.5°C | 30.2% | 428.0hPa | 0V | 00:00:00 | 00:00:00 | 00:00:00 | |
| OM5KV | 2026-09-01 23:40:05 | 47.37807 | 19.35768 | 94° | 82km/h | 6950m | 4.6m/s | -20.4°C | 43.9% | 430.5hPa | 0V | 00:00:00 | 00:00:00 | 00:00:00 | |
| OM5KV | 2026-09-01 23:40:03 | 47.37809 | 19.35708 | 95° | 78km/h | 6942m | 4.7m/s | -20.5°C | 50.3% | 431.1hPa | 0V | 00:00:00 | 00:00:00 | 00:00:00 | |
| OM5KV | 2026-09-01 23:39:52 | 47.37808 | 19.35403 | 89° | 73km/h | 6868m | 5.6m/s | -20.0°C | 58.7% | 435.2hPa | 0V | 00:00:00 | 00:00:00 | 00:00:00 | |
| ATIDSZ-14 | 2026-09-01 23:39:51 | 47.37808 | 19.35403 | 89° | 73km/h | 6868m | 5.6m/s | -20.0°C | 58.7% | 435.2hPa | 0V | 00:00:00 | 00:00:00 | 00:00:00 | |
| OM5KV | 2026-09-01 23:39:49 | 47.37814 | 19.35326 | 107° | 66km/h | 6851m | 6.7m/s | -19.9°C | 60.2% | 436.1hPa | 0V | 00:00:00 | 00:00:00 | 00:00:00 | |
| OM5KV | 2026-09-01 23:39:40 | 47.37832 | 19.35129 | 82° | 69km/h | 6802m | 7.0m/s | -19.5°C | 41.3% | 439.0hPa | 0V | 00:00:00 | 00:00:00 | 00:00:00 | |
| OM5KV | 2026-09-01 23:39:37 | 47.37823 | 19.35051 | 82° | 71km/h | 6788m | 5.2m/s | -19.3°C | 35.6% | 439.9hPa | 0V | 00:00:00 | 00:00:00 | 00:00:00 | |
| OM5KV | 2026-09-01 23:39:35 | 47.37819 | 19.34996 | 88° | 77km/h | 6777m | 4.8m/s | -19.2°C | 39.0% | 440.6hPa | 0V | 00:00:00 | 00:00:00 | 00:00:00 | |
| OM5KV | 2026-09-01 23:39:32 | 47.37828 | 19.34879 | 105° | 77km/h | 6753m | 6.4m/s | -19.1°C | 44.4% | 441.9hPa | 0V | 00:00:00 | 00:00:00 | 00:00:00 | |
| ATIDSZ-14 | 2026-09-01 23:39:30 | 47.37832 | 19.34852 | 107° | 73km/h | 6746m | 8.1m/s | -19.0°C | 44.8% | 442.3hPa | 0V | 00:00:00 | 00:00:00 | 00:00:00 | |
| OM5KV | 2026-09-01 23:39:29 | 47.37838 | 19.34827 | 107° | 66km/h | 6738m | 6.2m/s | -19.0°C | 45.8% | 442.7hPa | 0V | 00:00:00 | 00:00:00 | 00:00:00 | |
| OM5KV | 2026-09-01 23:39:25 | 47.37843 | 19.34745 | 90° | 49km/h | 6713m | 6.9m/s | -18.8°C | 48.2% | 444.2hPa | 0V | 00:00:00 | 00:00:00 | 00:00:00 | |
| OM5KV | 2026-09-01 23:39:23 | 47.37844 | 19.34709 | 96° | 49km/h | 6701m | 4.8m/s | -18.7°C | 49.6% | 445.0hPa | 0V | 00:00:00 | 00:00:00 | 00:00:00 | |
| OM5KV | 2026-09-01 23:39:20 | 47.37851 | 19.34650 | 103° | 55km/h | 6685m | 6.5m/s | -18.6°C | 48.5% | 445.9hPa | 0V | 00:00:00 | 00:00:00 | 00:00:00 | |
| OM5KV | 2026-09-01 23:39:18 | 47.37856 | 19.34612 | 100° | 47km/h | 6673m | 6.6m/s | -18.5°C | 48.8% | 446.7hPa | 0V | 00:00:00 | 00:00:00 | 00:00:00 | |
| OM5KV | 2026-09-01 23:39:14 | 47.37857 | 19.34540 | 87° | 51km/h | 6653m | 7.5m/s | -18.3°C | 50.1% | 447.8hPa | 0V | 00:00:00 | 00:00:00 | 00:00:00 | |
| OM5KV | 2026-09-01 23:39:13 | 47.37856 | 19.34520 | 94° | 55km/h | 6645m | 8.0m/s | -18.2°C | 50.9% | 448.3hPa | 0V | 00:00:00 | 00:00:00 | 00:00:00 | |
| OM5KV | 2026-09-01 23:39:10 | 47.37871 | 19.34427 | 111° | 71km/h | 6619m | 6.9m/s | -18.0°C | 51.4% | 449.9hPa | 0V | 00:00:00 | 00:00:00 | 00:00:00 | |
| ATIDSZ-14 | 2026-09-01 23:39:09 | 47.37877 | 19.34403 | 110° | 69km/h | 6612m | 6.3m/s | -18.0°C | 51.8% | 450.2hPa | 0V | 00:00:00 | 00:00:00 | 00:00:00 | |
| OM5KV | 2026-09-01 23:39:08 | 47.37881 | 19.34379 | 103° | 64km/h | 6607m | 3.7m/s | -18.0°C | 52.5% | 450.6hPa | 0V | 00:00:00 | 00:00:00 | 00:00:00 | |
| OM5KV | 2026-09-01 23:39:03 | 47.37878 | 19.34280 | 80° | 73km/h | 6584m | 6.2m/s | -17.8°C | 52.6% | 452.1hPa | 0V | 00:00:00 | 00:00:00 | 00:00:00 | |
| OM5KV | 2026-09-01 23:39:01 | 47.37873 | 19.34224 | 88° | 73km/h | 6574m | 2.5m/s | -17.8°C | 54.4% | 452.6hPa | 0V | 00:00:00 | 00:00:00 | 00:00:00 | |
| OM5KV | 2026-09-01 23:38:58 | 47.37877 | 19.34128 | 100° | 55km/h | 6549m | 7.7m/s | -17.7°C | 54.6% | 454.2hPa | 0V | 00:00:00 | 00:00:00 | 00:00:00 | |
| OM5KV | 2026-09-01 23:38:55 | 47.37880 | 19.34091 | 95° | 49km/h | 6535m | 6.9m/s | -17.6°C | 52.4% | 455.0hPa | 0V | 00:00:00 | 00:00:00 | 00:00:00 | |
| OM5KV | 2026-09-01 23:38:52 | 47.37880 | 19.34035 | 89° | 51km/h | 6518m | 6.2m/s | -17.5°C | 48.2% | 455.9hPa | 0V | 00:00:00 | 00:00:00 | 00:00:00 | |
| OM5KV | 2026-09-01 23:38:50 | 47.37880 | 19.33996 | 95° | 53km/h | 6507m | 5.4m/s | -17.5°C | 51.5% | 456.7hPa | 0V | 00:00:00 | 00:00:00 | 00:00:00 | |
| ATIDSZ-14 | 2026-09-01 23:38:48 | 47.37884 | 19.33953 | 101° | 64km/h | 6496m | 5.9m/s | -17.5°C | 53.1% | 457.3hPa | 0V | 00:00:00 | 00:00:00 | 00:00:00 | |
| OM5KV | 2026-09-01 23:38:46 | 47.37893 | 19.33899 | 106° | 80km/h | 6483m | 7.7m/s | -17.4°C | 54.6% | 458.0hPa | 0V | 00:00:00 | 00:00:00 | 00:00:00 | |
| OM5KV | 2026-09-01 23:38:45 | 47.37906 | 19.33840 | 108° | 84km/h | 6469m | 5.3m/s | -17.3°C | 56.7% | 459.0hPa | 0V | 00:00:00 | 00:00:00 | 00:00:00 | |
| OM5KV | 2026-09-01 23:38:40 | 47.37920 | 19.33731 | 96° | 64km/h | 6452m | 7.1m/s | -17.1°C | 58.4% | 460.0hPa | 0V | 00:00:00 | 00:00:00 | 00:00:00 | |
| OM5KV | 2026-09-01 23:38:38 | 47.37920 | 19.33683 | 86° | 64km/h | 6435m | 9.2m/s | -17.0°C | 57.9% | 461.0hPa | 0V | 00:00:00 | 00:00:00 | 00:00:00 | |
| OM5KV | 2026-09-01 23:38:34 | 47.37917 | 19.33584 | 93° | 75km/h | 6411m | 5.4m/s | -16.9°C | 57.5% | 462.5hPa | 0V | 00:00:00 | 00:00:00 | 00:00:00 | |
| OM5KV | 2026-09-01 23:38:32 | 47.37920 | 19.33528 | 100° | 77km/h | 6401m | 5.5m/s | -17.0°C | 59.0% | 463.2hPa | 0V | 00:00:00 | 00:00:00 | 00:00:00 | |
| OM5KV | 2026-09-01 23:38:28 | 47.37941 | 19.33425 | 112° | 69km/h | 6383m | 4.2m/s | -16.8°C | 57.9% | 464.4hPa | 0V | 00:00:00 | 00:00:00 | 00:00:00 | |
| ATIDSZ-14 | 2026-09-01 23:38:27 | 47.37947 | 19.33402 | 113° | 69km/h | 6379m | 5.9m/s | -16.8°C | 57.5% | 464.7hPa | 0V | 00:00:00 | 00:00:00 | 00:00:00 | |
| OM5KV | 2026-09-01 23:38:22 | 47.37967 | 19.33273 | 92° | 68km/h | 6349m | 5.4m/s | -16.7°C | 58.4% | 466.5hPa | 0V | 00:00:00 | 00:00:00 | 00:00:00 | |
| OM5KV | 2026-09-01 23:38:16 | 47.37972 | 19.33097 | 100° | 84km/h | 6308m | 4.4m/s | -16.4°C | 52.4% | 469.0hPa | 0V | 00:00:00 | 00:00:00 | 00:00:00 | |
| OM5KV | 2026-09-01 23:38:15 | 47.37976 | 19.33066 | 101° | 86km/h | 6302m | 5.5m/s | -16.4°C | 51.5% | 469.3hPa | 0V | 00:00:00 | 00:00:00 | 00:00:00 | |
| OM5KV | 2026-09-01 23:38:09 | 47.37998 | 19.32908 | 92° | 58km/h | 6265m | 8.8m/s | -16.0°C | 43.1% | 471.7hPa | 0V | 00:00:00 | 00:00:00 | 00:00:00 | |
| ATIDSZ-14 | 2026-09-01 23:38:06 | 47.37995 | 19.32813 | 94° | 75km/h | 6243m | 4.9m/s | -15.8°C | 40.2% | 473.1hPa | 0V | 00:00:00 | 00:00:00 | 00:00:00 | |
| OM5KV | 2026-09-01 23:38:03 | 47.37999 | 19.32756 | 103° | 80km/h | 6230m | 6.3m/s | -15.7°C | 39.3% | 474.0hPa | 0V | 00:00:00 | 00:00:00 | 00:00:00 | |
| OM5KV | 2026-09-01 23:38:01 | 47.38020 | 19.32673 | 117° | 75km/h | 6211m | 5.8m/s | -15.5°C | 38.7% | 475.0hPa | 0V | 00:00:00 | 00:00:00 | 00:00:00 | |
| OM5KV | 2026-09-01 23:37:58 | 47.38036 | 19.32627 | 118° | 62km/h | 6202m | 5.2m/s | -15.5°C | 36.8% | 475.6hPa | 0V | 00:00:00 | 00:00:00 | 00:00:00 | |
| OM5KV | 2026-09-01 23:37:55 | 47.38048 | 19.32567 | 96° | 57km/h | 6185m | 5.8m/s | -15.3°C | 34.6% | 476.6hPa | 0V | 00:00:00 | 00:00:00 | 00:00:00 | |
| OM5KV | 2026-09-01 23:37:51 | 47.38047 | 19.32476 | 92° | 71km/h | 6163m | 3.6m/s | -15.1°C | 31.4% | 477.9hPa | 0V | 00:00:00 | 00:00:00 | 00:00:00 | |
| OM5KV | 2026-09-01 23:37:49 | 47.38050 | 19.32420 | 100° | 77km/h | 6155m | 3.7m/s | -15.1°C | 29.6% | 478.5hPa | 0V | 00:00:00 | 00:00:00 | 00:00:00 | |
| ATIDSZ-14 | 2026-09-01 23:37:45 | 47.38080 | 19.32302 | 124° | 58km/h | 6126m | 6.2m/s | -14.9°C | 17.1% | 480.4hPa | 0V | 00:00:00 | 00:00:00 | 00:00:00 | |
| OM5KV | 2026-09-01 23:37:43 | 47.38087 | 19.32283 | 121° | 58km/h | 6120m | 5.8m/s | -14.8°C | 17.2% | 480.8hPa | 0V | 00:00:00 | 00:00:00 | 00:00:00 | |
| OM5KV | 2026-09-01 23:37:39 | 47.38116 | 19.32200 | 116° | 71km/h | 6101m | 6.9m/s | -14.7°C | 17.2% | 481.9hPa | 0V | 00:00:00 | 00:00:00 | 00:00:00 | |
| OM5KV | 2026-09-01 23:37:37 | 47.38132 | 19.32149 | 114° | 75km/h | 6089m | 4.9m/s | -14.7°C | 17.4% | 482.7hPa | 0V | 00:00:00 | 00:00:00 | 00:00:00 | |
| OM5KV | 2026-09-01 23:37:34 | 47.38152 | 19.32076 | 111° | 64km/h | 6076m | 4.3m/s | -14.6°C | 17.8% | 483.5hPa | 0V | 00:00:00 | 00:00:00 | 00:00:00 | |
| OM5KV | 2026-09-01 23:37:30 | 47.38162 | 19.31997 | 97° | 47km/h | 6054m | 6.4m/s | -14.5°C | 17.7% | 485.0hPa | 0V | 00:00:00 | 00:00:00 | 00:00:00 | |
| OM5KV | 2026-09-01 23:37:28 | 47.38165 | 19.31960 | 96° | 55km/h | 6044m | 3.9m/s | -14.4°C | 18.0% | 485.6hPa | 0V | 00:00:00 | 00:00:00 | 00:00:00 | |
| ATIDSZ-14 | 2026-09-01 23:37:24 | 47.38176 | 19.31864 | 105° | 71km/h | 6022m | 3.4m/s | -14.3°C | 0% | 0hPa | 0V | 00:00:00 | 00:00:00 | 00:00:00 | |
| OM5KV | 2026-09-01 23:37:23 | 47.38180 | 19.31838 | 105° | 71km/h | 6019m | 4.0m/s | -14.3°C | 18.1% | 487.3hPa | 0V | 00:00:00 | 00:00:00 | 00:00:00 | |
| OM5KV | 2026-09-01 23:37:19 | 47.38191 | 19.31739 | 96° | 66km/h | 5996m | 8.1m/s | -14.1°C | 18.2% | 488.8hPa | 0V | 00:00:00 | 00:00:00 | 00:00:00 | |
| OM5KV | 2026-09-01 23:37:17 | 47.38196 | 19.31690 | 104° | 69km/h | 5979m | 7.0m/s | -14.0°C | 18.3% | 489.8hPa | 0V | 00:00:00 | 00:00:00 | 00:00:00 | |
| OM5KV | 2026-09-01 23:37:14 | 47.38214 | 19.31625 | 116° | 55km/h | 5962m | 8.9m/s | -13.9°C | 18.0% | 490.9hPa | 0V | 00:00:00 | 00:00:00 | 00:00:00 | |
| OM5KV | 2026-09-01 23:37:10 | 47.38227 | 19.31556 | 101° | 51km/h | 5939m | 5.0m/s | -13.7°C | 17.7% | 492.5hPa | 0V | 00:00:00 | 00:00:00 | 00:00:00 | |
| OM5KV | 2026-09-01 23:37:08 | 47.38233 | 19.31514 | 104° | 64km/h | 5928m | 5.8m/s | -13.6°C | 17.2% | 493.4hPa | 0V | 00:00:00 | 00:00:00 | 00:00:00 | |
| OM5KV | 2026-09-01 23:37:05 | 47.38249 | 19.31434 | 113° | 78km/h | 5912m | 5.1m/s | -13.5°C | 16.6% | 494.2hPa | 0V | 00:00:00 | 00:00:00 | 00:00:00 | |
| ATIDSZ-14 | 2026-09-01 23:37:03 | 47.38262 | 19.31384 | 109° | 66km/h | 5902m | 4.0m/s | -13.4°C | 0% | 0hPa | 0V | 00:00:00 | 00:00:00 | 00:00:00 | |
| OM5KV | 2026-09-01 23:36:57 | 47.38273 | 19.31256 | 101° | 69km/h | 5866m | 3.8m/s | -13.2°C | 15.9% | 497.2hPa | 0V | 00:00:00 | 00:00:00 | 00:00:00 | |
| OM5KV | 2026-09-01 23:36:54 | 47.38290 | 19.31179 | 115° | 73km/h | 5850m | 5.5m/s | -13.0°C | 15.4% | 498.1hPa | 0V | 00:00:00 | 00:00:00 | 00:00:00 | |
| OM5KV | 2026-09-01 23:36:51 | 47.38311 | 19.31114 | 116° | 55km/h | 5834m | 5.5m/s | -12.9°C | 15.5% | 499.2hPa | 0V | 00:00:00 | 00:00:00 | 00:00:00 | |
| OM5KV | 2026-09-01 23:36:46 | 47.38328 | 19.31014 | 99° | 68km/h | 5806m | 5.0m/s | -12.7°C | 15.6% | 501.1hPa | 0V | 00:00:00 | 00:00:00 | 00:00:00 | |
| ATIDSZ-14 | 2026-09-01 23:36:42 | 47.38333 | 19.30910 | 91° | 64km/h | 5783m | 5.9m/s | -12.5°C | 0% | 0hPa | 0V | 00:00:00 | 00:00:00 | 00:00:00 | |
| OM5KV | 2026-09-01 23:36:41 | 47.38332 | 19.30864 | 90° | 60km/h | 5773m | 5.7m/s | -12.4°C | 15.5% | 503.2hPa | 0V | 00:00:00 | 00:00:00 | 00:00:00 | |
| OM5KV | 2026-09-01 23:36:38 | 47.38331 | 19.30819 | 90° | 57km/h | 5758m | 7.5m/s | -12.3°C | 15.5% | 504.1hPa | 0V | 00:00:00 | 00:00:00 | 00:00:00 | |
| OM5KV | 2026-09-01 23:36:35 | 47.38346 | 19.30741 | 119° | 57km/h | 5737m | 4.9m/s | -12.3°C | 15.6% | 505.6hPa | 0V | 00:00:00 | 00:00:00 | 00:00:00 | |
| OM5KV | 2026-09-01 23:36:29 | 47.38366 | 19.30619 | 97° | 49km/h | 5702m | 7.2m/s | -12.1°C | 14.6% | 507.9hPa | 0V | 00:00:00 | 00:00:00 | 00:00:00 | |
| OM5KV | 2026-09-01 23:36:22 | 47.38391 | 19.30511 | 113° | 49km/h | 5673m | 5.0m/s | -11.9°C | 16.1% | 509.9hPa | 0V | 00:00:00 | 00:00:00 | 00:00:00 | |
| ATIDSZ-14 | 2026-09-01 23:36:21 | 47.38395 | 19.30495 | 109° | 42km/h | 5668m | 4.1m/s | -11.9°C | 0% | 0hPa | 0V | 00:00:00 | 00:00:00 | 00:00:00 | |
| OM5KV | 2026-09-01 23:36:17 | 47.38407 | 19.30429 | 110° | 58km/h | 5650m | 4.2m/s | -11.8°C | 16.4% | 511.4hPa | 0V | 00:00:00 | 00:00:00 | 00:00:00 | |
| OM5KV | 2026-09-01 23:36:14 | 47.38424 | 19.30361 | 112° | 71km/h | 5629m | 7.8m/s | -11.6°C | 16.3% | 512.8hPa | 0V | 00:00:00 | 00:00:00 | 00:00:00 | |
| OM5KV | 2026-09-01 23:36:12 | 47.38437 | 19.30314 | 115° | 64km/h | 5617m | 3.9m/s | -11.5°C | 16.7% | 513.6hPa | 0V | 00:00:00 | 00:00:00 | 00:00:00 | |
| OM5KV | 2026-09-01 23:36:08 | 47.38464 | 19.30238 | 119° | 53km/h | 5599m | 5.3m/s | -11.3°C | 17.0% | 514.9hPa | 0V | 00:00:00 | 00:00:00 | 00:00:00 | |
| OM5KV | 2026-09-01 23:36:06 | 47.38477 | 19.30203 | 119° | 53km/h | 5589m | 4.8m/s | -11.3°C | 17.1% | 515.5hPa | 0V | 00:00:00 | 00:00:00 | 00:00:00 | |
| OM5KV | 2026-09-01 23:36:03 | 47.38497 | 19.30146 | 115° | 64km/h | 5574m | 4.6m/s | -11.2°C | 17.4% | 516.4hPa | 0V | 00:00:00 | 00:00:00 | 00:00:00 | |
| ATIDSZ-14 | 2026-09-01 23:36:01 | 47.38509 | 19.30096 | 107° | 75km/h | 5564m | 3.2m/s | -11.1°C | 0% | 0hPa | 0V | 00:00:00 | 00:00:00 | 00:00:00 | |
| OM5KV | 2026-09-01 23:36:00 | 47.38514 | 19.30069 | 105° | 75km/h | 5560m | 4.0m/s | -11.1°C | 17.6% | 517.3hPa | 0V | 00:00:00 | 00:00:00 | 00:00:00 | |
| OM5KV | 2026-09-01 23:35:57 | 47.38527 | 19.29996 | 105° | 55km/h | 5542m | 6.1m/s | -11.0°C | 18.1% | 518.6hPa | 0V | 00:00:00 | 00:00:00 | 00:00:00 | |
| OM5KV | 2026-09-01 23:35:55 | 47.38532 | 19.29960 | 98° | 44km/h | 5530m | 6.5m/s | -10.9°C | 18.8% | 519.4hPa | 0V | 00:00:00 | 00:00:00 | 00:00:00 | |
| OM5KV | 2026-09-01 23:35:52 | 47.38533 | 19.29912 | 90° | 44km/h | 5515m | 3.3m/s | -10.9°C | 19.0% | 520.4hPa | 0V | 00:00:00 | 00:00:00 | 00:00:00 | |
| OM5KV | 2026-09-01 23:35:47 | 47.38533 | 19.29830 | 107° | 47km/h | 5490m | 4.3m/s | -10.7°C | 17.8% | 522.0hPa | 0V | 00:00:00 | 00:00:00 | 00:00:00 | |
| OM5KV | 2026-09-01 23:35:41 | 47.38560 | 19.29716 | 105° | 46km/h | 5457m | 7.9m/s | -10.5°C | 15.1% | 524.2hPa | 0V | 00:00:00 | 00:00:00 | 00:00:00 | |
| ATIDSZ-14 | 2026-09-01 23:35:40 | 47.38562 | 19.29701 | 99° | 40km/h | 5451m | 4.0m/s | -10.5°C | 0% | 0hPa | 0V | 00:00:00 | 00:00:00 | 00:00:00 | |
| OM5KV | 2026-09-01 23:35:36 | 47.38574 | 19.29612 | 109° | 66km/h | 5421m | 7.1m/s | -10.2°C | 14.5% | 526.7hPa | 0V | 00:00:00 | 00:00:00 | 00:00:00 | |
| OM5KV | 2026-09-01 23:35:29 | 47.38610 | 19.29445 | 108° | 68km/h | 5385m | 3.8m/s | -9.9°C | 13.6% | 529.3hPa | 0V | 00:00:00 | 00:00:00 | 00:00:00 | |
| OM5KV | 2026-09-01 23:35:24 | 47.38629 | 19.29349 | 107° | 66km/h | 5365m | 6.6m/s | -9.8°C | 12.7% | 530.6hPa | 0V | 00:00:00 | 00:00:00 | 00:00:00 | |
| OM5KV | 2026-09-01 23:35:22 | 47.38639 | 19.29304 | 113° | 60km/h | 5353m | 4.9m/s | -9.7°C | 12.9% | 531.5hPa | 0V | 00:00:00 | 00:00:00 | 00:00:00 | |
| ATIDSZ-14 | 2026-09-01 23:35:20 | 47.38650 | 19.29264 | 112° | 53km/h | 5344m | 4.1m/s | 0°C | 0% | 0hPa | 0V | 00:00:00 | 00:00:00 | 00:00:00 | |
| OM5KV | 2026-09-01 23:35:18 | 47.38657 | 19.29226 | 101° | 57km/h | 5335m | 5.8m/s | -9.7°C | 14.6% | 532.8hPa | 0V | 00:00:00 | 00:00:00 | 00:00:00 | |
| OM5KV | 2026-09-01 23:35:16 | 47.38662 | 19.29180 | 98° | 66km/h | 5323m | 6.1m/s | -9.7°C | 15.4% | 533.6hPa | 0V | 00:00:00 | 00:00:00 | 00:00:00 | |
| OM5KV | 2026-09-01 23:35:12 | 47.38672 | 19.29087 | 99° | 57km/h | 5303m | 4.6m/s | -9.8°C | 17.3% | 535.0hPa | 0V | 00:00:00 | 00:00:00 | 00:00:00 | |
| OM5KV | 2026-09-01 23:35:04 | 47.38696 | 19.28901 | 113° | 51km/h | 5257m | 5.3m/s | -9.6°C | 15.4% | 538.2hPa | 0V | 00:00:00 | 00:00:00 | 00:00:00 | |
| OM5KV | 2026-09-01 23:34:59 | 47.38706 | 19.28818 | 101° | 47km/h | 5227m | 3.9m/s | -9.5°C | 14.7% | 540.3hPa | 0V | 00:00:00 | 00:00:00 | 00:00:00 | |
| OM5KV | 2026-09-01 23:34:57 | 47.38710 | 19.28786 | 106° | 40km/h | 5214m | 8.6m/s | -9.4°C | 14.6% | 541.2hPa | 0V | 00:00:00 | 00:00:00 | 00:00:00 | |
| OM5KV | 2026-09-01 23:34:53 | 47.38724 | 19.28726 | 106° | 47km/h | 5187m | 4.1m/s | -9.3°C | 14.9% | 543.1hPa | 0V | 00:00:00 | 00:00:00 | 00:00:00 | |
| OM5KV | 2026-09-01 23:34:51 | 47.38730 | 19.28687 | 105° | 58km/h | 5179m | 4.7m/s | -9.2°C | 15.0% | 543.6hPa | 0V | 00:00:00 | 00:00:00 | 00:00:00 | |
| OM5KV | 2026-09-01 23:34:44 | 47.38762 | 19.28522 | 112° | 60km/h | 5142m | 4.2m/s | -9.4°C | 22.9% | 546.2hPa | 0V | 00:00:00 | 00:00:00 | 00:00:00 | |
| ATIDSZ-14 | 2026-09-01 23:34:43 | 47.38767 | 19.28502 | 116° | 58km/h | 5138m | 5.0m/s | 0°C | 0% | 0hPa | 0V | 00:00:00 | 00:00:00 | 00:00:00 | |
| OM5KV | 2026-09-01 23:34:42 | 47.38774 | 19.28484 | 121° | 53km/h | 5132m | 5.8m/s | -9.4°C | 23.2% | 546.9hPa | 0V | 00:00:00 | 00:00:00 | 00:00:00 | |
| OM5KV | 2026-09-01 23:34:38 | 47.38796 | 19.28417 | 108° | 55km/h | 5109m | 5.9m/s | -9.2°C | 23.1% | 548.6hPa | 0V | 00:00:00 | 00:00:00 | 00:00:00 | |
| OM5KV | 2026-09-01 23:34:36 | 47.38804 | 19.28374 | 105° | 62km/h | 5096m | 7.4m/s | -9.1°C | 22.2% | 549.5hPa | 0V | 00:00:00 | 00:00:00 | 00:00:00 | |
| OM5KV | 2026-09-01 23:34:32 | 47.38818 | 19.28284 | 103° | 60km/h | 5076m | 4.9m/s | -9.0°C | 22.3% | 551.0hPa | 0V | 00:00:00 | 00:00:00 | 00:00:00 | |
| OM5KV | 2026-09-01 23:34:31 | 47.38821 | 19.28263 | 107° | 53km/h | 5072m | 4.2m/s | -9.0°C | 22.1% | 551.3hPa | 0V | 00:00:00 | 00:00:00 | 00:00:00 | |
| OM5KV | 2026-09-01 23:34:21 | 47.38862 | 19.28084 | 96° | 66km/h | 5022m | 4.5m/s | -8.8°C | 24.7% | 554.9hPa | 0V | 00:00:00 | 00:00:00 | 00:00:00 | |
| OM5KV | 2026-09-01 23:34:15 | 47.38868 | 19.27945 | 91° | 58km/h | 4989m | 5.2m/s | -8.6°C | 26.6% | 557.3hPa | 0V | 00:00:00 | 00:00:00 | 00:00:00 | |
| OM5KV | 2026-09-01 23:34:09 | 47.38886 | 19.27813 | 119° | 53km/h | 4953m | 8.0m/s | -8.3°C | 26.5% | 559.7hPa | 0V | 00:00:00 | 00:00:00 | 00:00:00 | |
| OM5KV | 2026-09-01 23:34:03 | 47.38902 | 19.27722 | 88° | 47km/h | 4915m | 6.3m/s | -8.0°C | 26.1% | 562.4hPa | 0V | 00:00:00 | 00:00:00 | 00:00:00 | |
| OM5KV | 2026-09-01 23:34:00 | 47.38909 | 19.27640 | 108° | 62km/h | 4895m | 3.7m/s | -7.9°C | 26.3% | 563.9hPa | 0V | 00:00:00 | 00:00:00 | 00:00:00 | |
| OM5KV | 2026-09-01 23:33:57 | 47.38921 | 19.27597 | 116° | 60km/h | 4887m | 3.9m/s | -7.8°C | 26.8% | 564.4hPa | 0V | 00:00:00 | 00:00:00 | 00:00:00 | |
| OM5KV | 2026-09-01 23:33:43 | 47.38958 | 19.27288 | 115° | 49km/h | 4806m | 5.1m/s | -7.2°C | 26.1% | 570.5hPa | 0V | 00:00:00 | 00:00:00 | 00:00:00 | |
| OM5KV | 2026-09-01 23:33:39 | 47.38969 | 19.27244 | 101° | 42km/h | 4793m | 4.0m/s | -7.2°C | 25.7% | 571.5hPa | 0V | 00:00:00 | 00:00:00 | 00:00:00 | |
| OM5KV | 2026-09-01 23:33:38 | 47.38972 | 19.27208 | 96° | 53km/h | 4783m | 5.9m/s | -7.1°C | 25.8% | 572.2hPa | 0V | 00:00:00 | 00:00:00 | 00:00:00 | |
| OM5KV | 2026-09-01 23:33:33 | 47.38978 | 19.27121 | 93° | 57km/h | 4756m | 6.9m/s | -7.0°C | 25.6% | 574.1hPa | 0V | 00:00:00 | 00:00:00 | 00:00:00 | |
| OM5KV | 2026-09-01 23:33:32 | 47.38978 | 19.27100 | 88° | 57km/h | 4750m | 6.4m/s | -6.9°C | 25.5% | 574.5hPa | 0V | 00:00:00 | 00:00:00 | 00:00:00 | |
| OM5KV | 2026-09-01 23:33:27 | 47.38980 | 19.26967 | 104° | 57km/h | 4723m | 4.3m/s | -6.8°C | 26.6% | 576.5hPa | 0V | 00:00:00 | 00:00:00 | 00:00:00 | |
| OM5KV | 2026-09-01 23:33:20 | 47.38996 | 19.26873 | 104° | 46km/h | 4694m | 6.6m/s | -6.6°C | 28.2% | 578.5hPa | 0V | 00:00:00 | 00:00:00 | 00:00:00 | |
| OM5KV | 2026-09-01 23:33:15 | 47.39015 | 19.26764 | 101° | 68km/h | 4661m | 5.4m/s | -6.4°C | 29.4% | 581.0hPa | 0V | 00:00:00 | 00:00:00 | 00:00:00 | |
| ATIDSZ-14 | 2026-09-01 23:33:11 | 47.39030 | 19.26665 | 106° | 60km/h | 4640m | 3.0m/s | 0°C | 0% | 0hPa | 0V | 00:00:00 | 00:00:00 | 00:00:00 | |
| OM5KV | 2026-09-01 23:33:10 | 47.39035 | 19.26625 | 94° | 53km/h | 4630m | 6.8m/s | -6.2°C | 29.4% | 583.4hPa | 0V | 00:00:00 | 00:00:00 | 00:00:00 | |
| OM5KV | 2026-09-01 23:33:08 | 47.39035 | 19.26606 | 87° | 53km/h | 4624m | 6.0m/s | -6.2°C | 29.3% | 583.6hPa | 0V | 00:00:00 | 00:00:00 | 00:00:00 | |
| OM5KV | 2026-09-01 23:33:03 | 47.39023 | 19.26508 | 83° | 53km/h | 4595m | 4.2m/s | -5.9°C | 28.4% | 585.9hPa | 0V | 00:00:00 | 00:00:00 | 00:00:00 | |
| OM5KV | 2026-09-01 23:32:57 | 47.39025 | 19.26364 | 95° | 71km/h | 4563m | 4.7m/s | -5.6°C | 26.9% | 588.4hPa | 0V | 00:00:00 | 00:00:00 | 00:00:00 | |
| OM5KV | 2026-09-01 23:32:56 | 47.39027 | 19.26337 | 95° | 73km/h | 4559m | 4.5m/s | -5.6°C | 26.7% | 588.6hPa | 0V | 00:00:00 | 00:00:00 | 00:00:00 | |
| OM5KV | 2026-09-01 23:32:51 | 47.39028 | 19.26211 | 88° | 68km/h | 4534m | 6.6m/s | -5.3°C | 21.9% | 590.4hPa | 0V | 00:00:00 | 00:00:00 | 00:00:00 | |
| OM5KV | 2026-09-01 23:32:50 | 47.39028 | 19.26186 | 91° | 66km/h | 4528m | 5.3m/s | -5.3°C | 22.4% | 590.9hPa | 0V | 00:00:00 | 00:00:00 | 00:00:00 | |
| OM5KV | 2026-09-01 23:32:46 | 47.39032 | 19.26093 | 95° | 58km/h | 4510m | 6.0m/s | -5.1°C | 23.6% | 592.3hPa | 0V | 00:00:00 | 00:00:00 | 00:00:00 | |
| OM5KV | 2026-09-01 23:32:45 | 47.39033 | 19.26071 | 95° | 60km/h | 4504m | 5.4m/s | -5.0°C | 23.2% | 592.8hPa | 0V | 00:00:00 | 00:00:00 | 00:00:00 | |
| OM5KV | 2026-09-01 23:32:40 | 47.39039 | 19.25965 | 89° | 57km/h | 4473m | 6.0m/s | -4.7°C | 19.9% | 595.0hPa | 0V | 00:00:00 | 00:00:00 | 00:00:00 | |
| OM5KV | 2026-09-01 23:32:39 | 47.39038 | 19.25943 | 87° | 64km/h | 4468m | 4.5m/s | -4.7°C | 18.9% | 595.5hPa | 0V | 00:00:00 | 00:00:00 | 00:00:00 | |
| OM5KV | 2026-09-01 23:32:34 | 47.39038 | 19.25822 | 96° | 57km/h | 4443m | 5.2m/s | -4.4°C | 19.3% | 597.4hPa | 0V | 00:00:00 | 00:00:00 | 00:00:00 | |
| OM5KV | 2026-09-01 23:32:28 | 47.39038 | 19.25726 | 95° | 40km/h | 4410m | 5.1m/s | -4.2°C | 6.5% | 599.8hPa | 0V | 00:00:00 | 00:00:00 | 00:00:00 | |
| OM5KV | 2026-09-01 23:32:17 | 47.39049 | 19.25512 | 107° | 44km/h | 4358m | 6.5m/s | -3.8°C | 3.4% | 603.9hPa | 0V | 00:00:00 | 00:00:00 | 00:00:00 | |
| OM5KV | 2026-09-01 23:32:11 | 47.39068 | 19.25390 | 94° | 58km/h | 4325m | 6.4m/s | -3.6°C | 4.0% | 606.4hPa | 0V | 00:00:00 | 00:00:00 | 00:00:00 | |
| OM5KV | 2026-09-01 23:32:10 | 47.39069 | 19.25369 | 94° | 55km/h | 4320m | 4.2m/s | -3.6°C | 4.5% | 606.8hPa | 0V | 00:00:00 | 00:00:00 | 00:00:00 | |
| OM5KV | 2026-09-01 23:32:05 | 47.39079 | 19.25262 | 98° | 57km/h | 4288m | 5.2m/s | -3.5°C | 4.5% | 609.3hPa | 0V | 00:00:00 | 00:00:00 | 00:00:00 | |
| OM5KV | 2026-09-01 23:32:04 | 47.39080 | 19.25242 | 97° | 49km/h | 4283m | 4.2m/s | -3.5°C | 4.5% | 609.6hPa | 0V | 00:00:00 | 00:00:00 | 00:00:00 | |
| OM5KV | 2026-09-01 23:31:59 | 47.39096 | 19.25163 | 112° | 37km/h | 4251m | 2.5m/s | -3.6°C | 4.7% | 612.1hPa | 0V | 00:00:00 | 00:00:00 | 00:00:00 | |
| OM5KV | 2026-09-01 23:31:53 | 47.39118 | 19.25086 | 109° | 51km/h | 4218m | 7.9m/s | -3.5°C | 5.6% | 614.5hPa | 0V | 00:00:00 | 00:00:00 | 00:00:00 | |
| OM5KV | 2026-09-01 23:31:52 | 47.39121 | 19.25068 | 103° | 49km/h | 4211m | 6.3m/s | -3.5°C | 5.7% | 615.1hPa | 0V | 00:00:00 | 00:00:00 | 00:00:00 | |
| OM5KV | 2026-09-01 23:31:47 | 47.39128 | 19.24982 | 99° | 33km/h | 4183m | 4.8m/s | -3.5°C | 6.4% | 617.2hPa | 0V | 00:00:00 | 00:00:00 | 00:00:00 | |
| OM5KV | 2026-09-01 23:31:41 | 47.39143 | 19.24896 | 106° | 47km/h | 4151m | 7.0m/s | -3.6°C | 7.8% | 619.7hPa | 0V | 00:00:00 | 00:00:00 | 00:00:00 | |
| OM5KV | 2026-09-01 23:31:36 | 47.39147 | 19.24838 | 97° | 20km/h | 4118m | 5.1m/s | -3.6°C | 9.6% | 622.5hPa | 0V | 00:00:00 | 00:00:00 | 00:00:00 | |
| OM5KV | 2026-09-01 23:31:30 | 47.39152 | 19.24767 | 96° | 47km/h | 4089m | 5.8m/s | -3.8°C | 12.6% | 624.6hPa | 0V | 00:00:00 | 00:00:00 | 00:00:00 | |
| OM5KV | 2026-09-01 23:31:25 | 47.39168 | 19.24690 | 126° | 38km/h | 4062m | 4.7m/s | -3.6°C | 12.9% | 626.7hPa | 0V | 00:00:00 | 00:00:00 | 00:00:00 | |
| OM5KV | 2026-09-01 23:31:24 | 47.39174 | 19.24679 | 135° | 37km/h | 4057m | 6.4m/s | -3.6°C | 12.8% | 627.2hPa | 0V | 00:00:00 | 00:00:00 | 00:00:00 | |
| OM5KV | 2026-09-01 23:31:20 | 47.39191 | 19.24651 | 109° | 18km/h | 4035m | 5.9m/s | -3.5°C | 13.5% | 628.9hPa | 0V | 00:00:00 | 00:00:00 | 00:00:00 | |
| OM5KV | 2026-09-01 23:31:18 | 47.39191 | 19.24635 | 84° | 27km/h | 4024m | 5.4m/s | -3.4°C | 13.8% | 630.0hPa | 0V | 00:00:00 | 00:00:00 | 00:00:00 | |
| OM5KV | 2026-09-01 23:31:14 | 47.39195 | 19.24586 | 114° | 37km/h | 4002m | 4.3m/s | -3.2°C | 13.8% | 631.6hPa | 0V | 00:00:00 | 00:00:00 | 00:00:00 | |
| OM5KV | 2026-09-01 23:31:12 | 47.39202 | 19.24565 | 115° | 26km/h | 3992m | 5.4m/s | -3.2°C | 14.0% | 632.5hPa | 0V | 00:00:00 | 00:00:00 | 00:00:00 | |
| OM5KV | 2026-09-01 23:31:08 | 47.39199 | 19.24527 | 68° | 27km/h | 3966m | 6.7m/s | -3.0°C | 13.9% | 634.7hPa | 0V | 00:00:00 | 00:00:00 | 00:00:00 | |
| OM5KV | 2026-09-01 23:31:07 | 47.39194 | 19.24508 | 75° | 31km/h | 3957m | 4.9m/s | -2.9°C | 14.4% | 635.3hPa | 0V | 00:00:00 | 00:00:00 | 00:00:00 | |
| OM5KV | 2026-09-01 23:31:02 | 47.39192 | 19.24457 | 100° | 35km/h | 3941m | 4.9m/s | -2.9°C | 16.1% | 636.6hPa | 0V | 00:00:00 | 00:00:00 | 00:00:00 | |
| OM5KV | 2026-09-01 23:31:01 | 47.39196 | 19.24430 | 101° | 33km/h | 3930m | 4.9m/s | -3.0°C | 16.9% | 637.4hPa | 0V | 00:00:00 | 00:00:00 | 00:00:00 | |
| OM5KV | 2026-09-01 23:30:57 | 47.39195 | 19.24395 | 74° | 29km/h | 3915m | 2.9m/s | -2.9°C | 17.1% | 638.7hPa | 0V | 00:00:00 | 00:00:00 | 00:00:00 | |
| OM5KV | 2026-09-01 23:30:51 | 47.39183 | 19.24340 | 104° | 26km/h | 3885m | 6.8m/s | -2.6°C | 16.8% | 641.1hPa | 0V | 00:00:00 | 00:00:00 | 00:00:00 | |
| OM5KV | 2026-09-01 23:30:49 | 47.39188 | 19.24323 | 118° | 24km/h | 3871m | 7.1m/s | -2.5°C | 16.7% | 642.3hPa | 0V | 00:00:00 | 00:00:00 | 00:00:00 | |
| OM5KV | 2026-09-01 23:30:45 | 47.39194 | 19.24292 | 95° | 29km/h | 3847m | 5.4m/s | -2.3°C | 16.3% | 644.3hPa | 0V | 00:00:00 | 00:00:00 | 00:00:00 | |
| OM5KV | 2026-09-01 23:30:44 | 47.39195 | 19.24281 | 102° | 31km/h | 3841m | 6.2m/s | -2.3°C | 16.1% | 644.7hPa | 0V | 00:00:00 | 00:00:00 | 00:00:00 | |
| OM5KV | 2026-09-01 23:30:40 | 47.39207 | 19.24245 | 126° | 20km/h | 3817m | 5.6m/s | -2.0°C | 16.2% | 646.6hPa | 0V | 00:00:00 | 00:00:00 | 00:00:00 | |
| OM5KV | 2026-09-01 23:30:38 | 47.39212 | 19.24232 | 108° | 20km/h | 3806m | 5.8m/s | -2.1°C | 16.2% | 647.6hPa | 0V | 00:00:00 | 00:00:00 | 00:00:00 | |
| OM5KV | 2026-09-01 23:30:35 | 47.39223 | 19.24185 | 116° | 42km/h | 3783m | 6.2m/s | -2.2°C | 17.9% | 649.2hPa | 0V | 00:00:00 | 00:00:00 | 00:00:00 | |
| OM5KV | 2026-09-01 23:30:27 | 47.39249 | 19.24133 | 166° | 22km/h | 3741m | 5.7m/s | -1.9°C | 18.3% | 652.8hPa | 0V | 00:00:00 | 00:00:00 | 00:00:00 | |
| OM5KV | 2026-09-01 23:30:21 | 47.39277 | 19.24110 | 127° | 24km/h | 3711m | 4.2m/s | -1.7°C | 19.2% | 655.4hPa | 0V | 00:00:00 | 00:00:00 | 00:00:00 | |
| OM5KV | 2026-09-01 23:30:09 | 47.39329 | 19.24056 | 115° | 18km/h | 3643m | 3.7m/s | -1.3°C | 18.7% | 660.8hPa | 0V | 00:00:00 | 00:00:00 | 00:00:00 | |
| OM5KV | 2026-09-01 23:30:04 | 47.39349 | 19.24036 | 168° | 16km/h | 3616m | 6.3m/s | -1.1°C | 17.5% | 663.1hPa | 0V | 00:00:00 | 00:00:00 | 00:00:00 | |
| OM5KV | 2026-09-01 23:29:57 | 47.39360 | 19.23992 | 111° | 31km/h | 3583m | 4.4m/s | -0.9°C | 19.1% | 665.9hPa | 0V | 00:00:00 | 00:00:00 | 00:00:00 | |
| OM5KV | 2026-09-01 23:29:53 | 47.39380 | 19.23940 | 123° | 26km/h | 3555m | 7.0m/s | -0.7°C | 19.3% | 668.3hPa | 0V | 00:00:00 | 00:00:00 | 00:00:00 | |
| OM5KV | 2026-09-01 23:29:51 | 47.39384 | 19.23932 | 127° | 22km/h | 3549m | 6.3m/s | -0.7°C | 19.4% | 668.8hPa | 0V | 00:00:00 | 00:00:00 | 00:00:00 | |
| OM5KV | 2026-09-01 23:29:45 | 47.39419 | 19.23877 | 121° | 42km/h | 3516m | 5.0m/s | -0.6°C | 22.3% | 671.6hPa | 0V | 00:00:00 | 00:00:00 | 00:00:00 | |
| OM5KV | 2026-09-01 23:29:39 | 47.39439 | 19.23803 | 116° | 26km/h | 3484m | 3.8m/s | -0.7°C | 25.5% | 674.4hPa | 0V | 00:00:00 | 00:00:00 | 00:00:00 | |
| OM5KV | 2026-09-01 23:29:38 | 47.39442 | 19.23795 | 124° | 22km/h | 3481m | 4.1m/s | -0.7°C | 25.8% | 674.5hPa | 0V | 00:00:00 | 00:00:00 | 00:00:00 | |
| OM5KV | 2026-09-01 23:29:33 | 47.39460 | 19.23762 | 132° | 20km/h | 3453m | 7.0m/s | -0.5°C | 24.9% | 676.8hPa | 0V | 00:00:00 | 00:00:00 | 00:00:00 | |
| OM5KV | 2026-09-01 23:29:27 | 47.39505 | 19.23728 | 151° | 51km/h | 3417m | 5.9m/s | -0.3°C | 23.9% | 679.9hPa | 0V | 00:00:00 | 00:00:00 | 00:00:00 | |
| OM5KV | 2026-09-01 23:29:22 | 47.39556 | 19.23666 | 131° | 51km/h | 3389m | 4.8m/s | -0.1°C | 24.8% | 682.3hPa | 0V | 00:00:00 | 00:00:00 | 00:00:00 | |
| OM5KV | 2026-09-01 23:29:21 | 47.39564 | 19.23652 | 126° | 46km/h | 3384m | 4.4m/s | -0.1°C | 24.9% | 682.7hPa | 0V | 00:00:00 | 00:00:00 | 00:00:00 | |
| OM5KV | 2026-09-01 23:29:16 | 47.39594 | 19.23600 | 147° | 40km/h | 3358m | 6.4m/s | 0.0°C | 25.3% | 685.0hPa | 0V | 00:00:00 | 00:00:00 | 00:00:00 | |
| OM5KV | 2026-09-01 23:29:00 | 47.39715 | 19.23444 | 129° | 53km/h | 3263m | 6.7m/s | 0.3°C | 33.5% | 693.1hPa | 0V | 00:00:00 | 00:00:00 | 00:00:00 | |
| OM5KV | 2026-09-01 23:28:57 | 47.39747 | 19.23404 | 150° | 55km/h | 3243m | 4.8m/s | 0.4°C | 37.7% | 694.6hPa | 0V | 00:00:00 | 00:00:00 | 00:00:00 | |
| OM5KV | 2026-09-01 23:28:51 | 47.39795 | 19.23353 | 124° | 35km/h | 3210m | 5.3m/s | 0.3°C | 51.1% | 697.5hPa | 0V | 00:00:00 | 00:00:00 | 00:00:00 | |
| OM5KV | 2026-09-01 23:28:49 | 47.39805 | 19.23328 | 126° | 44km/h | 3201m | 4.2m/s | 0.4°C | 51.1% | 698.4hPa | 0V | 00:00:00 | 00:00:00 | 00:00:00 | |
| OM5KV | 2026-09-01 23:28:45 | 47.39836 | 19.23277 | 141° | 47km/h | 3172m | 8.4m/s | 0.6°C | 49.9% | 700.8hPa | 0V | 00:00:00 | 00:00:00 | 00:00:00 | |
| OM5KV | 2026-09-01 23:28:44 | 47.39847 | 19.23266 | 147° | 53km/h | 3165m | 5.7m/s | 0.7°C | 49.7% | 701.5hPa | 0V | 00:00:00 | 00:00:00 | 00:00:00 | |
| OM5KV | 2026-09-01 23:28:40 | 47.39897 | 19.23212 | 143° | 66km/h | 3143m | 5.1m/s | 0.9°C | 49.3% | 703.6hPa | 0V | 00:00:00 | 00:00:00 | 00:00:00 | |
| OM5KV | 2026-09-01 23:28:34 | 47.39977 | 19.23124 | 141° | 68km/h | 3115m | 4.2m/s | 1.2°C | 49.0% | 706.1hPa | 0V | 00:00:00 | 00:00:00 | 00:00:00 | |
| OM5KV | 2026-09-01 23:28:28 | 47.40043 | 19.23009 | 120° | 62km/h | 3089m | 3.9m/s | 1.4°C | 48.6% | 708.3hPa | 0V | 00:00:00 | 00:00:00 | 00:00:00 | |
| OM5KV | 2026-09-01 23:28:27 | 47.40050 | 19.22989 | 119° | 60km/h | 3085m | 4.1m/s | 1.4°C | 48.9% | 708.8hPa | 0V | 00:00:00 | 00:00:00 | 00:00:00 | |
| OM5KV | 2026-09-01 23:28:23 | 47.40077 | 19.22919 | 129° | 51km/h | 3067m | 3.5m/s | 1.5°C | 53.2% | 710.3hPa | 0V | 00:00:00 | 00:00:00 | 00:00:00 | |
| OM5KV | 2026-09-01 23:28:17 | 47.40143 | 19.22825 | 130° | 77km/h | 3036m | 6.3m/s | 1.7°C | 54.6% | 713.2hPa | 0V | 00:00:00 | 00:00:00 | 00:00:00 | |
| OM5KV | 2026-09-01 23:28:16 | 47.40155 | 19.22802 | 126° | 73km/h | 3030m | 5.0m/s | 1.7°C | 54.7% | 713.7hPa | 0V | 00:00:00 | 00:00:00 | 00:00:00 | |
| OM5KV | 2026-09-01 23:28:11 | 47.40195 | 19.22694 | 119° | 60km/h | 3008m | 3.9m/s | 1.8°C | 57.0% | 715.7hPa | 0V | 00:00:00 | 00:00:00 | 00:00:00 | |
| OM5KV | 2026-09-01 23:28:05 | 47.40260 | 19.22577 | 130° | 82km/h | 2978m | 5.0m/s | 2.0°C | 59.2% | 718.2hPa | 0V | 00:00:00 | 00:00:00 | 00:00:00 | |
| OM5KV | 2026-09-01 23:28:00 | 47.40325 | 19.22461 | 136° | 69km/h | 2954m | 5.5m/s | 1.9°C | 73.6% | 720.4hPa | 0V | 00:00:00 | 00:00:00 | 00:00:00 | |
| OM5KV | 2026-09-01 23:27:59 | 47.40336 | 19.22443 | 133° | 62km/h | 2948m | 4.9m/s | 1.9°C | 74.1% | 720.7hPa | 0V | 00:00:00 | 00:00:00 | 00:00:00 | |
| OM5KV | 2026-09-01 23:27:54 | 47.40380 | 19.22349 | 123° | 68km/h | 2924m | 4.5m/s | 2.0°C | 79.5% | 723.1hPa | 0V | 00:00:00 | 00:00:00 | 00:00:00 | |
| OM5KV | 2026-09-01 23:27:49 | 47.40437 | 19.22245 | 128° | 68km/h | 2899m | 5.1m/s | 2.2°C | 80.2% | 725.2hPa | 0V | 00:00:00 | 00:00:00 | 00:00:00 | |
| OM5KV | 2026-09-01 23:27:48 | 47.40447 | 19.22225 | 124° | 66km/h | 2893m | 6.4m/s | 2.2°C | 81.2% | 725.6hPa | 0V | 00:00:00 | 00:00:00 | 00:00:00 | |
| OM5KV | 2026-09-01 23:27:43 | 47.40483 | 19.22114 | 117° | 55km/h | 2867m | 5.4m/s | 2.2°C | 86.2% | 728.0hPa | 0V | 00:00:00 | 00:00:00 | 00:00:00 | |
| OM5KV | 2026-09-01 23:27:42 | 47.40489 | 19.22097 | 119° | 49km/h | 2861m | 7.2m/s | 2.3°C | 86.0% | 728.7hPa | 0V | 00:00:00 | 00:00:00 | 00:00:00 | |
| OM5KV | 2026-09-01 23:27:37 | 47.40533 | 19.22028 | 140° | 58km/h | 2835m | 5.0m/s | 2.4°C | 89.7% | 731.1hPa | 0V | 00:00:00 | 00:00:00 | 00:00:00 | |
| OM5KV | 2026-09-01 23:27:27 | 47.40616 | 19.21837 | 131° | 47km/h | 2787m | 5.7m/s | 2.8°C | 88.0% | 735.3hPa | 0V | 00:00:00 | 00:00:00 | 00:00:00 | |
| OM5KV | 2026-09-01 23:27:26 | 47.40624 | 19.21824 | 133° | 44km/h | 2781m | 6.6m/s | 2.8°C | 86.7% | 735.8hPa | 0V | 00:00:00 | 00:00:00 | 00:00:00 | |
| OM5KV | 2026-09-01 23:27:20 | 47.40665 | 19.21730 | 124° | 60km/h | 2754m | 3.9m/s | 3.0°C | 87.7% | 738.5hPa | 0V | 00:00:00 | 00:00:00 | 00:00:00 | |
| OM5KV | 2026-09-01 23:27:14 | 47.40714 | 19.21632 | 123° | 46km/h | 2722m | 7.0m/s | 3.2°C | 88.0% | 741.5hPa | 0V | 00:00:00 | 00:00:00 | 00:00:00 | |
| OM5KV | 2026-09-01 23:27:10 | 47.40743 | 19.21556 | 124° | 69km/h | 2701m | 4.7m/s | 3.3°C | 87.1% | 743.2hPa | 0V | 00:00:00 | 00:00:00 | 00:00:00 | |
| OM5KV | 2026-09-01 23:27:09 | 47.40753 | 19.21535 | 125° | 69km/h | 2696m | 4.5m/s | 3.3°C | 86.3% | 743.6hPa | 0V | 00:00:00 | 00:00:00 | 00:00:00 | |
| OM5KV | 2026-09-01 23:27:04 | 47.40800 | 19.21429 | 129° | 64km/h | 2666m | 7.4m/s | 3.6°C | 84.1% | 746.4hPa | 0V | 00:00:00 | 00:00:00 | 00:00:00 | |
| OM5KV | 2026-09-01 23:27:03 | 47.40809 | 19.21411 | 131° | 58km/h | 2661m | 3.9m/s | 3.7°C | 84.1% | 746.9hPa | 0V | 00:00:00 | 00:00:00 | 00:00:00 | |
| OM5KV | 2026-09-01 23:26:58 | 47.40849 | 19.21331 | 121° | 60km/h | 2635m | 5.7m/s | 3.9°C | 82.0% | 749.2hPa | 0V | 00:00:00 | 00:00:00 | 00:00:00 | |
| OM5KV | 2026-09-01 23:26:57 | 47.40857 | 19.21311 | 125° | 66km/h | 2629m | 6.1m/s | 4.0°C | 81.5% | 749.8hPa | 0V | 00:00:00 | 00:00:00 | 00:00:00 | |
| OM5KV | 2026-09-01 23:26:52 | 47.40911 | 19.21218 | 127° | 57km/h | 2603m | 4.0m/s | 4.2°C | 80.6% | 752.1hPa | 0V | 00:00:00 | 00:00:00 | 00:00:00 | |
| OM5KV | 2026-09-01 23:26:51 | 47.40919 | 19.21201 | 126° | 55km/h | 2598m | 7.4m/s | 4.3°C | 80.1% | 752.5hPa | 0V | 00:00:00 | 00:00:00 | 00:00:00 | |
| OM5KV | 2026-09-01 23:26:46 | 47.40952 | 19.21106 | 120° | 66km/h | 2556m | 8.3m/s | 4.7°C | 75.6% | 756.3hPa | 0V | 00:00:00 | 00:00:00 | 00:00:00 | |
| OM5KV | 2026-09-01 23:26:45 | 47.40961 | 19.21085 | 126° | 66km/h | 2548m | 7.8m/s | 4.8°C | 73.5% | 757.2hPa | 0V | 00:00:00 | 00:00:00 | 00:00:00 | |
| OM5KV | 2026-09-01 23:26:41 | 47.41001 | 19.21006 | 122° | 64km/h | 2523m | 5.1m/s | 5.0°C | 67.2% | 759.6hPa | 0V | 00:00:00 | 00:00:00 | 00:00:00 | |
| OM5KV | 2026-09-01 23:26:39 | 47.41018 | 19.20965 | 124° | 62km/h | 2513m | 5.3m/s | 5.1°C | 65.3% | 760.4hPa | 0V | 00:00:00 | 00:00:00 | 00:00:00 | |
| OM5KV | 2026-09-01 23:26:35 | 47.41059 | 19.20901 | 136° | 66km/h | 2488m | 7.3m/s | 5.1°C | 66.7% | 762.8hPa | 0V | 00:00:00 | 00:00:00 | 00:00:00 | |
| OM5KV | 2026-09-01 23:26:33 | 47.41082 | 19.20862 | 128° | 73km/h | 2478m | 5.7m/s | 5.1°C | 67.6% | 763.8hPa | 0V | 00:00:00 | 00:00:00 | 00:00:00 | |
| OM5KV | 2026-09-01 23:26:29 | 47.41117 | 19.20779 | 122° | 53km/h | 2451m | 6.3m/s | 5.2°C | 69.2% | 766.2hPa | 0V | 00:00:00 | 00:00:00 | 00:00:00 | |
| OM5KV | 2026-09-01 23:26:24 | 47.41164 | 19.20712 | 139° | 62km/h | 2426m | 4.0m/s | 5.3°C | 70.7% | 768.8hPa | 0V | 00:00:00 | 00:00:00 | 00:00:00 | |
| OM5KV | 2026-09-01 23:26:21 | 47.41197 | 19.20659 | 127° | 62km/h | 2412m | 4.9m/s | 5.3°C | 71.6% | 770.0hPa | 0V | 00:00:00 | 00:00:00 | 00:00:00 | |
| OM5KV | 2026-09-01 23:26:17 | 47.41227 | 19.20587 | 129° | 49km/h | 2391m | 4.4m/s | 5.5°C | 72.7% | 772.0hPa | 0V | 00:00:00 | 00:00:00 | 00:00:00 | |
| OM5KV | 2026-09-01 23:26:15 | 47.41245 | 19.20560 | 143° | 57km/h | 2381m | 5.6m/s | 5.5°C | 72.5% | 773.0hPa | 0V | 00:00:00 | 00:00:00 | 00:00:00 | |
| OM5KV | 2026-09-01 23:26:11 | 47.41290 | 19.20505 | 134° | 51km/h | 2358m | 5.2m/s | 5.7°C | 73.7% | 775.2hPa | 0V | 00:00:00 | 00:00:00 | 00:00:00 | |
| OM5KV | 2026-09-01 23:26:09 | 47.41304 | 19.20475 | 122° | 49km/h | 2345m | 5.5m/s | 5.7°C | 74.3% | 776.4hPa | 0V | 00:00:00 | 00:00:00 | 00:00:00 | |
| OM5KV | 2026-09-01 23:26:05 | 47.41333 | 19.20404 | 126° | 60km/h | 2322m | 5.9m/s | 5.8°C | 76.4% | 778.6hPa | 0V | 00:00:00 | 00:00:00 | 00:00:00 | |
| OM5KV | 2026-09-01 23:26:03 | 47.41352 | 19.20370 | 130° | 57km/h | 2312m | 4.6m/s | 5.9°C | 76.7% | 779.5hPa | 0V | 00:00:00 | 00:00:00 | 00:00:00 | |
| OM5KV | 2026-09-01 23:25:59 | 47.41382 | 19.20310 | 124° | 49km/h | 2291m | 6.2m/s | 6.0°C | 76.5% | 781.5hPa | 0V | 00:00:00 | 00:00:00 | 00:00:00 | |
| OM5KV | 2026-09-01 23:25:58 | 47.41390 | 19.20295 | 127° | 53km/h | 2284m | 7.0m/s | 6.1°C | 76.6% | 782.1hPa | 0V | 00:00:00 | 00:00:00 | 00:00:00 | |
| OM5KV | 2026-09-01 23:25:53 | 47.41434 | 19.20225 | 136° | 46km/h | 2257m | 6.2m/s | 6.2°C | 77.7% | 784.8hPa | 0V | 00:00:00 | 00:00:00 | 00:00:00 | |
| OM5KV | 2026-09-01 23:25:52 | 47.41442 | 19.20212 | 133° | 49km/h | 2250m | 7.0m/s | 6.3°C | 78.1% | 785.3hPa | 0V | 00:00:00 | 00:00:00 | 00:00:00 | |
| OM5KV | 2026-09-01 23:25:49 | 47.41479 | 19.20162 | 140° | 47km/h | 2226m | 6.1m/s | 6.4°C | 78.9% | 787.6hPa | 0V | 00:00:00 | 00:00:00 | 00:00:00 | |
| OM5KV | 2026-09-01 23:25:43 | 47.41521 | 19.20097 | 140° | 40km/h | 2198m | 4.7m/s | 6.6°C | 0% | 0hPa | 0V | 00:00:00 | 00:00:00 | 00:00:00 | |
| OM5KV | 2026-09-01 23:25:41 | 47.41533 | 19.20080 | 130° | 31km/h | 2187m | 5.0m/s | 6.7°C | 77.7% | 791.4hPa | 0V | 00:00:00 | 00:00:00 | 00:00:00 | |
| OM5KV | 2026-09-01 23:25:37 | 47.41553 | 19.20034 | 126° | 44km/h | 2166m | 5.6m/s | 6.9°C | 0% | 0hPa | 0V | 00:00:00 | 00:00:00 | 00:00:00 | |
| OM5KV | 2026-09-01 23:25:32 | 47.41583 | 19.19979 | 139° | 33km/h | 2135m | 6.9m/s | 7.2°C | 0% | 0hPa | 0V | 00:00:00 | 00:00:00 | 00:00:00 | |
| OM5KV | 2026-09-01 23:25:30 | 47.41599 | 19.19962 | 147° | 44km/h | 2124m | 5.0m/s | 7.3°C | 76.2% | 797.6hPa | 0V | 00:00:00 | 00:00:00 | 00:00:00 | |
| OM5KV | 2026-09-01 23:25:27 | 47.41634 | 19.19915 | 134° | 42km/h | 2104m | 5.3m/s | 7.4°C | 0% | 0hPa | 0V | 00:00:00 | 00:00:00 | 00:00:00 | |
| OM5KV | 2026-09-01 23:25:24 | 47.41647 | 19.19893 | 129° | 37km/h | 2093m | 5.6m/s | 7.5°C | 76.5% | 800.6hPa | 0V | 00:00:00 | 00:00:00 | 00:00:00 | |
| OM5KV | 2026-09-01 23:25:20 | 47.41672 | 19.19850 | 139° | 38km/h | 2068m | 6.9m/s | 7.7°C | 0% | 0hPa | 0V | 00:00:00 | 00:00:00 | 00:00:00 | |
| OM5KV | 2026-09-01 23:25:19 | 47.41678 | 19.19842 | 137° | 29km/h | 2062m | 4.5m/s | 7.8°C | 76.7% | 803.7hPa | 0V | 00:00:00 | 00:00:00 | 00:00:00 | |
| OM5KV | 2026-09-01 23:25:14 | 47.41702 | 19.19795 | 130° | 42km/h | 2033m | 5.3m/s | 8.0°C | 0% | 0hPa | 0V | 00:00:00 | 00:00:00 | 00:00:00 | |
| OM5KV | 2026-09-01 23:25:13 | 47.41710 | 19.19784 | 136° | 42km/h | 2028m | 6.5m/s | 8.1°C | 75.6% | 807.1hPa | 0V | 00:00:00 | 00:00:00 | 00:00:00 | |
| OM5KV | 2026-09-01 23:25:09 | 47.41734 | 19.19740 | 123° | 35km/h | 2005m | 4.6m/s | 0°C | 0% | 0hPa | 0V | 00:00:00 | 00:00:00 | 00:00:00 | |
| OM5KV | 2026-09-01 23:25:07 | 47.41744 | 19.19719 | 130° | 35km/h | 1990m | 7.5m/s | 0°C | 0% | 810.7hPa | 0V | 00:00:00 | 00:00:00 | 00:00:00 | |
| OM5KV | 2026-09-01 23:25:03 | 47.41761 | 19.19692 | 122° | 20km/h | 1965m | 6.9m/s | 0°C | 0% | 0hPa | 0V | 00:00:00 | 00:00:00 | 00:00:00 | |
| OM5KV | 2026-09-01 23:25:02 | 47.41764 | 19.19685 | 124° | 24km/h | 1959m | 5.0m/s | 0°C | 0% | 813.7hPa | 0V | 00:00:00 | 00:00:00 | 00:00:00 | |
| OM5KV | 2026-09-01 23:24:56 | 47.41799 | 19.19627 | 135° | 44km/h | 1920m | 7.0m/s | 0°C | 0% | 817.4hPa | 0V | 00:00:00 | 00:00:00 | 00:00:00 | |
| OM5KV | 2026-09-01 23:24:50 | 47.41821 | 19.19575 | 138° | 20km/h | 1887m | 5.2m/s | 0°C | 0% | 0hPa | 0V | 00:00:00 | 00:00:00 | 00:00:00 | |
| OM5KV | 2026-09-01 23:24:44 | 47.41857 | 19.19528 | 125° | 35km/h | 1852m | 4.5m/s | 0°C | 0% | 0hPa | 0V | 00:00:00 | 00:00:00 | 00:00:00 | |
| OM5KV | 2026-09-01 23:24:38 | 47.41892 | 19.19482 | 141° | 33km/h | 1820m | 4.1m/s | 0°C | 0% | 0hPa | 0V | 00:00:00 | 00:00:00 | 00:00:00 | |
| OM5KV | 2026-09-01 23:24:27 | 47.41936 | 19.19391 | 111° | 33km/h | 1756m | 4.8m/s | 0°C | 0% | 0hPa | 0V | 00:00:00 | 00:00:00 | 00:00:00 |